<?xml version="1.0" encoding="UTF-8" standalone="no" ?>
<gpx xmlns="http://www.topografix.com/GPX/1/1" xmlns:xsi="http://www.w3.org/2001/XMLSchema-instance" xsi:schemaLocation="http://www.topografix.com/GPX/1/1 http://www.topografix.com/GPX/1/1/gpx.xsd" version="1.1" creator="VisuGPX - https://www.visugpx.com">
  <metadata>
    <name>Guerlédan / Anse de Sordan</name>
    <desc><![CDATA[Très belle rando lors de la mise à sec du barrage de Guerlédan]]></desc>
  </metadata>
  <trk>
    <name><![CDATA[Bon Repos/Anse de Sordan11-Sept-15]]></name>
    <trkseg>
      <trkpt lat="48.21145" lon="-3.12946">
        <ele>128.47</ele>
        <time>2015-09-11T08:46:26Z</time>
      </trkpt>
      <trkpt lat="48.21146" lon="-3.12947">
        <ele>128.95</ele>
        <time>2015-09-11T08:46:49Z</time>
      </trkpt>
      <trkpt lat="48.21147" lon="-3.1295">
        <ele>128.95</ele>
        <time>2015-09-11T08:46:59Z</time>
      </trkpt>
      <trkpt lat="48.21147" lon="-3.12953">
        <ele>128.95</ele>
        <time>2015-09-11T08:47:01Z</time>
      </trkpt>
      <trkpt lat="48.21156" lon="-3.1296">
        <ele>129.43</ele>
        <time>2015-09-11T08:47:13Z</time>
      </trkpt>
      <trkpt lat="48.21159" lon="-3.12964">
        <ele>129.43</ele>
        <time>2015-09-11T08:47:17Z</time>
      </trkpt>
      <trkpt lat="48.21166" lon="-3.1297">
        <ele>129.92</ele>
        <time>2015-09-11T08:47:28Z</time>
      </trkpt>
      <trkpt lat="48.21172" lon="-3.12978">
        <ele>129.43</ele>
        <time>2015-09-11T08:47:36Z</time>
      </trkpt>
      <trkpt lat="48.21181" lon="-3.12989">
        <ele>128.95</ele>
        <time>2015-09-11T08:47:48Z</time>
      </trkpt>
      <trkpt lat="48.21195" lon="-3.12995">
        <ele>129.92</ele>
        <time>2015-09-11T08:48:02Z</time>
      </trkpt>
      <trkpt lat="48.21203" lon="-3.12997">
        <ele>130.4</ele>
        <time>2015-09-11T08:48:12Z</time>
      </trkpt>
      <trkpt lat="48.21207" lon="-3.12995">
        <ele>130.4</ele>
        <time>2015-09-11T08:48:17Z</time>
      </trkpt>
      <trkpt lat="48.21215" lon="-3.12983">
        <ele>130.4</ele>
        <time>2015-09-11T08:48:32Z</time>
      </trkpt>
      <trkpt lat="48.21224" lon="-3.12969">
        <ele>130.88</ele>
        <time>2015-09-11T08:48:46Z</time>
      </trkpt>
      <trkpt lat="48.21235" lon="-3.12943">
        <ele>127.99</ele>
        <time>2015-09-11T08:49:04Z</time>
      </trkpt>
      <trkpt lat="48.21229" lon="-3.12934">
        <ele>127.99</ele>
        <time>2015-09-11T08:49:14Z</time>
      </trkpt>
      <trkpt lat="48.21219" lon="-3.12919">
        <ele>127.99</ele>
        <time>2015-09-11T08:49:27Z</time>
      </trkpt>
      <trkpt lat="48.21217" lon="-3.12918">
        <ele>127.99</ele>
        <time>2015-09-11T08:49:29Z</time>
      </trkpt>
      <trkpt lat="48.21211" lon="-3.12914">
        <ele>126.55</ele>
        <time>2015-09-11T08:49:34Z</time>
      </trkpt>
      <trkpt lat="48.21203" lon="-3.12909">
        <ele>126.07</ele>
        <time>2015-09-11T08:49:44Z</time>
      </trkpt>
      <trkpt lat="48.21188" lon="-3.12906">
        <ele>126.07</ele>
        <time>2015-09-11T08:49:55Z</time>
      </trkpt>
      <trkpt lat="48.21183" lon="-3.12906">
        <ele>126.07</ele>
        <time>2015-09-11T08:49:59Z</time>
      </trkpt>
      <trkpt lat="48.21177" lon="-3.12905">
        <ele>124.15</ele>
        <time>2015-09-11T08:50:09Z</time>
      </trkpt>
      <trkpt lat="48.21167" lon="-3.12898">
        <ele>125.11</ele>
        <time>2015-09-11T08:50:26Z</time>
      </trkpt>
      <trkpt lat="48.21166" lon="-3.12898">
        <ele>125.11</ele>
        <time>2015-09-11T08:50:27Z</time>
      </trkpt>
      <trkpt lat="48.21146" lon="-3.12887">
        <ele>123.19</ele>
        <time>2015-09-11T08:50:44Z</time>
      </trkpt>
      <trkpt lat="48.21135" lon="-3.12878">
        <ele>121.74</ele>
        <time>2015-09-11T08:50:56Z</time>
      </trkpt>
      <trkpt lat="48.21128" lon="-3.12871">
        <ele>120.3</ele>
        <time>2015-09-11T08:51:03Z</time>
      </trkpt>
      <trkpt lat="48.21114" lon="-3.12857">
        <ele>120.3</ele>
        <time>2015-09-11T08:51:17Z</time>
      </trkpt>
      <trkpt lat="48.21108" lon="-3.1285">
        <ele>120.3</ele>
        <time>2015-09-11T08:51:27Z</time>
      </trkpt>
      <trkpt lat="48.21106" lon="-3.12848">
        <ele>120.3</ele>
        <time>2015-09-11T08:51:29Z</time>
      </trkpt>
      <trkpt lat="48.21097" lon="-3.12835">
        <ele>119.82</ele>
        <time>2015-09-11T08:51:42Z</time>
      </trkpt>
      <trkpt lat="48.21097" lon="-3.12833">
        <ele>119.82</ele>
        <time>2015-09-11T08:51:44Z</time>
      </trkpt>
      <trkpt lat="48.21093" lon="-3.12824">
        <ele>118.86</ele>
        <time>2015-09-11T08:51:51Z</time>
      </trkpt>
      <trkpt lat="48.21075" lon="-3.12805">
        <ele>117.9</ele>
        <time>2015-09-11T08:52:05Z</time>
      </trkpt>
      <trkpt lat="48.21072" lon="-3.128">
        <ele>118.86</ele>
        <time>2015-09-11T08:52:11Z</time>
      </trkpt>
      <trkpt lat="48.21067" lon="-3.12764">
        <ele>119.34</ele>
        <time>2015-09-11T08:52:26Z</time>
      </trkpt>
      <trkpt lat="48.21061" lon="-3.1275">
        <ele>119.34</ele>
        <time>2015-09-11T08:52:39Z</time>
      </trkpt>
      <trkpt lat="48.21053" lon="-3.12728">
        <ele>123.19</ele>
        <time>2015-09-11T08:52:51Z</time>
      </trkpt>
      <trkpt lat="48.2105" lon="-3.12698">
        <ele>126.07</ele>
        <time>2015-09-11T08:53:05Z</time>
      </trkpt>
      <trkpt lat="48.2105" lon="-3.12686">
        <ele>127.03</ele>
        <time>2015-09-11T08:53:15Z</time>
      </trkpt>
      <trkpt lat="48.21049" lon="-3.12666">
        <ele>127.03</ele>
        <time>2015-09-11T08:53:26Z</time>
      </trkpt>
      <trkpt lat="48.21052" lon="-3.12645">
        <ele>124.15</ele>
        <time>2015-09-11T08:53:39Z</time>
      </trkpt>
      <trkpt lat="48.21053" lon="-3.12626">
        <ele>121.26</ele>
        <time>2015-09-11T08:53:50Z</time>
      </trkpt>
      <trkpt lat="48.21055" lon="-3.12614">
        <ele>119.82</ele>
        <time>2015-09-11T08:53:56Z</time>
      </trkpt>
      <trkpt lat="48.21055" lon="-3.12597">
        <ele>118.38</ele>
        <time>2015-09-11T08:54:05Z</time>
      </trkpt>
      <trkpt lat="48.21057" lon="-3.12576">
        <ele>112.13</ele>
        <time>2015-09-11T08:54:18Z</time>
      </trkpt>
      <trkpt lat="48.21057" lon="-3.12567">
        <ele>112.13</ele>
        <time>2015-09-11T08:54:22Z</time>
      </trkpt>
      <trkpt lat="48.21056" lon="-3.12539">
        <ele>114.05</ele>
        <time>2015-09-11T08:54:36Z</time>
      </trkpt>
      <trkpt lat="48.21056" lon="-3.12514">
        <ele>113.57</ele>
        <time>2015-09-11T08:54:49Z</time>
      </trkpt>
      <trkpt lat="48.21057" lon="-3.12496">
        <ele>110.69</ele>
        <time>2015-09-11T08:54:59Z</time>
      </trkpt>
      <trkpt lat="48.21057" lon="-3.12486">
        <ele>110.69</ele>
        <time>2015-09-11T08:55:05Z</time>
      </trkpt>
      <trkpt lat="48.21056" lon="-3.12477">
        <ele>113.09</ele>
        <time>2015-09-11T08:55:09Z</time>
      </trkpt>
      <trkpt lat="48.21056" lon="-3.1247">
        <ele>110.69</ele>
        <time>2015-09-11T08:55:15Z</time>
      </trkpt>
      <trkpt lat="48.21057" lon="-3.12457">
        <ele>106.84</ele>
        <time>2015-09-11T08:55:22Z</time>
      </trkpt>
      <trkpt lat="48.2106" lon="-3.12435">
        <ele>103.48</ele>
        <time>2015-09-11T08:55:34Z</time>
      </trkpt>
      <trkpt lat="48.21064" lon="-3.12413">
        <ele>99.63</ele>
        <time>2015-09-11T08:55:48Z</time>
      </trkpt>
      <trkpt lat="48.21067" lon="-3.1239">
        <ele>101.08</ele>
        <time>2015-09-11T08:56:00Z</time>
      </trkpt>
      <trkpt lat="48.21069" lon="-3.12369">
        <ele>107.32</ele>
        <time>2015-09-11T08:56:11Z</time>
      </trkpt>
      <trkpt lat="48.21071" lon="-3.12351">
        <ele>110.69</ele>
        <time>2015-09-11T08:56:23Z</time>
      </trkpt>
      <trkpt lat="48.21072" lon="-3.12328">
        <ele>114.05</ele>
        <time>2015-09-11T08:56:33Z</time>
      </trkpt>
      <trkpt lat="48.21074" lon="-3.12303">
        <ele>117.9</ele>
        <time>2015-09-11T08:56:47Z</time>
      </trkpt>
      <trkpt lat="48.21073" lon="-3.12288">
        <ele>118.38</ele>
        <time>2015-09-11T08:56:55Z</time>
      </trkpt>
      <trkpt lat="48.21073" lon="-3.12276">
        <ele>118.86</ele>
        <time>2015-09-11T08:57:00Z</time>
      </trkpt>
      <trkpt lat="48.21073" lon="-3.12253">
        <ele>121.74</ele>
        <time>2015-09-11T08:57:13Z</time>
      </trkpt>
      <trkpt lat="48.21074" lon="-3.12232">
        <ele>120.3</ele>
        <time>2015-09-11T08:57:25Z</time>
      </trkpt>
      <trkpt lat="48.21074" lon="-3.12223">
        <ele>117.9</ele>
        <time>2015-09-11T08:57:30Z</time>
      </trkpt>
      <trkpt lat="48.21078" lon="-3.12203">
        <ele>111.17</ele>
        <time>2015-09-11T08:57:42Z</time>
      </trkpt>
      <trkpt lat="48.21077" lon="-3.12182">
        <ele>108.29</ele>
        <time>2015-09-11T08:57:55Z</time>
      </trkpt>
      <trkpt lat="48.21077" lon="-3.12167">
        <ele>108.77</ele>
        <time>2015-09-11T08:58:03Z</time>
      </trkpt>
      <trkpt lat="48.21077" lon="-3.12144">
        <ele>111.17</ele>
        <time>2015-09-11T08:58:16Z</time>
      </trkpt>
      <trkpt lat="48.21079" lon="-3.12119">
        <ele>117.42</ele>
        <time>2015-09-11T08:58:30Z</time>
      </trkpt>
      <trkpt lat="48.21077" lon="-3.12101">
        <ele>123.67</ele>
        <time>2015-09-11T08:58:37Z</time>
      </trkpt>
      <trkpt lat="48.21079" lon="-3.12088">
        <ele>126.07</ele>
        <time>2015-09-11T08:58:46Z</time>
      </trkpt>
      <trkpt lat="48.21081" lon="-3.1207">
        <ele>125.11</ele>
        <time>2015-09-11T08:58:58Z</time>
      </trkpt>
      <trkpt lat="48.21081" lon="-3.12067">
        <ele>124.63</ele>
        <time>2015-09-11T08:59:00Z</time>
      </trkpt>
      <trkpt lat="48.21081" lon="-3.1205">
        <ele>123.19</ele>
        <time>2015-09-11T08:59:09Z</time>
      </trkpt>
      <trkpt lat="48.21084" lon="-3.12025">
        <ele>122.71</ele>
        <time>2015-09-11T08:59:22Z</time>
      </trkpt>
      <trkpt lat="48.21085" lon="-3.12007">
        <ele>123.19</ele>
        <time>2015-09-11T08:59:34Z</time>
      </trkpt>
      <trkpt lat="48.21084" lon="-3.11999">
        <ele>122.22</ele>
        <time>2015-09-11T08:59:38Z</time>
      </trkpt>
      <trkpt lat="48.21086" lon="-3.11978">
        <ele>122.22</ele>
        <time>2015-09-11T08:59:50Z</time>
      </trkpt>
      <trkpt lat="48.21087" lon="-3.11973">
        <ele>121.74</ele>
        <time>2015-09-11T08:59:53Z</time>
      </trkpt>
      <trkpt lat="48.21087" lon="-3.11955">
        <ele>121.26</ele>
        <time>2015-09-11T09:00:06Z</time>
      </trkpt>
      <trkpt lat="48.21083" lon="-3.11935">
        <ele>120.78</ele>
        <time>2015-09-11T09:00:18Z</time>
      </trkpt>
      <trkpt lat="48.21079" lon="-3.11903">
        <ele>122.22</ele>
        <time>2015-09-11T09:00:32Z</time>
      </trkpt>
      <trkpt lat="48.21078" lon="-3.119">
        <ele>122.22</ele>
        <time>2015-09-11T09:00:34Z</time>
      </trkpt>
      <trkpt lat="48.21076" lon="-3.11878">
        <ele>122.22</ele>
        <time>2015-09-11T09:00:47Z</time>
      </trkpt>
      <trkpt lat="48.21067" lon="-3.11853">
        <ele>124.15</ele>
        <time>2015-09-11T09:01:01Z</time>
      </trkpt>
      <trkpt lat="48.21063" lon="-3.11834">
        <ele>124.15</ele>
        <time>2015-09-11T09:01:13Z</time>
      </trkpt>
      <trkpt lat="48.2106" lon="-3.11814">
        <ele>126.55</ele>
        <time>2015-09-11T09:01:25Z</time>
      </trkpt>
      <trkpt lat="48.21053" lon="-3.11787">
        <ele>127.03</ele>
        <time>2015-09-11T09:01:39Z</time>
      </trkpt>
      <trkpt lat="48.21047" lon="-3.1177">
        <ele>127.51</ele>
        <time>2015-09-11T09:01:50Z</time>
      </trkpt>
      <trkpt lat="48.21038" lon="-3.11747">
        <ele>128.47</ele>
        <time>2015-09-11T09:02:04Z</time>
      </trkpt>
      <trkpt lat="48.21036" lon="-3.11736">
        <ele>127.99</ele>
        <time>2015-09-11T09:02:10Z</time>
      </trkpt>
      <trkpt lat="48.21035" lon="-3.11729">
        <ele>127.51</ele>
        <time>2015-09-11T09:02:14Z</time>
      </trkpt>
      <trkpt lat="48.21035" lon="-3.11726">
        <ele>128.47</ele>
        <time>2015-09-11T09:02:16Z</time>
      </trkpt>
      <trkpt lat="48.21031" lon="-3.11716">
        <ele>128.47</ele>
        <time>2015-09-11T09:02:23Z</time>
      </trkpt>
      <trkpt lat="48.21028" lon="-3.11703">
        <ele>129.43</ele>
        <time>2015-09-11T09:02:30Z</time>
      </trkpt>
      <trkpt lat="48.21021" lon="-3.11683">
        <ele>131.36</ele>
        <time>2015-09-11T09:02:43Z</time>
      </trkpt>
      <trkpt lat="48.21017" lon="-3.1167">
        <ele>130.4</ele>
        <time>2015-09-11T09:02:51Z</time>
      </trkpt>
      <trkpt lat="48.21012" lon="-3.11656">
        <ele>128.95</ele>
        <time>2015-09-11T09:03:01Z</time>
      </trkpt>
      <trkpt lat="48.21007" lon="-3.11649">
        <ele>129.92</ele>
        <time>2015-09-11T09:03:06Z</time>
      </trkpt>
      <trkpt lat="48.21" lon="-3.11633">
        <ele>129.92</ele>
        <time>2015-09-11T09:03:18Z</time>
      </trkpt>
      <trkpt lat="48.20991" lon="-3.11612">
        <ele>128.47</ele>
        <time>2015-09-11T09:03:32Z</time>
      </trkpt>
      <trkpt lat="48.20978" lon="-3.11596">
        <ele>128.95</ele>
        <time>2015-09-11T09:03:45Z</time>
      </trkpt>
      <trkpt lat="48.20965" lon="-3.11585">
        <ele>128.47</ele>
        <time>2015-09-11T09:03:58Z</time>
      </trkpt>
      <trkpt lat="48.20956" lon="-3.1158">
        <ele>128.95</ele>
        <time>2015-09-11T09:04:08Z</time>
      </trkpt>
      <trkpt lat="48.20953" lon="-3.1158">
        <ele>128.95</ele>
        <time>2015-09-11T09:04:12Z</time>
      </trkpt>
      <trkpt lat="48.20943" lon="-3.1158">
        <ele>129.43</ele>
        <time>2015-09-11T09:04:20Z</time>
      </trkpt>
      <trkpt lat="48.20933" lon="-3.11582">
        <ele>128.95</ele>
        <time>2015-09-11T09:04:30Z</time>
      </trkpt>
      <trkpt lat="48.20929" lon="-3.11585">
        <ele>128.95</ele>
        <time>2015-09-11T09:04:34Z</time>
      </trkpt>
      <trkpt lat="48.20917" lon="-3.11599">
        <ele>129.92</ele>
        <time>2015-09-11T09:04:47Z</time>
      </trkpt>
      <trkpt lat="48.20902" lon="-3.11611">
        <ele>130.4</ele>
        <time>2015-09-11T09:04:59Z</time>
      </trkpt>
      <trkpt lat="48.20901" lon="-3.1161">
        <ele>129.92</ele>
        <time>2015-09-11T09:05:00Z</time>
      </trkpt>
      <trkpt lat="48.20899" lon="-3.11611">
        <ele>129.92</ele>
        <time>2015-09-11T09:05:02Z</time>
      </trkpt>
      <trkpt lat="48.20885" lon="-3.11616">
        <ele>131.36</ele>
        <time>2015-09-11T09:05:14Z</time>
      </trkpt>
      <trkpt lat="48.20876" lon="-3.1162">
        <ele>131.36</ele>
        <time>2015-09-11T09:05:20Z</time>
      </trkpt>
      <trkpt lat="48.20872" lon="-3.1162">
        <ele>131.36</ele>
        <time>2015-09-11T09:05:23Z</time>
      </trkpt>
      <trkpt lat="48.20855" lon="-3.11616">
        <ele>128.47</ele>
        <time>2015-09-11T09:05:35Z</time>
      </trkpt>
      <trkpt lat="48.20843" lon="-3.11611">
        <ele>127.03</ele>
        <time>2015-09-11T09:05:46Z</time>
      </trkpt>
      <trkpt lat="48.20835" lon="-3.11611">
        <ele>127.51</ele>
        <time>2015-09-11T09:05:52Z</time>
      </trkpt>
      <trkpt lat="48.20819" lon="-3.11607">
        <ele>126.07</ele>
        <time>2015-09-11T09:06:05Z</time>
      </trkpt>
      <trkpt lat="48.20807" lon="-3.11602">
        <ele>124.63</ele>
        <time>2015-09-11T09:06:15Z</time>
      </trkpt>
      <trkpt lat="48.20793" lon="-3.11592">
        <ele>127.51</ele>
        <time>2015-09-11T09:06:28Z</time>
      </trkpt>
      <trkpt lat="48.20789" lon="-3.11587">
        <ele>126.55</ele>
        <time>2015-09-11T09:06:33Z</time>
      </trkpt>
      <trkpt lat="48.20782" lon="-3.1158">
        <ele>125.59</ele>
        <time>2015-09-11T09:06:46Z</time>
      </trkpt>
      <trkpt lat="48.20766" lon="-3.11567">
        <ele>125.59</ele>
        <time>2015-09-11T09:07:01Z</time>
      </trkpt>
      <trkpt lat="48.20755" lon="-3.11555">
        <ele>125.11</ele>
        <time>2015-09-11T09:07:12Z</time>
      </trkpt>
      <trkpt lat="48.2075" lon="-3.11548">
        <ele>125.11</ele>
        <time>2015-09-11T09:07:18Z</time>
      </trkpt>
      <trkpt lat="48.20743" lon="-3.1154">
        <ele>125.11</ele>
        <time>2015-09-11T09:07:25Z</time>
      </trkpt>
      <trkpt lat="48.2073" lon="-3.11533">
        <ele>126.07</ele>
        <time>2015-09-11T09:07:34Z</time>
      </trkpt>
      <trkpt lat="48.20718" lon="-3.11517">
        <ele>125.11</ele>
        <time>2015-09-11T09:07:46Z</time>
      </trkpt>
      <trkpt lat="48.20712" lon="-3.11512">
        <ele>125.11</ele>
        <time>2015-09-11T09:07:50Z</time>
      </trkpt>
      <trkpt lat="48.20701" lon="-3.11503">
        <ele>125.11</ele>
        <time>2015-09-11T09:08:01Z</time>
      </trkpt>
      <trkpt lat="48.20694" lon="-3.11492">
        <ele>124.15</ele>
        <time>2015-09-11T09:08:09Z</time>
      </trkpt>
      <trkpt lat="48.20691" lon="-3.11488">
        <ele>124.15</ele>
        <time>2015-09-11T09:08:11Z</time>
      </trkpt>
      <trkpt lat="48.20679" lon="-3.11466">
        <ele>123.67</ele>
        <time>2015-09-11T09:08:25Z</time>
      </trkpt>
      <trkpt lat="48.20668" lon="-3.11446">
        <ele>121.74</ele>
        <time>2015-09-11T09:08:37Z</time>
      </trkpt>
      <trkpt lat="48.20661" lon="-3.11425">
        <ele>125.11</ele>
        <time>2015-09-11T09:08:48Z</time>
      </trkpt>
      <trkpt lat="48.20649" lon="-3.11403">
        <ele>125.59</ele>
        <time>2015-09-11T09:09:03Z</time>
      </trkpt>
      <trkpt lat="48.20647" lon="-3.11397">
        <ele>125.11</ele>
        <time>2015-09-11T09:09:08Z</time>
      </trkpt>
      <trkpt lat="48.20644" lon="-3.11391">
        <ele>124.63</ele>
        <time>2015-09-11T09:09:12Z</time>
      </trkpt>
      <trkpt lat="48.20631" lon="-3.11366">
        <ele>124.15</ele>
        <time>2015-09-11T09:09:27Z</time>
      </trkpt>
      <trkpt lat="48.20621" lon="-3.11346">
        <ele>125.11</ele>
        <time>2015-09-11T09:09:42Z</time>
      </trkpt>
      <trkpt lat="48.20611" lon="-3.11325">
        <ele>124.15</ele>
        <time>2015-09-11T09:09:55Z</time>
      </trkpt>
      <trkpt lat="48.20603" lon="-3.1131">
        <ele>124.15</ele>
        <time>2015-09-11T09:10:05Z</time>
      </trkpt>
      <trkpt lat="48.20595" lon="-3.11291">
        <ele>124.63</ele>
        <time>2015-09-11T09:10:17Z</time>
      </trkpt>
      <trkpt lat="48.20593" lon="-3.11282">
        <ele>124.63</ele>
        <time>2015-09-11T09:10:22Z</time>
      </trkpt>
      <trkpt lat="48.20592" lon="-3.11269">
        <ele>123.67</ele>
        <time>2015-09-11T09:10:28Z</time>
      </trkpt>
      <trkpt lat="48.2059" lon="-3.11262">
        <ele>123.67</ele>
        <time>2015-09-11T09:10:32Z</time>
      </trkpt>
      <trkpt lat="48.20581" lon="-3.11235">
        <ele>122.71</ele>
        <time>2015-09-11T09:10:47Z</time>
      </trkpt>
      <trkpt lat="48.20578" lon="-3.11229">
        <ele>123.19</ele>
        <time>2015-09-11T09:10:50Z</time>
      </trkpt>
      <trkpt lat="48.20572" lon="-3.112">
        <ele>130.4</ele>
        <time>2015-09-11T09:11:03Z</time>
      </trkpt>
      <trkpt lat="48.20569" lon="-3.11187">
        <ele>131.36</ele>
        <time>2015-09-11T09:11:10Z</time>
      </trkpt>
      <trkpt lat="48.20568" lon="-3.11184">
        <ele>131.84</ele>
        <time>2015-09-11T09:11:12Z</time>
      </trkpt>
      <trkpt lat="48.2057" lon="-3.1116">
        <ele>131.36</ele>
        <time>2015-09-11T09:11:25Z</time>
      </trkpt>
      <trkpt lat="48.20572" lon="-3.11139">
        <ele>129.92</ele>
        <time>2015-09-11T09:11:36Z</time>
      </trkpt>
      <trkpt lat="48.20572" lon="-3.11123">
        <ele>130.88</ele>
        <time>2015-09-11T09:11:43Z</time>
      </trkpt>
      <trkpt lat="48.20575" lon="-3.11095">
        <ele>128.47</ele>
        <time>2015-09-11T09:11:59Z</time>
      </trkpt>
      <trkpt lat="48.20579" lon="-3.11069">
        <ele>125.11</ele>
        <time>2015-09-11T09:12:13Z</time>
      </trkpt>
      <trkpt lat="48.20583" lon="-3.11061">
        <ele>125.59</ele>
        <time>2015-09-11T09:12:18Z</time>
      </trkpt>
      <trkpt lat="48.20591" lon="-3.1105">
        <ele>125.11</ele>
        <time>2015-09-11T09:12:27Z</time>
      </trkpt>
      <trkpt lat="48.20601" lon="-3.11041">
        <ele>124.63</ele>
        <time>2015-09-11T09:12:37Z</time>
      </trkpt>
      <trkpt lat="48.20606" lon="-3.11041">
        <ele>123.19</ele>
        <time>2015-09-11T09:12:41Z</time>
      </trkpt>
      <trkpt lat="48.20621" lon="-3.11038">
        <ele>122.22</ele>
        <time>2015-09-11T09:12:54Z</time>
      </trkpt>
      <trkpt lat="48.20623" lon="-3.11037">
        <ele>122.22</ele>
        <time>2015-09-11T09:12:56Z</time>
      </trkpt>
      <trkpt lat="48.20642" lon="-3.11032">
        <ele>125.59</ele>
        <time>2015-09-11T09:13:10Z</time>
      </trkpt>
      <trkpt lat="48.20659" lon="-3.11026">
        <ele>127.03</ele>
        <time>2015-09-11T09:13:23Z</time>
      </trkpt>
      <trkpt lat="48.20672" lon="-3.11016">
        <ele>129.43</ele>
        <time>2015-09-11T09:13:35Z</time>
      </trkpt>
      <trkpt lat="48.20679" lon="-3.11011">
        <ele>128.95</ele>
        <time>2015-09-11T09:13:41Z</time>
      </trkpt>
      <trkpt lat="48.20688" lon="-3.1101">
        <ele>127.51</ele>
        <time>2015-09-11T09:13:49Z</time>
      </trkpt>
      <trkpt lat="48.20699" lon="-3.11003">
        <ele>127.03</ele>
        <time>2015-09-11T09:13:58Z</time>
      </trkpt>
      <trkpt lat="48.20702" lon="-3.10991">
        <ele>128.47</ele>
        <time>2015-09-11T09:14:12Z</time>
      </trkpt>
      <trkpt lat="48.20701" lon="-3.10992">
        <ele>127.99</ele>
        <time>2015-09-11T09:14:30Z</time>
      </trkpt>
      <trkpt lat="48.207" lon="-3.10991">
        <ele>127.99</ele>
        <time>2015-09-11T09:14:42Z</time>
      </trkpt>
      <trkpt lat="48.207" lon="-3.10991">
        <ele>127.99</ele>
        <time>2015-09-11T09:14:57Z</time>
      </trkpt>
      <trkpt lat="48.207" lon="-3.10992">
        <ele>127.99</ele>
        <time>2015-09-11T09:15:14Z</time>
      </trkpt>
      <trkpt lat="48.207" lon="-3.10992">
        <ele>127.51</ele>
        <time>2015-09-11T09:15:28Z</time>
      </trkpt>
      <trkpt lat="48.207" lon="-3.10993">
        <ele>127.99</ele>
        <time>2015-09-11T09:15:46Z</time>
      </trkpt>
      <trkpt lat="48.20699" lon="-3.10993">
        <ele>127.99</ele>
        <time>2015-09-11T09:16:02Z</time>
      </trkpt>
      <trkpt lat="48.20699" lon="-3.10992">
        <ele>127.03</ele>
        <time>2015-09-11T09:16:08Z</time>
      </trkpt>
      <trkpt lat="48.20697" lon="-3.10984">
        <ele>126.07</ele>
        <time>2015-09-11T09:16:20Z</time>
      </trkpt>
      <trkpt lat="48.20696" lon="-3.10978">
        <ele>125.11</ele>
        <time>2015-09-11T09:16:27Z</time>
      </trkpt>
      <trkpt lat="48.20695" lon="-3.10975">
        <ele>125.11</ele>
        <time>2015-09-11T09:16:29Z</time>
      </trkpt>
      <trkpt lat="48.20693" lon="-3.10968">
        <ele>125.11</ele>
        <time>2015-09-11T09:16:34Z</time>
      </trkpt>
      <trkpt lat="48.2069" lon="-3.10952">
        <ele>126.55</ele>
        <time>2015-09-11T09:16:46Z</time>
      </trkpt>
      <trkpt lat="48.20687" lon="-3.10941">
        <ele>127.51</ele>
        <time>2015-09-11T09:16:57Z</time>
      </trkpt>
      <trkpt lat="48.20684" lon="-3.10931">
        <ele>127.51</ele>
        <time>2015-09-11T09:17:12Z</time>
      </trkpt>
      <trkpt lat="48.20681" lon="-3.10917">
        <ele>127.03</ele>
        <time>2015-09-11T09:17:23Z</time>
      </trkpt>
      <trkpt lat="48.20684" lon="-3.1091">
        <ele>126.07</ele>
        <time>2015-09-11T09:17:38Z</time>
      </trkpt>
      <trkpt lat="48.20693" lon="-3.10897">
        <ele>124.63</ele>
        <time>2015-09-11T09:17:52Z</time>
      </trkpt>
      <trkpt lat="48.20696" lon="-3.10888">
        <ele>123.19</ele>
        <time>2015-09-11T09:18:07Z</time>
      </trkpt>
      <trkpt lat="48.20697" lon="-3.10882">
        <ele>123.67</ele>
        <time>2015-09-11T09:18:22Z</time>
      </trkpt>
      <trkpt lat="48.20693" lon="-3.10874">
        <ele>128.47</ele>
        <time>2015-09-11T09:18:39Z</time>
      </trkpt>
      <trkpt lat="48.20695" lon="-3.10865">
        <ele>134.24</ele>
        <time>2015-09-11T09:18:53Z</time>
      </trkpt>
      <trkpt lat="48.20694" lon="-3.10861">
        <ele>138.09</ele>
        <time>2015-09-11T09:19:11Z</time>
      </trkpt>
      <trkpt lat="48.20696" lon="-3.10846">
        <ele>137.61</ele>
        <time>2015-09-11T09:19:26Z</time>
      </trkpt>
      <trkpt lat="48.20697" lon="-3.10826">
        <ele>133.28</ele>
        <time>2015-09-11T09:19:43Z</time>
      </trkpt>
      <trkpt lat="48.20697" lon="-3.10801">
        <ele>132.8</ele>
        <time>2015-09-11T09:19:59Z</time>
      </trkpt>
      <trkpt lat="48.20696" lon="-3.10781">
        <ele>127.51</ele>
        <time>2015-09-11T09:20:14Z</time>
      </trkpt>
      <trkpt lat="48.20686" lon="-3.10775">
        <ele>122.22</ele>
        <time>2015-09-11T09:20:29Z</time>
      </trkpt>
      <trkpt lat="48.20669" lon="-3.10773">
        <ele>117.42</ele>
        <time>2015-09-11T09:20:46Z</time>
      </trkpt>
      <trkpt lat="48.20653" lon="-3.10757">
        <ele>121.74</ele>
        <time>2015-09-11T09:21:01Z</time>
      </trkpt>
      <trkpt lat="48.20634" lon="-3.10749">
        <ele>121.26</ele>
        <time>2015-09-11T09:21:17Z</time>
      </trkpt>
      <trkpt lat="48.20616" lon="-3.10741">
        <ele>123.67</ele>
        <time>2015-09-11T09:21:32Z</time>
      </trkpt>
      <trkpt lat="48.20602" lon="-3.1073">
        <ele>124.63</ele>
        <time>2015-09-11T09:21:46Z</time>
      </trkpt>
      <trkpt lat="48.20597" lon="-3.10731">
        <ele>124.15</ele>
        <time>2015-09-11T09:21:50Z</time>
      </trkpt>
      <trkpt lat="48.20593" lon="-3.1073">
        <ele>124.63</ele>
        <time>2015-09-11T09:21:53Z</time>
      </trkpt>
      <trkpt lat="48.20582" lon="-3.10725">
        <ele>126.07</ele>
        <time>2015-09-11T09:22:06Z</time>
      </trkpt>
      <trkpt lat="48.20575" lon="-3.1072">
        <ele>127.03</ele>
        <time>2015-09-11T09:22:12Z</time>
      </trkpt>
      <trkpt lat="48.20563" lon="-3.10713">
        <ele>126.55</ele>
        <time>2015-09-11T09:22:27Z</time>
      </trkpt>
      <trkpt lat="48.20552" lon="-3.10705">
        <ele>127.99</ele>
        <time>2015-09-11T09:22:40Z</time>
      </trkpt>
      <trkpt lat="48.20539" lon="-3.10693">
        <ele>126.07</ele>
        <time>2015-09-11T09:22:54Z</time>
      </trkpt>
      <trkpt lat="48.20527" lon="-3.1068">
        <ele>124.15</ele>
        <time>2015-09-11T09:23:08Z</time>
      </trkpt>
      <trkpt lat="48.20514" lon="-3.1066">
        <ele>123.19</ele>
        <time>2015-09-11T09:23:26Z</time>
      </trkpt>
      <trkpt lat="48.20508" lon="-3.10641">
        <ele>122.71</ele>
        <time>2015-09-11T09:23:42Z</time>
      </trkpt>
      <trkpt lat="48.20501" lon="-3.1063">
        <ele>121.74</ele>
        <time>2015-09-11T09:23:55Z</time>
      </trkpt>
      <trkpt lat="48.20505" lon="-3.10626">
        <ele>125.11</ele>
        <time>2015-09-11T09:24:10Z</time>
      </trkpt>
      <trkpt lat="48.20501" lon="-3.10618">
        <ele>125.59</ele>
        <time>2015-09-11T09:24:25Z</time>
      </trkpt>
      <trkpt lat="48.20501" lon="-3.10608">
        <ele>125.11</ele>
        <time>2015-09-11T09:24:40Z</time>
      </trkpt>
      <trkpt lat="48.20497" lon="-3.1058">
        <ele>123.19</ele>
        <time>2015-09-11T09:24:54Z</time>
      </trkpt>
      <trkpt lat="48.20492" lon="-3.10545">
        <ele>123.19</ele>
        <time>2015-09-11T09:25:08Z</time>
      </trkpt>
      <trkpt lat="48.20491" lon="-3.10523">
        <ele>124.15</ele>
        <time>2015-09-11T09:25:23Z</time>
      </trkpt>
      <trkpt lat="48.20488" lon="-3.10503">
        <ele>123.19</ele>
        <time>2015-09-11T09:25:38Z</time>
      </trkpt>
      <trkpt lat="48.20493" lon="-3.1048">
        <ele>124.63</ele>
        <time>2015-09-11T09:25:53Z</time>
      </trkpt>
      <trkpt lat="48.20498" lon="-3.10465">
        <ele>122.71</ele>
        <time>2015-09-11T09:26:08Z</time>
      </trkpt>
      <trkpt lat="48.20498" lon="-3.10448">
        <ele>123.19</ele>
        <time>2015-09-11T09:26:23Z</time>
      </trkpt>
      <trkpt lat="48.20504" lon="-3.10436">
        <ele>122.71</ele>
        <time>2015-09-11T09:26:37Z</time>
      </trkpt>
      <trkpt lat="48.20503" lon="-3.1043">
        <ele>121.74</ele>
        <time>2015-09-11T09:26:55Z</time>
      </trkpt>
      <trkpt lat="48.20507" lon="-3.10417">
        <ele>122.22</ele>
        <time>2015-09-11T09:27:11Z</time>
      </trkpt>
      <trkpt lat="48.20507" lon="-3.10407">
        <ele>122.71</ele>
        <time>2015-09-11T09:27:25Z</time>
      </trkpt>
      <trkpt lat="48.20508" lon="-3.10381">
        <ele>123.67</ele>
        <time>2015-09-11T09:27:39Z</time>
      </trkpt>
      <trkpt lat="48.20514" lon="-3.1036">
        <ele>124.15</ele>
        <time>2015-09-11T09:27:54Z</time>
      </trkpt>
      <trkpt lat="48.20513" lon="-3.10349">
        <ele>124.15</ele>
        <time>2015-09-11T09:28:12Z</time>
      </trkpt>
      <trkpt lat="48.20517" lon="-3.10328">
        <ele>124.15</ele>
        <time>2015-09-11T09:28:28Z</time>
      </trkpt>
      <trkpt lat="48.2052" lon="-3.10316">
        <ele>123.19</ele>
        <time>2015-09-11T09:28:43Z</time>
      </trkpt>
      <trkpt lat="48.20519" lon="-3.103">
        <ele>124.63</ele>
        <time>2015-09-11T09:28:57Z</time>
      </trkpt>
      <trkpt lat="48.20523" lon="-3.10281">
        <ele>124.15</ele>
        <time>2015-09-11T09:29:09Z</time>
      </trkpt>
      <trkpt lat="48.20523" lon="-3.10269">
        <ele>125.11</ele>
        <time>2015-09-11T09:29:20Z</time>
      </trkpt>
      <trkpt lat="48.20522" lon="-3.10249">
        <ele>127.51</ele>
        <time>2015-09-11T09:29:38Z</time>
      </trkpt>
      <trkpt lat="48.20529" lon="-3.10229">
        <ele>126.07</ele>
        <time>2015-09-11T09:29:54Z</time>
      </trkpt>
      <trkpt lat="48.20535" lon="-3.10214">
        <ele>122.71</ele>
        <time>2015-09-11T09:30:09Z</time>
      </trkpt>
      <trkpt lat="48.2053" lon="-3.1019">
        <ele>122.71</ele>
        <time>2015-09-11T09:30:23Z</time>
      </trkpt>
      <trkpt lat="48.20528" lon="-3.10171">
        <ele>126.07</ele>
        <time>2015-09-11T09:30:38Z</time>
      </trkpt>
      <trkpt lat="48.20533" lon="-3.10162">
        <ele>127.03</ele>
        <time>2015-09-11T09:30:52Z</time>
      </trkpt>
      <trkpt lat="48.20538" lon="-3.10145">
        <ele>126.07</ele>
        <time>2015-09-11T09:31:07Z</time>
      </trkpt>
      <trkpt lat="48.20542" lon="-3.10137">
        <ele>123.67</ele>
        <time>2015-09-11T09:31:19Z</time>
      </trkpt>
      <trkpt lat="48.20549" lon="-3.10113">
        <ele>123.67</ele>
        <time>2015-09-11T09:31:35Z</time>
      </trkpt>
      <trkpt lat="48.20561" lon="-3.10097">
        <ele>120.78</ele>
        <time>2015-09-11T09:31:52Z</time>
      </trkpt>
      <trkpt lat="48.20574" lon="-3.10077">
        <ele>121.26</ele>
        <time>2015-09-11T09:32:08Z</time>
      </trkpt>
      <trkpt lat="48.20583" lon="-3.10057">
        <ele>123.19</ele>
        <time>2015-09-11T09:32:25Z</time>
      </trkpt>
      <trkpt lat="48.20586" lon="-3.10031">
        <ele>125.59</ele>
        <time>2015-09-11T09:32:42Z</time>
      </trkpt>
      <trkpt lat="48.20586" lon="-3.1003">
        <ele>125.59</ele>
        <time>2015-09-11T09:32:43Z</time>
      </trkpt>
      <trkpt lat="48.20594" lon="-3.10003">
        <ele>123.67</ele>
        <time>2015-09-11T09:33:02Z</time>
      </trkpt>
      <trkpt lat="48.20591" lon="-3.09986">
        <ele>125.59</ele>
        <time>2015-09-11T09:33:16Z</time>
      </trkpt>
      <trkpt lat="48.20586" lon="-3.09957">
        <ele>126.55</ele>
        <time>2015-09-11T09:33:34Z</time>
      </trkpt>
      <trkpt lat="48.20592" lon="-3.09935">
        <ele>128.47</ele>
        <time>2015-09-11T09:33:52Z</time>
      </trkpt>
      <trkpt lat="48.20593" lon="-3.09925">
        <ele>128.95</ele>
        <time>2015-09-11T09:34:07Z</time>
      </trkpt>
      <trkpt lat="48.20597" lon="-3.09911">
        <ele>128.95</ele>
        <time>2015-09-11T09:34:21Z</time>
      </trkpt>
      <trkpt lat="48.20596" lon="-3.09892">
        <ele>129.43</ele>
        <time>2015-09-11T09:34:38Z</time>
      </trkpt>
      <trkpt lat="48.20595" lon="-3.09884">
        <ele>129.92</ele>
        <time>2015-09-11T09:34:56Z</time>
      </trkpt>
      <trkpt lat="48.20594" lon="-3.09871">
        <ele>128.47</ele>
        <time>2015-09-11T09:35:10Z</time>
      </trkpt>
      <trkpt lat="48.20594" lon="-3.09861">
        <ele>126.55</ele>
        <time>2015-09-11T09:35:31Z</time>
      </trkpt>
      <trkpt lat="48.20586" lon="-3.09831">
        <ele>127.51</ele>
        <time>2015-09-11T09:35:47Z</time>
      </trkpt>
      <trkpt lat="48.20583" lon="-3.09823">
        <ele>127.99</ele>
        <time>2015-09-11T09:36:02Z</time>
      </trkpt>
      <trkpt lat="48.20581" lon="-3.09803">
        <ele>127.51</ele>
        <time>2015-09-11T09:36:18Z</time>
      </trkpt>
      <trkpt lat="48.20574" lon="-3.09777">
        <ele>125.59</ele>
        <time>2015-09-11T09:36:35Z</time>
      </trkpt>
      <trkpt lat="48.2057" lon="-3.09753">
        <ele>125.59</ele>
        <time>2015-09-11T09:36:49Z</time>
      </trkpt>
      <trkpt lat="48.20564" lon="-3.09742">
        <ele>124.63</ele>
        <time>2015-09-11T09:36:56Z</time>
      </trkpt>
      <trkpt lat="48.20551" lon="-3.09728">
        <ele>123.67</ele>
        <time>2015-09-11T09:37:12Z</time>
      </trkpt>
      <trkpt lat="48.20545" lon="-3.0971">
        <ele>122.71</ele>
        <time>2015-09-11T09:37:27Z</time>
      </trkpt>
      <trkpt lat="48.20534" lon="-3.09701">
        <ele>123.19</ele>
        <time>2015-09-11T09:37:42Z</time>
      </trkpt>
      <trkpt lat="48.20528" lon="-3.09691">
        <ele>119.34</ele>
        <time>2015-09-11T09:37:55Z</time>
      </trkpt>
      <trkpt lat="48.20526" lon="-3.09686">
        <ele>120.3</ele>
        <time>2015-09-11T09:38:18Z</time>
      </trkpt>
      <trkpt lat="48.20526" lon="-3.09686">
        <ele>121.26</ele>
        <time>2015-09-11T09:38:43Z</time>
      </trkpt>
      <trkpt lat="48.20526" lon="-3.09685">
        <ele>122.22</ele>
        <time>2015-09-11T09:39:08Z</time>
      </trkpt>
      <trkpt lat="48.20519" lon="-3.09679">
        <ele>119.82</ele>
        <time>2015-09-11T09:39:28Z</time>
      </trkpt>
      <trkpt lat="48.20515" lon="-3.09674">
        <ele>118.86</ele>
        <time>2015-09-11T09:39:33Z</time>
      </trkpt>
      <trkpt lat="48.20509" lon="-3.09655">
        <ele>118.86</ele>
        <time>2015-09-11T09:39:47Z</time>
      </trkpt>
      <trkpt lat="48.205" lon="-3.0964">
        <ele>119.34</ele>
        <time>2015-09-11T09:40:00Z</time>
      </trkpt>
      <trkpt lat="48.20491" lon="-3.09633">
        <ele>117.9</ele>
        <time>2015-09-11T09:40:14Z</time>
      </trkpt>
      <trkpt lat="48.20487" lon="-3.09631">
        <ele>116.94</ele>
        <time>2015-09-11T09:40:18Z</time>
      </trkpt>
      <trkpt lat="48.20473" lon="-3.09633">
        <ele>114.05</ele>
        <time>2015-09-11T09:40:31Z</time>
      </trkpt>
      <trkpt lat="48.20462" lon="-3.09627">
        <ele>112.61</ele>
        <time>2015-09-11T09:40:47Z</time>
      </trkpt>
      <trkpt lat="48.20446" lon="-3.09616">
        <ele>114.05</ele>
        <time>2015-09-11T09:41:03Z</time>
      </trkpt>
      <trkpt lat="48.20445" lon="-3.09617">
        <ele>114.05</ele>
        <time>2015-09-11T09:41:04Z</time>
      </trkpt>
      <trkpt lat="48.20432" lon="-3.09606">
        <ele>115.98</ele>
        <time>2015-09-11T09:41:17Z</time>
      </trkpt>
      <trkpt lat="48.20422" lon="-3.09596">
        <ele>115.5</ele>
        <time>2015-09-11T09:41:31Z</time>
      </trkpt>
      <trkpt lat="48.20413" lon="-3.09592">
        <ele>115.5</ele>
        <time>2015-09-11T09:41:38Z</time>
      </trkpt>
      <trkpt lat="48.20398" lon="-3.09588">
        <ele>115.5</ele>
        <time>2015-09-11T09:41:52Z</time>
      </trkpt>
      <trkpt lat="48.2039" lon="-3.09583">
        <ele>117.9</ele>
        <time>2015-09-11T09:41:59Z</time>
      </trkpt>
      <trkpt lat="48.20383" lon="-3.09575">
        <ele>120.78</ele>
        <time>2015-09-11T09:42:12Z</time>
      </trkpt>
      <trkpt lat="48.20372" lon="-3.09555">
        <ele>122.71</ele>
        <time>2015-09-11T09:42:27Z</time>
      </trkpt>
      <trkpt lat="48.20366" lon="-3.0955">
        <ele>124.63</ele>
        <time>2015-09-11T09:42:39Z</time>
      </trkpt>
      <trkpt lat="48.20365" lon="-3.0955">
        <ele>124.15</ele>
        <time>2015-09-11T09:42:59Z</time>
      </trkpt>
      <trkpt lat="48.20365" lon="-3.09551">
        <ele>126.07</ele>
        <time>2015-09-11T09:43:24Z</time>
      </trkpt>
      <trkpt lat="48.20362" lon="-3.09556">
        <ele>127.03</ele>
        <time>2015-09-11T09:43:40Z</time>
      </trkpt>
      <trkpt lat="48.20356" lon="-3.09563">
        <ele>128.47</ele>
        <time>2015-09-11T09:43:53Z</time>
      </trkpt>
      <trkpt lat="48.20348" lon="-3.09563">
        <ele>126.07</ele>
        <time>2015-09-11T09:44:09Z</time>
      </trkpt>
      <trkpt lat="48.20337" lon="-3.09577">
        <ele>125.11</ele>
        <time>2015-09-11T09:44:25Z</time>
      </trkpt>
      <trkpt lat="48.20329" lon="-3.09579">
        <ele>125.11</ele>
        <time>2015-09-11T09:44:34Z</time>
      </trkpt>
      <trkpt lat="48.20309" lon="-3.09576">
        <ele>125.11</ele>
        <time>2015-09-11T09:44:50Z</time>
      </trkpt>
      <trkpt lat="48.2029" lon="-3.09586">
        <ele>124.15</ele>
        <time>2015-09-11T09:45:09Z</time>
      </trkpt>
      <trkpt lat="48.20272" lon="-3.09602">
        <ele>124.15</ele>
        <time>2015-09-11T09:45:27Z</time>
      </trkpt>
      <trkpt lat="48.20261" lon="-3.09595">
        <ele>123.67</ele>
        <time>2015-09-11T09:45:42Z</time>
      </trkpt>
      <trkpt lat="48.20249" lon="-3.09585">
        <ele>125.11</ele>
        <time>2015-09-11T09:45:56Z</time>
      </trkpt>
      <trkpt lat="48.20235" lon="-3.09591">
        <ele>125.59</ele>
        <time>2015-09-11T09:46:12Z</time>
      </trkpt>
      <trkpt lat="48.20221" lon="-3.09585">
        <ele>127.51</ele>
        <time>2015-09-11T09:46:26Z</time>
      </trkpt>
      <trkpt lat="48.20211" lon="-3.09573">
        <ele>128.95</ele>
        <time>2015-09-11T09:46:40Z</time>
      </trkpt>
      <trkpt lat="48.20202" lon="-3.09564">
        <ele>126.55</ele>
        <time>2015-09-11T09:46:54Z</time>
      </trkpt>
      <trkpt lat="48.2019" lon="-3.09549">
        <ele>128.95</ele>
        <time>2015-09-11T09:47:09Z</time>
      </trkpt>
      <trkpt lat="48.20182" lon="-3.09543">
        <ele>128.95</ele>
        <time>2015-09-11T09:47:22Z</time>
      </trkpt>
      <trkpt lat="48.2017" lon="-3.09537">
        <ele>127.99</ele>
        <time>2015-09-11T09:47:36Z</time>
      </trkpt>
      <trkpt lat="48.20159" lon="-3.09526">
        <ele>127.99</ele>
        <time>2015-09-11T09:47:53Z</time>
      </trkpt>
      <trkpt lat="48.20149" lon="-3.09522">
        <ele>125.11</ele>
        <time>2015-09-11T09:48:08Z</time>
      </trkpt>
      <trkpt lat="48.20142" lon="-3.09508">
        <ele>124.63</ele>
        <time>2015-09-11T09:48:27Z</time>
      </trkpt>
      <trkpt lat="48.20128" lon="-3.09485">
        <ele>125.11</ele>
        <time>2015-09-11T09:48:41Z</time>
      </trkpt>
      <trkpt lat="48.20122" lon="-3.09466">
        <ele>126.55</ele>
        <time>2015-09-11T09:48:54Z</time>
      </trkpt>
      <trkpt lat="48.2012" lon="-3.09445">
        <ele>126.07</ele>
        <time>2015-09-11T09:49:07Z</time>
      </trkpt>
      <trkpt lat="48.20121" lon="-3.09426">
        <ele>126.07</ele>
        <time>2015-09-11T09:49:22Z</time>
      </trkpt>
      <trkpt lat="48.20124" lon="-3.09412">
        <ele>125.59</ele>
        <time>2015-09-11T09:49:36Z</time>
      </trkpt>
      <trkpt lat="48.20128" lon="-3.09396">
        <ele>123.67</ele>
        <time>2015-09-11T09:49:51Z</time>
      </trkpt>
      <trkpt lat="48.20132" lon="-3.09392">
        <ele>124.63</ele>
        <time>2015-09-11T09:50:04Z</time>
      </trkpt>
      <trkpt lat="48.20132" lon="-3.09388">
        <ele>126.07</ele>
        <time>2015-09-11T09:50:29Z</time>
      </trkpt>
      <trkpt lat="48.20125" lon="-3.09382">
        <ele>127.03</ele>
        <time>2015-09-11T09:50:47Z</time>
      </trkpt>
      <trkpt lat="48.20123" lon="-3.09363">
        <ele>126.55</ele>
        <time>2015-09-11T09:51:02Z</time>
      </trkpt>
      <trkpt lat="48.20124" lon="-3.09344">
        <ele>128.47</ele>
        <time>2015-09-11T09:51:19Z</time>
      </trkpt>
      <trkpt lat="48.2013" lon="-3.09321">
        <ele>128.95</ele>
        <time>2015-09-11T09:51:35Z</time>
      </trkpt>
      <trkpt lat="48.2013" lon="-3.09305">
        <ele>127.03</ele>
        <time>2015-09-11T09:51:50Z</time>
      </trkpt>
      <trkpt lat="48.20127" lon="-3.09279">
        <ele>126.55</ele>
        <time>2015-09-11T09:52:07Z</time>
      </trkpt>
      <trkpt lat="48.20126" lon="-3.0927">
        <ele>128.47</ele>
        <time>2015-09-11T09:52:26Z</time>
      </trkpt>
      <trkpt lat="48.20132" lon="-3.09261">
        <ele>128.95</ele>
        <time>2015-09-11T09:52:32Z</time>
      </trkpt>
      <trkpt lat="48.20136" lon="-3.09238">
        <ele>128.95</ele>
        <time>2015-09-11T09:52:47Z</time>
      </trkpt>
      <trkpt lat="48.20141" lon="-3.09221">
        <ele>128.95</ele>
        <time>2015-09-11T09:53:03Z</time>
      </trkpt>
      <trkpt lat="48.20136" lon="-3.092">
        <ele>127.51</ele>
        <time>2015-09-11T09:53:17Z</time>
      </trkpt>
      <trkpt lat="48.20138" lon="-3.09177">
        <ele>128.95</ele>
        <time>2015-09-11T09:53:31Z</time>
      </trkpt>
      <trkpt lat="48.2014" lon="-3.09159">
        <ele>127.51</ele>
        <time>2015-09-11T09:53:45Z</time>
      </trkpt>
      <trkpt lat="48.2014" lon="-3.09133">
        <ele>128.95</ele>
        <time>2015-09-11T09:54:00Z</time>
      </trkpt>
      <trkpt lat="48.20146" lon="-3.09109">
        <ele>129.92</ele>
        <time>2015-09-11T09:54:15Z</time>
      </trkpt>
      <trkpt lat="48.20149" lon="-3.09091">
        <ele>129.43</ele>
        <time>2015-09-11T09:54:30Z</time>
      </trkpt>
      <trkpt lat="48.20153" lon="-3.09073">
        <ele>129.43</ele>
        <time>2015-09-11T09:54:47Z</time>
      </trkpt>
      <trkpt lat="48.20152" lon="-3.09051">
        <ele>128.95</ele>
        <time>2015-09-11T09:55:02Z</time>
      </trkpt>
      <trkpt lat="48.20158" lon="-3.09015">
        <ele>126.55</ele>
        <time>2015-09-11T09:55:22Z</time>
      </trkpt>
      <trkpt lat="48.20162" lon="-3.08989">
        <ele>127.99</ele>
        <time>2015-09-11T09:55:38Z</time>
      </trkpt>
      <trkpt lat="48.20165" lon="-3.08972">
        <ele>123.67</ele>
        <time>2015-09-11T09:55:52Z</time>
      </trkpt>
      <trkpt lat="48.20163" lon="-3.08966">
        <ele>125.11</ele>
        <time>2015-09-11T09:56:07Z</time>
      </trkpt>
      <trkpt lat="48.20165" lon="-3.08963">
        <ele>125.11</ele>
        <time>2015-09-11T09:56:26Z</time>
      </trkpt>
      <trkpt lat="48.2017" lon="-3.08943">
        <ele>124.63</ele>
        <time>2015-09-11T09:56:44Z</time>
      </trkpt>
      <trkpt lat="48.20173" lon="-3.0893">
        <ele>123.19</ele>
        <time>2015-09-11T09:56:58Z</time>
      </trkpt>
      <trkpt lat="48.20172" lon="-3.08914">
        <ele>118.86</ele>
        <time>2015-09-11T09:57:15Z</time>
      </trkpt>
      <trkpt lat="48.2017" lon="-3.089">
        <ele>116.94</ele>
        <time>2015-09-11T09:57:32Z</time>
      </trkpt>
      <trkpt lat="48.20173" lon="-3.08883">
        <ele>115.5</ele>
        <time>2015-09-11T09:57:47Z</time>
      </trkpt>
      <trkpt lat="48.2018" lon="-3.08863">
        <ele>113.57</ele>
        <time>2015-09-11T09:58:01Z</time>
      </trkpt>
      <trkpt lat="48.20187" lon="-3.08849">
        <ele>113.09</ele>
        <time>2015-09-11T09:58:11Z</time>
      </trkpt>
      <trkpt lat="48.20192" lon="-3.08831">
        <ele>114.05</ele>
        <time>2015-09-11T09:58:26Z</time>
      </trkpt>
      <trkpt lat="48.20187" lon="-3.08814">
        <ele>119.34</ele>
        <time>2015-09-11T09:58:42Z</time>
      </trkpt>
      <trkpt lat="48.20183" lon="-3.08798">
        <ele>116.46</ele>
        <time>2015-09-11T09:58:58Z</time>
      </trkpt>
      <trkpt lat="48.20191" lon="-3.08777">
        <ele>119.82</ele>
        <time>2015-09-11T09:59:15Z</time>
      </trkpt>
      <trkpt lat="48.202" lon="-3.08756">
        <ele>126.55</ele>
        <time>2015-09-11T09:59:28Z</time>
      </trkpt>
      <trkpt lat="48.20206" lon="-3.08741">
        <ele>133.28</ele>
        <time>2015-09-11T09:59:44Z</time>
      </trkpt>
      <trkpt lat="48.20211" lon="-3.08734">
        <ele>129.92</ele>
        <time>2015-09-11T09:59:56Z</time>
      </trkpt>
      <trkpt lat="48.20214" lon="-3.0873">
        <ele>127.99</ele>
        <time>2015-09-11T10:00:02Z</time>
      </trkpt>
      <trkpt lat="48.2022" lon="-3.08727">
        <ele>126.07</ele>
        <time>2015-09-11T10:00:08Z</time>
      </trkpt>
      <trkpt lat="48.20239" lon="-3.08724">
        <ele>127.51</ele>
        <time>2015-09-11T10:00:21Z</time>
      </trkpt>
      <trkpt lat="48.20242" lon="-3.08722">
        <ele>127.51</ele>
        <time>2015-09-11T10:00:24Z</time>
      </trkpt>
      <trkpt lat="48.20251" lon="-3.08704">
        <ele>127.03</ele>
        <time>2015-09-11T10:00:39Z</time>
      </trkpt>
      <trkpt lat="48.2026" lon="-3.08689">
        <ele>125.59</ele>
        <time>2015-09-11T10:00:50Z</time>
      </trkpt>
      <trkpt lat="48.20259" lon="-3.08668">
        <ele>117.9</ele>
        <time>2015-09-11T10:01:07Z</time>
      </trkpt>
      <trkpt lat="48.20263" lon="-3.08672">
        <ele>118.38</ele>
        <time>2015-09-11T10:01:26Z</time>
      </trkpt>
      <trkpt lat="48.20264" lon="-3.08675">
        <ele>118.38</ele>
        <time>2015-09-11T10:01:42Z</time>
      </trkpt>
      <trkpt lat="48.20265" lon="-3.08677">
        <ele>117.9</ele>
        <time>2015-09-11T10:02:02Z</time>
      </trkpt>
      <trkpt lat="48.20268" lon="-3.08675">
        <ele>116.94</ele>
        <time>2015-09-11T10:02:17Z</time>
      </trkpt>
      <trkpt lat="48.20265" lon="-3.08673">
        <ele>117.42</ele>
        <time>2015-09-11T10:02:32Z</time>
      </trkpt>
      <trkpt lat="48.20267" lon="-3.08664">
        <ele>118.38</ele>
        <time>2015-09-11T10:02:46Z</time>
      </trkpt>
      <trkpt lat="48.20267" lon="-3.08661">
        <ele>119.34</ele>
        <time>2015-09-11T10:03:11Z</time>
      </trkpt>
      <trkpt lat="48.20268" lon="-3.08651">
        <ele>116.94</ele>
        <time>2015-09-11T10:03:22Z</time>
      </trkpt>
      <trkpt lat="48.20273" lon="-3.08629">
        <ele>113.57</ele>
        <time>2015-09-11T10:03:37Z</time>
      </trkpt>
      <trkpt lat="48.2028" lon="-3.0861">
        <ele>110.21</ele>
        <time>2015-09-11T10:03:51Z</time>
      </trkpt>
      <trkpt lat="48.20285" lon="-3.08587">
        <ele>108.29</ele>
        <time>2015-09-11T10:04:07Z</time>
      </trkpt>
      <trkpt lat="48.2029" lon="-3.08567">
        <ele>105.4</ele>
        <time>2015-09-11T10:04:24Z</time>
      </trkpt>
      <trkpt lat="48.20298" lon="-3.08546">
        <ele>104.44</ele>
        <time>2015-09-11T10:04:41Z</time>
      </trkpt>
      <trkpt lat="48.20308" lon="-3.08532">
        <ele>103.48</ele>
        <time>2015-09-11T10:04:53Z</time>
      </trkpt>
      <trkpt lat="48.20317" lon="-3.08516">
        <ele>102.04</ele>
        <time>2015-09-11T10:05:07Z</time>
      </trkpt>
      <trkpt lat="48.20331" lon="-3.08494">
        <ele>105.4</ele>
        <time>2015-09-11T10:05:21Z</time>
      </trkpt>
      <trkpt lat="48.20342" lon="-3.08478">
        <ele>108.29</ele>
        <time>2015-09-11T10:05:35Z</time>
      </trkpt>
      <trkpt lat="48.20351" lon="-3.08464">
        <ele>111.17</ele>
        <time>2015-09-11T10:05:48Z</time>
      </trkpt>
      <trkpt lat="48.20367" lon="-3.08453">
        <ele>111.65</ele>
        <time>2015-09-11T10:06:03Z</time>
      </trkpt>
      <trkpt lat="48.2038" lon="-3.08446">
        <ele>121.26</ele>
        <time>2015-09-11T10:06:28Z</time>
      </trkpt>
      <trkpt lat="48.20385" lon="-3.08441">
        <ele>124.63</ele>
        <time>2015-09-11T10:06:50Z</time>
      </trkpt>
      <trkpt lat="48.20391" lon="-3.08429">
        <ele>123.67</ele>
        <time>2015-09-11T10:07:05Z</time>
      </trkpt>
      <trkpt lat="48.20403" lon="-3.08421">
        <ele>126.07</ele>
        <time>2015-09-11T10:07:19Z</time>
      </trkpt>
      <trkpt lat="48.20407" lon="-3.08412">
        <ele>124.15</ele>
        <time>2015-09-11T10:07:34Z</time>
      </trkpt>
      <trkpt lat="48.20407" lon="-3.08411">
        <ele>124.63</ele>
        <time>2015-09-11T10:07:49Z</time>
      </trkpt>
      <trkpt lat="48.20418" lon="-3.08406">
        <ele>126.55</ele>
        <time>2015-09-11T10:08:03Z</time>
      </trkpt>
      <trkpt lat="48.20437" lon="-3.08393">
        <ele>127.99</ele>
        <time>2015-09-11T10:08:16Z</time>
      </trkpt>
      <trkpt lat="48.20449" lon="-3.08387">
        <ele>130.88</ele>
        <time>2015-09-11T10:08:34Z</time>
      </trkpt>
      <trkpt lat="48.20457" lon="-3.08384">
        <ele>131.36</ele>
        <time>2015-09-11T10:08:47Z</time>
      </trkpt>
      <trkpt lat="48.20472" lon="-3.08379">
        <ele>132.32</ele>
        <time>2015-09-11T10:09:02Z</time>
      </trkpt>
      <trkpt lat="48.2049" lon="-3.08372">
        <ele>134.24</ele>
        <time>2015-09-11T10:09:16Z</time>
      </trkpt>
      <trkpt lat="48.20507" lon="-3.08367">
        <ele>136.64</ele>
        <time>2015-09-11T10:09:28Z</time>
      </trkpt>
      <trkpt lat="48.2052" lon="-3.08365">
        <ele>138.09</ele>
        <time>2015-09-11T10:09:43Z</time>
      </trkpt>
      <trkpt lat="48.2053" lon="-3.08365">
        <ele>138.57</ele>
        <time>2015-09-11T10:09:55Z</time>
      </trkpt>
      <trkpt lat="48.20533" lon="-3.08365">
        <ele>138.09</ele>
        <time>2015-09-11T10:09:59Z</time>
      </trkpt>
      <trkpt lat="48.20551" lon="-3.08366">
        <ele>138.09</ele>
        <time>2015-09-11T10:10:14Z</time>
      </trkpt>
      <trkpt lat="48.20564" lon="-3.08373">
        <ele>136.64</ele>
        <time>2015-09-11T10:10:26Z</time>
      </trkpt>
      <trkpt lat="48.20575" lon="-3.08377">
        <ele>135.68</ele>
        <time>2015-09-11T10:10:40Z</time>
      </trkpt>
      <trkpt lat="48.20582" lon="-3.08391">
        <ele>142.41</ele>
        <time>2015-09-11T10:11:00Z</time>
      </trkpt>
      <trkpt lat="48.20584" lon="-3.08394">
        <ele>142.41</ele>
        <time>2015-09-11T10:11:12Z</time>
      </trkpt>
      <trkpt lat="48.20594" lon="-3.08397">
        <ele>142.41</ele>
        <time>2015-09-11T10:11:26Z</time>
      </trkpt>
      <trkpt lat="48.20608" lon="-3.08401">
        <ele>140.97</ele>
        <time>2015-09-11T10:11:41Z</time>
      </trkpt>
      <trkpt lat="48.20618" lon="-3.08406">
        <ele>140.97</ele>
        <time>2015-09-11T10:11:54Z</time>
      </trkpt>
      <trkpt lat="48.20629" lon="-3.08421">
        <ele>140.97</ele>
        <time>2015-09-11T10:12:10Z</time>
      </trkpt>
      <trkpt lat="48.20629" lon="-3.08436">
        <ele>140.49</ele>
        <time>2015-09-11T10:12:27Z</time>
      </trkpt>
      <trkpt lat="48.20629" lon="-3.08451">
        <ele>140.49</ele>
        <time>2015-09-11T10:12:43Z</time>
      </trkpt>
      <trkpt lat="48.20628" lon="-3.08462">
        <ele>140.49</ele>
        <time>2015-09-11T10:12:55Z</time>
      </trkpt>
      <trkpt lat="48.20626" lon="-3.08465">
        <ele>140.97</ele>
        <time>2015-09-11T10:12:59Z</time>
      </trkpt>
      <trkpt lat="48.20627" lon="-3.08467">
        <ele>137.13</ele>
        <time>2015-09-11T10:13:16Z</time>
      </trkpt>
      <trkpt lat="48.20626" lon="-3.08469">
        <ele>138.09</ele>
        <time>2015-09-11T10:13:38Z</time>
      </trkpt>
      <trkpt lat="48.20626" lon="-3.0847">
        <ele>139.53</ele>
        <time>2015-09-11T10:14:00Z</time>
      </trkpt>
      <trkpt lat="48.20626" lon="-3.08471">
        <ele>139.53</ele>
        <time>2015-09-11T10:14:22Z</time>
      </trkpt>
      <trkpt lat="48.20627" lon="-3.08471">
        <ele>139.05</ele>
        <time>2015-09-11T10:14:38Z</time>
      </trkpt>
      <trkpt lat="48.20627" lon="-3.0847">
        <ele>139.05</ele>
        <time>2015-09-11T10:14:53Z</time>
      </trkpt>
      <trkpt lat="48.20628" lon="-3.08467">
        <ele>138.09</ele>
        <time>2015-09-11T10:15:04Z</time>
      </trkpt>
      <trkpt lat="48.2064" lon="-3.08465">
        <ele>137.13</ele>
        <time>2015-09-11T10:15:15Z</time>
      </trkpt>
      <trkpt lat="48.20656" lon="-3.08468">
        <ele>137.13</ele>
        <time>2015-09-11T10:15:28Z</time>
      </trkpt>
      <trkpt lat="48.20665" lon="-3.08469">
        <ele>137.13</ele>
        <time>2015-09-11T10:15:43Z</time>
      </trkpt>
      <trkpt lat="48.20668" lon="-3.08469">
        <ele>136.64</ele>
        <time>2015-09-11T10:15:57Z</time>
      </trkpt>
      <trkpt lat="48.20671" lon="-3.08467">
        <ele>136.16</ele>
        <time>2015-09-11T10:16:10Z</time>
      </trkpt>
      <trkpt lat="48.20676" lon="-3.08463">
        <ele>136.16</ele>
        <time>2015-09-11T10:16:27Z</time>
      </trkpt>
      <trkpt lat="48.20679" lon="-3.08463">
        <ele>135.68</ele>
        <time>2015-09-11T10:16:29Z</time>
      </trkpt>
      <trkpt lat="48.20711" lon="-3.0844">
        <ele>128.47</ele>
        <time>2015-09-11T10:16:41Z</time>
      </trkpt>
      <trkpt lat="48.20714" lon="-3.08438">
        <ele>129.43</ele>
        <time>2015-09-11T10:16:42Z</time>
      </trkpt>
      <trkpt lat="48.20728" lon="-3.08425">
        <ele>127.99</ele>
        <time>2015-09-11T10:16:56Z</time>
      </trkpt>
      <trkpt lat="48.20737" lon="-3.08423">
        <ele>131.84</ele>
        <time>2015-09-11T10:17:08Z</time>
      </trkpt>
      <trkpt lat="48.20756" lon="-3.08421">
        <ele>130.88</ele>
        <time>2015-09-11T10:17:22Z</time>
      </trkpt>
      <trkpt lat="48.20767" lon="-3.08424">
        <ele>132.32</ele>
        <time>2015-09-11T10:17:35Z</time>
      </trkpt>
      <trkpt lat="48.20771" lon="-3.08419">
        <ele>131.84</ele>
        <time>2015-09-11T10:17:49Z</time>
      </trkpt>
      <trkpt lat="48.20781" lon="-3.08404">
        <ele>128.95</ele>
        <time>2015-09-11T10:18:07Z</time>
      </trkpt>
      <trkpt lat="48.20798" lon="-3.08388">
        <ele>129.43</ele>
        <time>2015-09-11T10:18:25Z</time>
      </trkpt>
      <trkpt lat="48.20798" lon="-3.08388">
        <ele>128.95</ele>
        <time>2015-09-11T10:18:51Z</time>
      </trkpt>
      <trkpt lat="48.20798" lon="-3.08388">
        <ele>128.95</ele>
        <time>2015-09-11T10:19:13Z</time>
      </trkpt>
      <trkpt lat="48.20799" lon="-3.08385">
        <ele>129.43</ele>
        <time>2015-09-11T10:19:38Z</time>
      </trkpt>
      <trkpt lat="48.208" lon="-3.08384">
        <ele>128.95</ele>
        <time>2015-09-11T10:19:43Z</time>
      </trkpt>
      <trkpt lat="48.20812" lon="-3.08377">
        <ele>128.95</ele>
        <time>2015-09-11T10:19:58Z</time>
      </trkpt>
      <trkpt lat="48.20819" lon="-3.08361">
        <ele>128.47</ele>
        <time>2015-09-11T10:20:14Z</time>
      </trkpt>
      <trkpt lat="48.20823" lon="-3.08352">
        <ele>128.95</ele>
        <time>2015-09-11T10:20:30Z</time>
      </trkpt>
      <trkpt lat="48.20832" lon="-3.08336">
        <ele>130.4</ele>
        <time>2015-09-11T10:20:46Z</time>
      </trkpt>
      <trkpt lat="48.20842" lon="-3.08319">
        <ele>127.51</ele>
        <time>2015-09-11T10:21:01Z</time>
      </trkpt>
      <trkpt lat="48.20856" lon="-3.08304">
        <ele>124.15</ele>
        <time>2015-09-11T10:21:18Z</time>
      </trkpt>
      <trkpt lat="48.20866" lon="-3.08293">
        <ele>120.78</ele>
        <time>2015-09-11T10:21:35Z</time>
      </trkpt>
      <trkpt lat="48.20868" lon="-3.08291">
        <ele>120.78</ele>
        <time>2015-09-11T10:21:48Z</time>
      </trkpt>
      <trkpt lat="48.20869" lon="-3.08287">
        <ele>121.26</ele>
        <time>2015-09-11T10:21:52Z</time>
      </trkpt>
      <trkpt lat="48.20871" lon="-3.08274">
        <ele>121.74</ele>
        <time>2015-09-11T10:22:06Z</time>
      </trkpt>
      <trkpt lat="48.20872" lon="-3.08265">
        <ele>123.19</ele>
        <time>2015-09-11T10:22:20Z</time>
      </trkpt>
      <trkpt lat="48.20869" lon="-3.08247">
        <ele>125.59</ele>
        <time>2015-09-11T10:22:35Z</time>
      </trkpt>
      <trkpt lat="48.20864" lon="-3.08233">
        <ele>124.63</ele>
        <time>2015-09-11T10:22:51Z</time>
      </trkpt>
      <trkpt lat="48.20866" lon="-3.08212">
        <ele>124.63</ele>
        <time>2015-09-11T10:23:07Z</time>
      </trkpt>
      <trkpt lat="48.20863" lon="-3.08187">
        <ele>124.15</ele>
        <time>2015-09-11T10:23:23Z</time>
      </trkpt>
      <trkpt lat="48.20863" lon="-3.08171">
        <ele>124.15</ele>
        <time>2015-09-11T10:23:36Z</time>
      </trkpt>
      <trkpt lat="48.20866" lon="-3.0815">
        <ele>125.59</ele>
        <time>2015-09-11T10:23:51Z</time>
      </trkpt>
      <trkpt lat="48.2087" lon="-3.0811">
        <ele>126.55</ele>
        <time>2015-09-11T10:24:09Z</time>
      </trkpt>
      <trkpt lat="48.20877" lon="-3.08088">
        <ele>129.43</ele>
        <time>2015-09-11T10:24:25Z</time>
      </trkpt>
      <trkpt lat="48.20875" lon="-3.08067">
        <ele>131.36</ele>
        <time>2015-09-11T10:24:41Z</time>
      </trkpt>
      <trkpt lat="48.20872" lon="-3.08045">
        <ele>133.28</ele>
        <time>2015-09-11T10:24:58Z</time>
      </trkpt>
      <trkpt lat="48.20876" lon="-3.0803">
        <ele>135.2</ele>
        <time>2015-09-11T10:25:14Z</time>
      </trkpt>
      <trkpt lat="48.20885" lon="-3.08009">
        <ele>134.24</ele>
        <time>2015-09-11T10:25:29Z</time>
      </trkpt>
      <trkpt lat="48.20889" lon="-3.07983">
        <ele>131.36</ele>
        <time>2015-09-11T10:25:47Z</time>
      </trkpt>
      <trkpt lat="48.20888" lon="-3.07972">
        <ele>128.95</ele>
        <time>2015-09-11T10:26:03Z</time>
      </trkpt>
      <trkpt lat="48.20899" lon="-3.07945">
        <ele>130.88</ele>
        <time>2015-09-11T10:26:20Z</time>
      </trkpt>
      <trkpt lat="48.2091" lon="-3.07916">
        <ele>128.47</ele>
        <time>2015-09-11T10:26:37Z</time>
      </trkpt>
      <trkpt lat="48.20915" lon="-3.07912">
        <ele>127.99</ele>
        <time>2015-09-11T10:26:43Z</time>
      </trkpt>
      <trkpt lat="48.20927" lon="-3.07899">
        <ele>128.47</ele>
        <time>2015-09-11T10:26:59Z</time>
      </trkpt>
      <trkpt lat="48.20934" lon="-3.07898">
        <ele>128.95</ele>
        <time>2015-09-11T10:27:14Z</time>
      </trkpt>
      <trkpt lat="48.20937" lon="-3.07898">
        <ele>129.43</ele>
        <time>2015-09-11T10:27:27Z</time>
      </trkpt>
      <trkpt lat="48.20936" lon="-3.07884">
        <ele>126.55</ele>
        <time>2015-09-11T10:27:42Z</time>
      </trkpt>
      <trkpt lat="48.2093" lon="-3.07878">
        <ele>126.07</ele>
        <time>2015-09-11T10:27:56Z</time>
      </trkpt>
      <trkpt lat="48.20917" lon="-3.07873">
        <ele>124.63</ele>
        <time>2015-09-11T10:28:09Z</time>
      </trkpt>
      <trkpt lat="48.20905" lon="-3.07869">
        <ele>123.67</ele>
        <time>2015-09-11T10:28:24Z</time>
      </trkpt>
      <trkpt lat="48.2089" lon="-3.07859">
        <ele>123.19</ele>
        <time>2015-09-11T10:28:39Z</time>
      </trkpt>
      <trkpt lat="48.20873" lon="-3.07842">
        <ele>121.74</ele>
        <time>2015-09-11T10:28:57Z</time>
      </trkpt>
      <trkpt lat="48.20867" lon="-3.07839">
        <ele>123.19</ele>
        <time>2015-09-11T10:29:09Z</time>
      </trkpt>
      <trkpt lat="48.20857" lon="-3.07831">
        <ele>122.71</ele>
        <time>2015-09-11T10:29:22Z</time>
      </trkpt>
      <trkpt lat="48.20841" lon="-3.07821">
        <ele>123.19</ele>
        <time>2015-09-11T10:29:37Z</time>
      </trkpt>
      <trkpt lat="48.20825" lon="-3.07814">
        <ele>122.22</ele>
        <time>2015-09-11T10:29:55Z</time>
      </trkpt>
      <trkpt lat="48.20819" lon="-3.07807">
        <ele>124.63</ele>
        <time>2015-09-11T10:30:09Z</time>
      </trkpt>
      <trkpt lat="48.20808" lon="-3.07792">
        <ele>123.67</ele>
        <time>2015-09-11T10:30:24Z</time>
      </trkpt>
      <trkpt lat="48.20791" lon="-3.07778">
        <ele>122.22</ele>
        <time>2015-09-11T10:30:40Z</time>
      </trkpt>
      <trkpt lat="48.20782" lon="-3.0777">
        <ele>121.26</ele>
        <time>2015-09-11T10:30:54Z</time>
      </trkpt>
      <trkpt lat="48.20765" lon="-3.07757">
        <ele>120.78</ele>
        <time>2015-09-11T10:31:09Z</time>
      </trkpt>
      <trkpt lat="48.20749" lon="-3.07743">
        <ele>122.22</ele>
        <time>2015-09-11T10:31:28Z</time>
      </trkpt>
      <trkpt lat="48.20732" lon="-3.07731">
        <ele>119.82</ele>
        <time>2015-09-11T10:31:43Z</time>
      </trkpt>
      <trkpt lat="48.20714" lon="-3.07721">
        <ele>119.82</ele>
        <time>2015-09-11T10:31:59Z</time>
      </trkpt>
      <trkpt lat="48.20699" lon="-3.07708">
        <ele>118.86</ele>
        <time>2015-09-11T10:32:14Z</time>
      </trkpt>
      <trkpt lat="48.20689" lon="-3.07701">
        <ele>117.42</ele>
        <time>2015-09-11T10:32:30Z</time>
      </trkpt>
      <trkpt lat="48.2068" lon="-3.07682">
        <ele>117.9</ele>
        <time>2015-09-11T10:32:44Z</time>
      </trkpt>
      <trkpt lat="48.20666" lon="-3.07667">
        <ele>115.5</ele>
        <time>2015-09-11T10:32:58Z</time>
      </trkpt>
      <trkpt lat="48.20664" lon="-3.07664">
        <ele>115.01</ele>
        <time>2015-09-11T10:33:00Z</time>
      </trkpt>
      <trkpt lat="48.20648" lon="-3.07646">
        <ele>112.61</ele>
        <time>2015-09-11T10:33:14Z</time>
      </trkpt>
      <trkpt lat="48.20634" lon="-3.07633">
        <ele>105.4</ele>
        <time>2015-09-11T10:33:29Z</time>
      </trkpt>
      <trkpt lat="48.20621" lon="-3.07618">
        <ele>104.92</ele>
        <time>2015-09-11T10:33:47Z</time>
      </trkpt>
      <trkpt lat="48.20609" lon="-3.07608">
        <ele>103.48</ele>
        <time>2015-09-11T10:34:03Z</time>
      </trkpt>
      <trkpt lat="48.20602" lon="-3.07594">
        <ele>103.96</ele>
        <time>2015-09-11T10:34:17Z</time>
      </trkpt>
      <trkpt lat="48.2058" lon="-3.07574">
        <ele>101.08</ele>
        <time>2015-09-11T10:34:32Z</time>
      </trkpt>
      <trkpt lat="48.20571" lon="-3.07569">
        <ele>99.63</ele>
        <time>2015-09-11T10:34:48Z</time>
      </trkpt>
      <trkpt lat="48.20559" lon="-3.07551">
        <ele>101.08</ele>
        <time>2015-09-11T10:35:05Z</time>
      </trkpt>
      <trkpt lat="48.20549" lon="-3.07535">
        <ele>101.08</ele>
        <time>2015-09-11T10:35:19Z</time>
      </trkpt>
      <trkpt lat="48.20543" lon="-3.07518">
        <ele>102.52</ele>
        <time>2015-09-11T10:35:33Z</time>
      </trkpt>
      <trkpt lat="48.20537" lon="-3.07502">
        <ele>108.77</ele>
        <time>2015-09-11T10:35:46Z</time>
      </trkpt>
      <trkpt lat="48.20533" lon="-3.07491">
        <ele>108.29</ele>
        <time>2015-09-11T10:35:58Z</time>
      </trkpt>
      <trkpt lat="48.20527" lon="-3.07478">
        <ele>108.29</ele>
        <time>2015-09-11T10:36:05Z</time>
      </trkpt>
      <trkpt lat="48.20525" lon="-3.07474">
        <ele>108.29</ele>
        <time>2015-09-11T10:36:08Z</time>
      </trkpt>
      <trkpt lat="48.2052" lon="-3.07451">
        <ele>111.65</ele>
        <time>2015-09-11T10:36:23Z</time>
      </trkpt>
      <trkpt lat="48.20509" lon="-3.07429">
        <ele>115.01</ele>
        <time>2015-09-11T10:36:41Z</time>
      </trkpt>
      <trkpt lat="48.205" lon="-3.07409">
        <ele>123.19</ele>
        <time>2015-09-11T10:36:57Z</time>
      </trkpt>
      <trkpt lat="48.20498" lon="-3.07404">
        <ele>125.11</ele>
        <time>2015-09-11T10:37:15Z</time>
      </trkpt>
      <trkpt lat="48.2049" lon="-3.07383">
        <ele>130.4</ele>
        <time>2015-09-11T10:37:29Z</time>
      </trkpt>
      <trkpt lat="48.20483" lon="-3.07358">
        <ele>138.09</ele>
        <time>2015-09-11T10:37:44Z</time>
      </trkpt>
      <trkpt lat="48.20481" lon="-3.07334">
        <ele>142.41</ele>
        <time>2015-09-11T10:37:57Z</time>
      </trkpt>
      <trkpt lat="48.20475" lon="-3.07312">
        <ele>143.85</ele>
        <time>2015-09-11T10:38:12Z</time>
      </trkpt>
      <trkpt lat="48.20474" lon="-3.07289">
        <ele>140.01</ele>
        <time>2015-09-11T10:38:26Z</time>
      </trkpt>
      <trkpt lat="48.20473" lon="-3.07283">
        <ele>140.97</ele>
        <time>2015-09-11T10:38:40Z</time>
      </trkpt>
      <trkpt lat="48.20462" lon="-3.07265">
        <ele>138.57</ele>
        <time>2015-09-11T10:38:55Z</time>
      </trkpt>
      <trkpt lat="48.20464" lon="-3.07236">
        <ele>139.05</ele>
        <time>2015-09-11T10:39:12Z</time>
      </trkpt>
      <trkpt lat="48.20453" lon="-3.07217">
        <ele>138.57</ele>
        <time>2015-09-11T10:39:27Z</time>
      </trkpt>
      <trkpt lat="48.20448" lon="-3.07189">
        <ele>138.09</ele>
        <time>2015-09-11T10:39:43Z</time>
      </trkpt>
      <trkpt lat="48.20439" lon="-3.07168">
        <ele>138.09</ele>
        <time>2015-09-11T10:39:58Z</time>
      </trkpt>
      <trkpt lat="48.20437" lon="-3.07149">
        <ele>135.2</ele>
        <time>2015-09-11T10:40:13Z</time>
      </trkpt>
      <trkpt lat="48.20428" lon="-3.07119">
        <ele>131.36</ele>
        <time>2015-09-11T10:40:31Z</time>
      </trkpt>
      <trkpt lat="48.20422" lon="-3.07099">
        <ele>129.43</ele>
        <time>2015-09-11T10:40:44Z</time>
      </trkpt>
      <trkpt lat="48.20424" lon="-3.07078">
        <ele>126.07</ele>
        <time>2015-09-11T10:40:59Z</time>
      </trkpt>
      <trkpt lat="48.20425" lon="-3.07045">
        <ele>126.55</ele>
        <time>2015-09-11T10:41:16Z</time>
      </trkpt>
      <trkpt lat="48.20423" lon="-3.07019">
        <ele>126.07</ele>
        <time>2015-09-11T10:41:34Z</time>
      </trkpt>
      <trkpt lat="48.20417" lon="-3.06994">
        <ele>127.99</ele>
        <time>2015-09-11T10:41:49Z</time>
      </trkpt>
      <trkpt lat="48.20416" lon="-3.06982">
        <ele>128.95</ele>
        <time>2015-09-11T10:42:03Z</time>
      </trkpt>
      <trkpt lat="48.20422" lon="-3.06975">
        <ele>130.4</ele>
        <time>2015-09-11T10:42:20Z</time>
      </trkpt>
      <trkpt lat="48.20422" lon="-3.06972">
        <ele>131.36</ele>
        <time>2015-09-11T10:42:41Z</time>
      </trkpt>
      <trkpt lat="48.20418" lon="-3.06948">
        <ele>129.43</ele>
        <time>2015-09-11T10:42:56Z</time>
      </trkpt>
      <trkpt lat="48.20417" lon="-3.06945">
        <ele>128.95</ele>
        <time>2015-09-11T10:43:13Z</time>
      </trkpt>
      <trkpt lat="48.20417" lon="-3.06944">
        <ele>128.95</ele>
        <time>2015-09-11T10:43:30Z</time>
      </trkpt>
      <trkpt lat="48.20414" lon="-3.06947">
        <ele>127.99</ele>
        <time>2015-09-11T10:43:48Z</time>
      </trkpt>
      <trkpt lat="48.20414" lon="-3.06946">
        <ele>127.99</ele>
        <time>2015-09-11T10:44:10Z</time>
      </trkpt>
      <trkpt lat="48.20415" lon="-3.06947">
        <ele>127.51</ele>
        <time>2015-09-11T10:44:29Z</time>
      </trkpt>
      <trkpt lat="48.20416" lon="-3.06947">
        <ele>127.99</ele>
        <time>2015-09-11T10:44:43Z</time>
      </trkpt>
      <trkpt lat="48.20415" lon="-3.06943">
        <ele>128.95</ele>
        <time>2015-09-11T10:44:58Z</time>
      </trkpt>
      <trkpt lat="48.20416" lon="-3.0694">
        <ele>129.92</ele>
        <time>2015-09-11T10:45:12Z</time>
      </trkpt>
      <trkpt lat="48.20416" lon="-3.06934">
        <ele>129.43</ele>
        <time>2015-09-11T10:45:30Z</time>
      </trkpt>
      <trkpt lat="48.20417" lon="-3.06933">
        <ele>128.95</ele>
        <time>2015-09-11T10:45:49Z</time>
      </trkpt>
      <trkpt lat="48.20416" lon="-3.06939">
        <ele>129.43</ele>
        <time>2015-09-11T10:45:58Z</time>
      </trkpt>
      <trkpt lat="48.20415" lon="-3.0694">
        <ele>128.95</ele>
        <time>2015-09-11T10:46:11Z</time>
      </trkpt>
      <trkpt lat="48.20411" lon="-3.06945">
        <ele>128.47</ele>
        <time>2015-09-11T10:46:27Z</time>
      </trkpt>
      <trkpt lat="48.20398" lon="-3.06949">
        <ele>126.55</ele>
        <time>2015-09-11T10:46:42Z</time>
      </trkpt>
      <trkpt lat="48.20385" lon="-3.06942">
        <ele>124.63</ele>
        <time>2015-09-11T10:46:55Z</time>
      </trkpt>
      <trkpt lat="48.20377" lon="-3.06938">
        <ele>125.11</ele>
        <time>2015-09-11T10:47:10Z</time>
      </trkpt>
      <trkpt lat="48.20375" lon="-3.06935">
        <ele>124.15</ele>
        <time>2015-09-11T10:47:15Z</time>
      </trkpt>
      <trkpt lat="48.20353" lon="-3.06926">
        <ele>122.71</ele>
        <time>2015-09-11T10:47:33Z</time>
      </trkpt>
      <trkpt lat="48.20338" lon="-3.06917">
        <ele>121.74</ele>
        <time>2015-09-11T10:47:49Z</time>
      </trkpt>
      <trkpt lat="48.20326" lon="-3.06912">
        <ele>122.71</ele>
        <time>2015-09-11T10:48:01Z</time>
      </trkpt>
      <trkpt lat="48.20314" lon="-3.06913">
        <ele>121.74</ele>
        <time>2015-09-11T10:48:17Z</time>
      </trkpt>
      <trkpt lat="48.203" lon="-3.06909">
        <ele>119.82</ele>
        <time>2015-09-11T10:48:32Z</time>
      </trkpt>
      <trkpt lat="48.20288" lon="-3.06914">
        <ele>119.34</ele>
        <time>2015-09-11T10:48:45Z</time>
      </trkpt>
      <trkpt lat="48.20274" lon="-3.06912">
        <ele>119.82</ele>
        <time>2015-09-11T10:49:01Z</time>
      </trkpt>
      <trkpt lat="48.20259" lon="-3.06915">
        <ele>121.74</ele>
        <time>2015-09-11T10:49:19Z</time>
      </trkpt>
      <trkpt lat="48.20249" lon="-3.06914">
        <ele>121.26</ele>
        <time>2015-09-11T10:49:37Z</time>
      </trkpt>
      <trkpt lat="48.20239" lon="-3.06919">
        <ele>120.3</ele>
        <time>2015-09-11T10:49:53Z</time>
      </trkpt>
      <trkpt lat="48.20219" lon="-3.06934">
        <ele>121.26</ele>
        <time>2015-09-11T10:50:07Z</time>
      </trkpt>
      <trkpt lat="48.20207" lon="-3.06926">
        <ele>122.71</ele>
        <time>2015-09-11T10:50:21Z</time>
      </trkpt>
      <trkpt lat="48.202" lon="-3.06913">
        <ele>123.67</ele>
        <time>2015-09-11T10:50:38Z</time>
      </trkpt>
      <trkpt lat="48.20196" lon="-3.06911">
        <ele>123.67</ele>
        <time>2015-09-11T10:50:49Z</time>
      </trkpt>
      <trkpt lat="48.20197" lon="-3.06908">
        <ele>124.15</ele>
        <time>2015-09-11T10:51:07Z</time>
      </trkpt>
      <trkpt lat="48.20201" lon="-3.06893">
        <ele>123.19</ele>
        <time>2015-09-11T10:51:26Z</time>
      </trkpt>
      <trkpt lat="48.20199" lon="-3.0689">
        <ele>124.63</ele>
        <time>2015-09-11T10:51:45Z</time>
      </trkpt>
      <trkpt lat="48.20198" lon="-3.0689">
        <ele>124.63</ele>
        <time>2015-09-11T10:52:11Z</time>
      </trkpt>
      <trkpt lat="48.20195" lon="-3.06892">
        <ele>124.15</ele>
        <time>2015-09-11T10:52:29Z</time>
      </trkpt>
      <trkpt lat="48.20189" lon="-3.06902">
        <ele>122.71</ele>
        <time>2015-09-11T10:52:42Z</time>
      </trkpt>
      <trkpt lat="48.20181" lon="-3.06918">
        <ele>120.3</ele>
        <time>2015-09-11T10:52:57Z</time>
      </trkpt>
      <trkpt lat="48.20175" lon="-3.06925">
        <ele>121.74</ele>
        <time>2015-09-11T10:53:11Z</time>
      </trkpt>
      <trkpt lat="48.20174" lon="-3.06926">
        <ele>123.19</ele>
        <time>2015-09-11T10:53:26Z</time>
      </trkpt>
      <trkpt lat="48.20174" lon="-3.06926">
        <ele>124.15</ele>
        <time>2015-09-11T10:53:38Z</time>
      </trkpt>
      <trkpt lat="48.20172" lon="-3.06928">
        <ele>124.63</ele>
        <time>2015-09-11T10:53:55Z</time>
      </trkpt>
      <trkpt lat="48.20172" lon="-3.06928">
        <ele>123.67</ele>
        <time>2015-09-11T10:54:09Z</time>
      </trkpt>
      <trkpt lat="48.20175" lon="-3.06923">
        <ele>120.78</ele>
        <time>2015-09-11T10:54:24Z</time>
      </trkpt>
      <trkpt lat="48.2018" lon="-3.06915">
        <ele>121.74</ele>
        <time>2015-09-11T10:54:37Z</time>
      </trkpt>
      <trkpt lat="48.20178" lon="-3.06907">
        <ele>123.67</ele>
        <time>2015-09-11T10:54:59Z</time>
      </trkpt>
      <trkpt lat="48.20178" lon="-3.06905">
        <ele>124.63</ele>
        <time>2015-09-11T10:55:24Z</time>
      </trkpt>
      <trkpt lat="48.20178" lon="-3.06901">
        <ele>123.67</ele>
        <time>2015-09-11T10:55:37Z</time>
      </trkpt>
      <trkpt lat="48.20188" lon="-3.06888">
        <ele>119.34</ele>
        <time>2015-09-11T10:55:50Z</time>
      </trkpt>
      <trkpt lat="48.20194" lon="-3.06868">
        <ele>115.5</ele>
        <time>2015-09-11T10:56:01Z</time>
      </trkpt>
      <trkpt lat="48.20203" lon="-3.06853">
        <ele>111.65</ele>
        <time>2015-09-11T10:56:14Z</time>
      </trkpt>
      <trkpt lat="48.20208" lon="-3.06838">
        <ele>108.29</ele>
        <time>2015-09-11T10:56:28Z</time>
      </trkpt>
      <trkpt lat="48.20221" lon="-3.06827">
        <ele>108.29</ele>
        <time>2015-09-11T10:56:39Z</time>
      </trkpt>
      <trkpt lat="48.20231" lon="-3.0682">
        <ele>110.21</ele>
        <time>2015-09-11T10:56:51Z</time>
      </trkpt>
      <trkpt lat="48.20234" lon="-3.06821">
        <ele>109.73</ele>
        <time>2015-09-11T10:57:09Z</time>
      </trkpt>
      <trkpt lat="48.20259" lon="-3.06832">
        <ele>128.95</ele>
        <time>2015-09-11T12:07:50Z</time>
      </trkpt>
      <trkpt lat="48.20261" lon="-3.06831">
        <ele>132.32</ele>
        <time>2015-09-11T12:08:13Z</time>
      </trkpt>
      <trkpt lat="48.20257" lon="-3.06828">
        <ele>128.47</ele>
        <time>2015-09-11T12:08:33Z</time>
      </trkpt>
      <trkpt lat="48.20258" lon="-3.06821">
        <ele>127.03</ele>
        <time>2015-09-11T12:08:50Z</time>
      </trkpt>
      <trkpt lat="48.20252" lon="-3.0682">
        <ele>123.19</ele>
        <time>2015-09-11T12:09:08Z</time>
      </trkpt>
      <trkpt lat="48.20244" lon="-3.06822">
        <ele>121.74</ele>
        <time>2015-09-11T12:09:20Z</time>
      </trkpt>
      <trkpt lat="48.20238" lon="-3.06828">
        <ele>123.67</ele>
        <time>2015-09-11T12:09:33Z</time>
      </trkpt>
      <trkpt lat="48.2024" lon="-3.06827">
        <ele>122.71</ele>
        <time>2015-09-11T12:09:47Z</time>
      </trkpt>
      <trkpt lat="48.20242" lon="-3.06825">
        <ele>122.71</ele>
        <time>2015-09-11T12:10:05Z</time>
      </trkpt>
      <trkpt lat="48.20243" lon="-3.06824">
        <ele>120.78</ele>
        <time>2015-09-11T12:10:23Z</time>
      </trkpt>
      <trkpt lat="48.20243" lon="-3.06823">
        <ele>119.34</ele>
        <time>2015-09-11T12:10:40Z</time>
      </trkpt>
      <trkpt lat="48.20242" lon="-3.06823">
        <ele>118.86</ele>
        <time>2015-09-11T12:10:59Z</time>
      </trkpt>
      <trkpt lat="48.20241" lon="-3.06822">
        <ele>118.86</ele>
        <time>2015-09-11T12:11:21Z</time>
      </trkpt>
      <trkpt lat="48.20241" lon="-3.06826">
        <ele>117.9</ele>
        <time>2015-09-11T12:11:40Z</time>
      </trkpt>
      <trkpt lat="48.2024" lon="-3.06829">
        <ele>119.34</ele>
        <time>2015-09-11T12:11:51Z</time>
      </trkpt>
      <trkpt lat="48.20239" lon="-3.06831">
        <ele>119.34</ele>
        <time>2015-09-11T12:12:02Z</time>
      </trkpt>
      <trkpt lat="48.20236" lon="-3.06833">
        <ele>119.82</ele>
        <time>2015-09-11T12:12:15Z</time>
      </trkpt>
      <trkpt lat="48.20233" lon="-3.06835">
        <ele>120.3</ele>
        <time>2015-09-11T12:12:19Z</time>
      </trkpt>
      <trkpt lat="48.20227" lon="-3.06846">
        <ele>120.78</ele>
        <time>2015-09-11T12:12:33Z</time>
      </trkpt>
      <trkpt lat="48.20219" lon="-3.06857">
        <ele>120.78</ele>
        <time>2015-09-11T12:12:47Z</time>
      </trkpt>
      <trkpt lat="48.20217" lon="-3.0686">
        <ele>120.78</ele>
        <time>2015-09-11T12:13:01Z</time>
      </trkpt>
      <trkpt lat="48.20213" lon="-3.06864">
        <ele>121.74</ele>
        <time>2015-09-11T12:13:12Z</time>
      </trkpt>
      <trkpt lat="48.2021" lon="-3.0687">
        <ele>122.22</ele>
        <time>2015-09-11T12:13:22Z</time>
      </trkpt>
      <trkpt lat="48.20205" lon="-3.0688">
        <ele>122.22</ele>
        <time>2015-09-11T12:13:33Z</time>
      </trkpt>
      <trkpt lat="48.20203" lon="-3.06887">
        <ele>123.19</ele>
        <time>2015-09-11T12:13:44Z</time>
      </trkpt>
      <trkpt lat="48.20199" lon="-3.06895">
        <ele>123.67</ele>
        <time>2015-09-11T12:13:58Z</time>
      </trkpt>
      <trkpt lat="48.20197" lon="-3.06897">
        <ele>124.15</ele>
        <time>2015-09-11T12:14:11Z</time>
      </trkpt>
      <trkpt lat="48.20191" lon="-3.06901">
        <ele>125.59</ele>
        <time>2015-09-11T12:14:25Z</time>
      </trkpt>
      <trkpt lat="48.20181" lon="-3.06905">
        <ele>127.99</ele>
        <time>2015-09-11T12:14:34Z</time>
      </trkpt>
      <trkpt lat="48.20167" lon="-3.06913">
        <ele>130.4</ele>
        <time>2015-09-11T12:14:49Z</time>
      </trkpt>
      <trkpt lat="48.20154" lon="-3.06919">
        <ele>131.36</ele>
        <time>2015-09-11T12:15:00Z</time>
      </trkpt>
      <trkpt lat="48.20141" lon="-3.06924">
        <ele>133.76</ele>
        <time>2015-09-11T12:15:13Z</time>
      </trkpt>
      <trkpt lat="48.20126" lon="-3.0693">
        <ele>132.8</ele>
        <time>2015-09-11T12:15:30Z</time>
      </trkpt>
      <trkpt lat="48.20113" lon="-3.06941">
        <ele>132.8</ele>
        <time>2015-09-11T12:15:41Z</time>
      </trkpt>
      <trkpt lat="48.20104" lon="-3.06943">
        <ele>134.72</ele>
        <time>2015-09-11T12:15:54Z</time>
      </trkpt>
      <trkpt lat="48.20094" lon="-3.06944">
        <ele>133.76</ele>
        <time>2015-09-11T12:16:05Z</time>
      </trkpt>
      <trkpt lat="48.20083" lon="-3.06951">
        <ele>135.2</ele>
        <time>2015-09-11T12:16:16Z</time>
      </trkpt>
      <trkpt lat="48.20082" lon="-3.06951">
        <ele>135.2</ele>
        <time>2015-09-11T12:16:17Z</time>
      </trkpt>
      <trkpt lat="48.20077" lon="-3.06953">
        <ele>136.16</ele>
        <time>2015-09-11T12:16:22Z</time>
      </trkpt>
      <trkpt lat="48.20068" lon="-3.06955">
        <ele>136.16</ele>
        <time>2015-09-11T12:16:33Z</time>
      </trkpt>
      <trkpt lat="48.20053" lon="-3.0696">
        <ele>137.61</ele>
        <time>2015-09-11T12:16:46Z</time>
      </trkpt>
      <trkpt lat="48.20041" lon="-3.06964">
        <ele>137.13</ele>
        <time>2015-09-11T12:16:58Z</time>
      </trkpt>
      <trkpt lat="48.20028" lon="-3.0697">
        <ele>135.2</ele>
        <time>2015-09-11T12:17:11Z</time>
      </trkpt>
      <trkpt lat="48.20014" lon="-3.06976">
        <ele>137.13</ele>
        <time>2015-09-11T12:17:25Z</time>
      </trkpt>
      <trkpt lat="48.20004" lon="-3.0698">
        <ele>136.16</ele>
        <time>2015-09-11T12:17:36Z</time>
      </trkpt>
      <trkpt lat="48.19993" lon="-3.06986">
        <ele>136.16</ele>
        <time>2015-09-11T12:17:49Z</time>
      </trkpt>
      <trkpt lat="48.1998" lon="-3.0699">
        <ele>136.64</ele>
        <time>2015-09-11T12:18:02Z</time>
      </trkpt>
      <trkpt lat="48.19965" lon="-3.06998">
        <ele>137.13</ele>
        <time>2015-09-11T12:18:16Z</time>
      </trkpt>
      <trkpt lat="48.19957" lon="-3.07005">
        <ele>138.09</ele>
        <time>2015-09-11T12:18:31Z</time>
      </trkpt>
      <trkpt lat="48.19942" lon="-3.07014">
        <ele>145.3</ele>
        <time>2015-09-11T12:18:44Z</time>
      </trkpt>
      <trkpt lat="48.19939" lon="-3.07015">
        <ele>146.74</ele>
        <time>2015-09-11T12:18:59Z</time>
      </trkpt>
      <trkpt lat="48.19941" lon="-3.07019">
        <ele>146.26</ele>
        <time>2015-09-11T12:19:18Z</time>
      </trkpt>
      <trkpt lat="48.19942" lon="-3.07019">
        <ele>146.26</ele>
        <time>2015-09-11T12:19:38Z</time>
      </trkpt>
      <trkpt lat="48.19942" lon="-3.07019">
        <ele>146.26</ele>
        <time>2015-09-11T12:19:55Z</time>
      </trkpt>
      <trkpt lat="48.19945" lon="-3.07017">
        <ele>145.3</ele>
        <time>2015-09-11T12:19:59Z</time>
      </trkpt>
      <trkpt lat="48.19951" lon="-3.07013">
        <ele>142.89</ele>
        <time>2015-09-11T12:20:12Z</time>
      </trkpt>
      <trkpt lat="48.19951" lon="-3.07013">
        <ele>141.45</ele>
        <time>2015-09-11T12:20:31Z</time>
      </trkpt>
      <trkpt lat="48.19953" lon="-3.07014">
        <ele>140.97</ele>
        <time>2015-09-11T12:20:58Z</time>
      </trkpt>
      <trkpt lat="48.19954" lon="-3.07014">
        <ele>139.05</ele>
        <time>2015-09-11T12:21:26Z</time>
      </trkpt>
      <trkpt lat="48.19956" lon="-3.07015">
        <ele>140.49</ele>
        <time>2015-09-11T12:21:48Z</time>
      </trkpt>
      <trkpt lat="48.19963" lon="-3.07029">
        <ele>143.37</ele>
        <time>2015-09-11T12:22:01Z</time>
      </trkpt>
      <trkpt lat="48.1997" lon="-3.07044">
        <ele>142.89</ele>
        <time>2015-09-11T12:22:17Z</time>
      </trkpt>
      <trkpt lat="48.19972" lon="-3.07055">
        <ele>141.93</ele>
        <time>2015-09-11T12:22:31Z</time>
      </trkpt>
      <trkpt lat="48.1997" lon="-3.07057">
        <ele>140.97</ele>
        <time>2015-09-11T12:22:45Z</time>
      </trkpt>
      <trkpt lat="48.1997" lon="-3.07058">
        <ele>141.93</ele>
        <time>2015-09-11T12:23:13Z</time>
      </trkpt>
      <trkpt lat="48.19976" lon="-3.0706">
        <ele>140.97</ele>
        <time>2015-09-11T12:23:22Z</time>
      </trkpt>
      <trkpt lat="48.19981" lon="-3.07068">
        <ele>139.53</ele>
        <time>2015-09-11T12:23:37Z</time>
      </trkpt>
      <trkpt lat="48.19986" lon="-3.07083">
        <ele>138.57</ele>
        <time>2015-09-11T12:23:48Z</time>
      </trkpt>
      <trkpt lat="48.19988" lon="-3.07091">
        <ele>138.09</ele>
        <time>2015-09-11T12:24:01Z</time>
      </trkpt>
      <trkpt lat="48.19995" lon="-3.07108">
        <ele>137.61</ele>
        <time>2015-09-11T12:24:15Z</time>
      </trkpt>
      <trkpt lat="48.20004" lon="-3.07125">
        <ele>139.53</ele>
        <time>2015-09-11T12:24:28Z</time>
      </trkpt>
      <trkpt lat="48.20021" lon="-3.07138">
        <ele>145.78</ele>
        <time>2015-09-11T12:24:43Z</time>
      </trkpt>
      <trkpt lat="48.20031" lon="-3.07145">
        <ele>151.06</ele>
        <time>2015-09-11T12:24:53Z</time>
      </trkpt>
      <trkpt lat="48.20041" lon="-3.07153">
        <ele>155.39</ele>
        <time>2015-09-11T12:25:05Z</time>
      </trkpt>
      <trkpt lat="48.2005" lon="-3.07156">
        <ele>157.31</ele>
        <time>2015-09-11T12:25:19Z</time>
      </trkpt>
      <trkpt lat="48.2006" lon="-3.07162">
        <ele>158.75</ele>
        <time>2015-09-11T12:25:31Z</time>
      </trkpt>
      <trkpt lat="48.20071" lon="-3.07166">
        <ele>162.6</ele>
        <time>2015-09-11T12:25:43Z</time>
      </trkpt>
      <trkpt lat="48.20079" lon="-3.07168">
        <ele>164.52</ele>
        <time>2015-09-11T12:25:54Z</time>
      </trkpt>
      <trkpt lat="48.20088" lon="-3.07171">
        <ele>165.48</ele>
        <time>2015-09-11T12:26:06Z</time>
      </trkpt>
      <trkpt lat="48.20097" lon="-3.07173">
        <ele>163.56</ele>
        <time>2015-09-11T12:26:16Z</time>
      </trkpt>
      <trkpt lat="48.2011" lon="-3.07175">
        <ele>161.64</ele>
        <time>2015-09-11T12:26:27Z</time>
      </trkpt>
      <trkpt lat="48.2012" lon="-3.07177">
        <ele>159.72</ele>
        <time>2015-09-11T12:26:38Z</time>
      </trkpt>
      <trkpt lat="48.20131" lon="-3.07172">
        <ele>160.2</ele>
        <time>2015-09-11T12:26:50Z</time>
      </trkpt>
      <trkpt lat="48.20138" lon="-3.07171">
        <ele>160.2</ele>
        <time>2015-09-11T12:26:55Z</time>
      </trkpt>
      <trkpt lat="48.20146" lon="-3.07168">
        <ele>160.2</ele>
        <time>2015-09-11T12:27:05Z</time>
      </trkpt>
      <trkpt lat="48.20162" lon="-3.07163">
        <ele>159.72</ele>
        <time>2015-09-11T12:27:18Z</time>
      </trkpt>
      <trkpt lat="48.20173" lon="-3.0716">
        <ele>157.79</ele>
        <time>2015-09-11T12:27:31Z</time>
      </trkpt>
      <trkpt lat="48.20183" lon="-3.07153">
        <ele>157.79</ele>
        <time>2015-09-11T12:27:42Z</time>
      </trkpt>
      <trkpt lat="48.20197" lon="-3.07144">
        <ele>158.27</ele>
        <time>2015-09-11T12:27:57Z</time>
      </trkpt>
      <trkpt lat="48.20206" lon="-3.07145">
        <ele>155.39</ele>
        <time>2015-09-11T12:28:09Z</time>
      </trkpt>
      <trkpt lat="48.2022" lon="-3.07134">
        <ele>152.03</ele>
        <time>2015-09-11T12:28:24Z</time>
      </trkpt>
      <trkpt lat="48.2023" lon="-3.07124">
        <ele>152.03</ele>
        <time>2015-09-11T12:28:40Z</time>
      </trkpt>
      <trkpt lat="48.20245" lon="-3.07116">
        <ele>155.39</ele>
        <time>2015-09-11T12:28:54Z</time>
      </trkpt>
      <trkpt lat="48.20251" lon="-3.07113">
        <ele>155.87</ele>
        <time>2015-09-11T12:29:10Z</time>
      </trkpt>
      <trkpt lat="48.20253" lon="-3.07111">
        <ele>156.83</ele>
        <time>2015-09-11T12:29:25Z</time>
      </trkpt>
      <trkpt lat="48.20257" lon="-3.07111">
        <ele>156.35</ele>
        <time>2015-09-11T12:29:39Z</time>
      </trkpt>
      <trkpt lat="48.2027" lon="-3.0712">
        <ele>152.51</ele>
        <time>2015-09-11T12:29:55Z</time>
      </trkpt>
      <trkpt lat="48.20287" lon="-3.07137">
        <ele>150.1</ele>
        <time>2015-09-11T12:30:09Z</time>
      </trkpt>
      <trkpt lat="48.20306" lon="-3.07146">
        <ele>149.62</ele>
        <time>2015-09-11T12:30:25Z</time>
      </trkpt>
      <trkpt lat="48.20318" lon="-3.07158">
        <ele>152.03</ele>
        <time>2015-09-11T12:30:42Z</time>
      </trkpt>
      <trkpt lat="48.20333" lon="-3.07176">
        <ele>148.66</ele>
        <time>2015-09-11T12:30:56Z</time>
      </trkpt>
      <trkpt lat="48.20343" lon="-3.07193">
        <ele>144.82</ele>
        <time>2015-09-11T12:31:08Z</time>
      </trkpt>
      <trkpt lat="48.20357" lon="-3.07214">
        <ele>144.82</ele>
        <time>2015-09-11T12:31:22Z</time>
      </trkpt>
      <trkpt lat="48.20372" lon="-3.07244">
        <ele>151.54</ele>
        <time>2015-09-11T12:31:36Z</time>
      </trkpt>
      <trkpt lat="48.20376" lon="-3.07256">
        <ele>151.06</ele>
        <time>2015-09-11T12:31:45Z</time>
      </trkpt>
      <trkpt lat="48.20389" lon="-3.07277">
        <ele>152.03</ele>
        <time>2015-09-11T12:32:02Z</time>
      </trkpt>
      <trkpt lat="48.20398" lon="-3.07287">
        <ele>152.51</ele>
        <time>2015-09-11T12:32:09Z</time>
      </trkpt>
      <trkpt lat="48.20406" lon="-3.07303">
        <ele>152.51</ele>
        <time>2015-09-11T12:32:21Z</time>
      </trkpt>
      <trkpt lat="48.20415" lon="-3.0732">
        <ele>149.14</ele>
        <time>2015-09-11T12:32:34Z</time>
      </trkpt>
      <trkpt lat="48.20419" lon="-3.07329">
        <ele>150.58</ele>
        <time>2015-09-11T12:32:49Z</time>
      </trkpt>
      <trkpt lat="48.20421" lon="-3.07346">
        <ele>149.14</ele>
        <time>2015-09-11T12:33:05Z</time>
      </trkpt>
      <trkpt lat="48.20431" lon="-3.07367">
        <ele>147.22</ele>
        <time>2015-09-11T12:33:16Z</time>
      </trkpt>
      <trkpt lat="48.20444" lon="-3.07395">
        <ele>148.66</ele>
        <time>2015-09-11T12:33:31Z</time>
      </trkpt>
      <trkpt lat="48.20452" lon="-3.07416">
        <ele>146.74</ele>
        <time>2015-09-11T12:33:45Z</time>
      </trkpt>
      <trkpt lat="48.20456" lon="-3.07423">
        <ele>146.26</ele>
        <time>2015-09-11T12:33:49Z</time>
      </trkpt>
      <trkpt lat="48.20473" lon="-3.07446">
        <ele>147.22</ele>
        <time>2015-09-11T12:34:03Z</time>
      </trkpt>
      <trkpt lat="48.20484" lon="-3.07465">
        <ele>151.54</ele>
        <time>2015-09-11T12:34:17Z</time>
      </trkpt>
      <trkpt lat="48.20496" lon="-3.0748">
        <ele>153.47</ele>
        <time>2015-09-11T12:34:30Z</time>
      </trkpt>
      <trkpt lat="48.20505" lon="-3.07496">
        <ele>155.87</ele>
        <time>2015-09-11T12:34:42Z</time>
      </trkpt>
      <trkpt lat="48.20507" lon="-3.075">
        <ele>155.39</ele>
        <time>2015-09-11T12:34:45Z</time>
      </trkpt>
      <trkpt lat="48.20515" lon="-3.07514">
        <ele>151.54</ele>
        <time>2015-09-11T12:34:57Z</time>
      </trkpt>
      <trkpt lat="48.20517" lon="-3.0752">
        <ele>150.1</ele>
        <time>2015-09-11T12:35:01Z</time>
      </trkpt>
      <trkpt lat="48.20527" lon="-3.07539">
        <ele>150.58</ele>
        <time>2015-09-11T12:35:15Z</time>
      </trkpt>
      <trkpt lat="48.20532" lon="-3.07547">
        <ele>150.1</ele>
        <time>2015-09-11T12:35:21Z</time>
      </trkpt>
      <trkpt lat="48.2054" lon="-3.07569">
        <ele>149.14</ele>
        <time>2015-09-11T12:35:36Z</time>
      </trkpt>
      <trkpt lat="48.20547" lon="-3.07592">
        <ele>149.14</ele>
        <time>2015-09-11T12:35:50Z</time>
      </trkpt>
      <trkpt lat="48.20553" lon="-3.07606">
        <ele>149.14</ele>
        <time>2015-09-11T12:36:00Z</time>
      </trkpt>
      <trkpt lat="48.20562" lon="-3.07628">
        <ele>148.18</ele>
        <time>2015-09-11T12:36:15Z</time>
      </trkpt>
      <trkpt lat="48.20569" lon="-3.07652">
        <ele>150.1</ele>
        <time>2015-09-11T12:36:30Z</time>
      </trkpt>
      <trkpt lat="48.20575" lon="-3.07669">
        <ele>149.14</ele>
        <time>2015-09-11T12:36:42Z</time>
      </trkpt>
      <trkpt lat="48.20576" lon="-3.07689">
        <ele>147.7</ele>
        <time>2015-09-11T12:36:55Z</time>
      </trkpt>
      <trkpt lat="48.20585" lon="-3.07709">
        <ele>146.26</ele>
        <time>2015-09-11T12:37:09Z</time>
      </trkpt>
      <trkpt lat="48.20591" lon="-3.07724">
        <ele>143.85</ele>
        <time>2015-09-11T12:37:20Z</time>
      </trkpt>
      <trkpt lat="48.20596" lon="-3.0774">
        <ele>146.74</ele>
        <time>2015-09-11T12:37:34Z</time>
      </trkpt>
      <trkpt lat="48.20602" lon="-3.0776">
        <ele>147.7</ele>
        <time>2015-09-11T12:37:49Z</time>
      </trkpt>
      <trkpt lat="48.2061" lon="-3.07772">
        <ele>148.66</ele>
        <time>2015-09-11T12:38:03Z</time>
      </trkpt>
      <trkpt lat="48.20612" lon="-3.07776">
        <ele>149.14</ele>
        <time>2015-09-11T12:38:09Z</time>
      </trkpt>
      <trkpt lat="48.20623" lon="-3.07792">
        <ele>151.06</ele>
        <time>2015-09-11T12:38:21Z</time>
      </trkpt>
      <trkpt lat="48.20635" lon="-3.07815">
        <ele>150.1</ele>
        <time>2015-09-11T12:38:36Z</time>
      </trkpt>
      <trkpt lat="48.20649" lon="-3.07842">
        <ele>149.62</ele>
        <time>2015-09-11T12:38:52Z</time>
      </trkpt>
      <trkpt lat="48.20656" lon="-3.07867">
        <ele>146.26</ele>
        <time>2015-09-11T12:39:07Z</time>
      </trkpt>
      <trkpt lat="48.20667" lon="-3.07882">
        <ele>144.82</ele>
        <time>2015-09-11T12:39:20Z</time>
      </trkpt>
      <trkpt lat="48.20677" lon="-3.07902">
        <ele>142.41</ele>
        <time>2015-09-11T12:39:33Z</time>
      </trkpt>
      <trkpt lat="48.20685" lon="-3.07923">
        <ele>141.93</ele>
        <time>2015-09-11T12:39:48Z</time>
      </trkpt>
      <trkpt lat="48.20692" lon="-3.0794">
        <ele>140.49</ele>
        <time>2015-09-11T12:40:00Z</time>
      </trkpt>
      <trkpt lat="48.20698" lon="-3.07954">
        <ele>139.05</ele>
        <time>2015-09-11T12:40:10Z</time>
      </trkpt>
      <trkpt lat="48.20705" lon="-3.0797">
        <ele>141.45</ele>
        <time>2015-09-11T12:40:22Z</time>
      </trkpt>
      <trkpt lat="48.20712" lon="-3.07991">
        <ele>141.45</ele>
        <time>2015-09-11T12:40:36Z</time>
      </trkpt>
      <trkpt lat="48.20718" lon="-3.08016">
        <ele>143.37</ele>
        <time>2015-09-11T12:40:52Z</time>
      </trkpt>
      <trkpt lat="48.20724" lon="-3.08027">
        <ele>144.82</ele>
        <time>2015-09-11T12:41:05Z</time>
      </trkpt>
      <trkpt lat="48.20727" lon="-3.0804">
        <ele>145.3</ele>
        <time>2015-09-11T12:41:18Z</time>
      </trkpt>
      <trkpt lat="48.20733" lon="-3.08052">
        <ele>146.74</ele>
        <time>2015-09-11T12:41:33Z</time>
      </trkpt>
      <trkpt lat="48.20741" lon="-3.08085">
        <ele>144.82</ele>
        <time>2015-09-11T12:41:49Z</time>
      </trkpt>
      <trkpt lat="48.20741" lon="-3.08108">
        <ele>145.78</ele>
        <time>2015-09-11T12:42:01Z</time>
      </trkpt>
      <trkpt lat="48.20742" lon="-3.08131">
        <ele>147.22</ele>
        <time>2015-09-11T12:42:15Z</time>
      </trkpt>
      <trkpt lat="48.20744" lon="-3.08145">
        <ele>148.66</ele>
        <time>2015-09-11T12:42:28Z</time>
      </trkpt>
      <trkpt lat="48.20744" lon="-3.08145">
        <ele>148.66</ele>
        <time>2015-09-11T12:42:29Z</time>
      </trkpt>
      <trkpt lat="48.20744" lon="-3.08157">
        <ele>149.14</ele>
        <time>2015-09-11T12:42:38Z</time>
      </trkpt>
      <trkpt lat="48.20744" lon="-3.08176">
        <ele>149.62</ele>
        <time>2015-09-11T12:42:50Z</time>
      </trkpt>
      <trkpt lat="48.20738" lon="-3.08199">
        <ele>148.66</ele>
        <time>2015-09-11T12:43:02Z</time>
      </trkpt>
      <trkpt lat="48.20733" lon="-3.08212">
        <ele>150.1</ele>
        <time>2015-09-11T12:43:10Z</time>
      </trkpt>
      <trkpt lat="48.20721" lon="-3.08225">
        <ele>152.51</ele>
        <time>2015-09-11T12:43:21Z</time>
      </trkpt>
      <trkpt lat="48.20709" lon="-3.08233">
        <ele>152.51</ele>
        <time>2015-09-11T12:43:31Z</time>
      </trkpt>
      <trkpt lat="48.20694" lon="-3.08242">
        <ele>153.47</ele>
        <time>2015-09-11T12:43:42Z</time>
      </trkpt>
      <trkpt lat="48.20689" lon="-3.08244">
        <ele>153.95</ele>
        <time>2015-09-11T12:43:53Z</time>
      </trkpt>
      <trkpt lat="48.20674" lon="-3.08254">
        <ele>157.31</ele>
        <time>2015-09-11T12:44:05Z</time>
      </trkpt>
      <trkpt lat="48.20673" lon="-3.08255">
        <ele>158.27</ele>
        <time>2015-09-11T12:44:08Z</time>
      </trkpt>
      <trkpt lat="48.20666" lon="-3.08261">
        <ele>160.68</ele>
        <time>2015-09-11T12:44:19Z</time>
      </trkpt>
      <trkpt lat="48.20662" lon="-3.08263">
        <ele>160.68</ele>
        <time>2015-09-11T12:44:22Z</time>
      </trkpt>
      <trkpt lat="48.20652" lon="-3.08269">
        <ele>161.16</ele>
        <time>2015-09-11T12:44:34Z</time>
      </trkpt>
      <trkpt lat="48.20649" lon="-3.0827">
        <ele>161.64</ele>
        <time>2015-09-11T12:44:36Z</time>
      </trkpt>
      <trkpt lat="48.20641" lon="-3.08275">
        <ele>163.08</ele>
        <time>2015-09-11T12:44:42Z</time>
      </trkpt>
      <trkpt lat="48.20633" lon="-3.08278">
        <ele>164.52</ele>
        <time>2015-09-11T12:44:49Z</time>
      </trkpt>
      <trkpt lat="48.20613" lon="-3.08283">
        <ele>166.45</ele>
        <time>2015-09-11T12:45:03Z</time>
      </trkpt>
      <trkpt lat="48.20601" lon="-3.0828">
        <ele>167.41</ele>
        <time>2015-09-11T12:45:15Z</time>
      </trkpt>
      <trkpt lat="48.20595" lon="-3.08278">
        <ele>167.41</ele>
        <time>2015-09-11T12:45:21Z</time>
      </trkpt>
      <trkpt lat="48.20581" lon="-3.08278">
        <ele>168.85</ele>
        <time>2015-09-11T12:45:34Z</time>
      </trkpt>
      <trkpt lat="48.20572" lon="-3.08276">
        <ele>171.25</ele>
        <time>2015-09-11T12:45:45Z</time>
      </trkpt>
      <trkpt lat="48.2056" lon="-3.08274">
        <ele>175.58</ele>
        <time>2015-09-11T12:45:57Z</time>
      </trkpt>
      <trkpt lat="48.20552" lon="-3.0827">
        <ele>177.98</ele>
        <time>2015-09-11T12:46:09Z</time>
      </trkpt>
      <trkpt lat="48.20548" lon="-3.0827">
        <ele>177.98</ele>
        <time>2015-09-11T12:46:11Z</time>
      </trkpt>
      <trkpt lat="48.20536" lon="-3.08265">
        <ele>179.9</ele>
        <time>2015-09-11T12:46:23Z</time>
      </trkpt>
      <trkpt lat="48.20532" lon="-3.08263">
        <ele>181.35</ele>
        <time>2015-09-11T12:46:29Z</time>
      </trkpt>
      <trkpt lat="48.20529" lon="-3.08263">
        <ele>181.35</ele>
        <time>2015-09-11T12:46:31Z</time>
      </trkpt>
      <trkpt lat="48.20518" lon="-3.0826">
        <ele>181.83</ele>
        <time>2015-09-11T12:46:42Z</time>
      </trkpt>
      <trkpt lat="48.20506" lon="-3.08258">
        <ele>184.71</ele>
        <time>2015-09-11T12:46:56Z</time>
      </trkpt>
      <trkpt lat="48.20499" lon="-3.08258">
        <ele>186.63</ele>
        <time>2015-09-11T12:47:09Z</time>
      </trkpt>
      <trkpt lat="48.20499" lon="-3.08259">
        <ele>187.59</ele>
        <time>2015-09-11T12:47:23Z</time>
      </trkpt>
      <trkpt lat="48.20498" lon="-3.08259">
        <ele>188.56</ele>
        <time>2015-09-11T12:47:41Z</time>
      </trkpt>
      <trkpt lat="48.20491" lon="-3.08259">
        <ele>188.56</ele>
        <time>2015-09-11T12:47:54Z</time>
      </trkpt>
      <trkpt lat="48.20491" lon="-3.08258">
        <ele>189.52</ele>
        <time>2015-09-11T12:48:14Z</time>
      </trkpt>
      <trkpt lat="48.20486" lon="-3.08256">
        <ele>189.04</ele>
        <time>2015-09-11T12:48:30Z</time>
      </trkpt>
      <trkpt lat="48.20474" lon="-3.08256">
        <ele>187.11</ele>
        <time>2015-09-11T12:48:43Z</time>
      </trkpt>
      <trkpt lat="48.20466" lon="-3.08254">
        <ele>185.19</ele>
        <time>2015-09-11T12:48:54Z</time>
      </trkpt>
      <trkpt lat="48.20464" lon="-3.08255">
        <ele>186.15</ele>
        <time>2015-09-11T12:49:07Z</time>
      </trkpt>
      <trkpt lat="48.20447" lon="-3.08257">
        <ele>189.52</ele>
        <time>2015-09-11T12:49:20Z</time>
      </trkpt>
      <trkpt lat="48.20441" lon="-3.08257">
        <ele>190.96</ele>
        <time>2015-09-11T12:49:27Z</time>
      </trkpt>
      <trkpt lat="48.20437" lon="-3.08255">
        <ele>193.36</ele>
        <time>2015-09-11T12:49:40Z</time>
      </trkpt>
      <trkpt lat="48.20436" lon="-3.08253">
        <ele>196.25</ele>
        <time>2015-09-11T12:49:51Z</time>
      </trkpt>
      <trkpt lat="48.20426" lon="-3.08254">
        <ele>196.73</ele>
        <time>2015-09-11T12:50:02Z</time>
      </trkpt>
      <trkpt lat="48.20419" lon="-3.08255">
        <ele>197.21</ele>
        <time>2015-09-11T12:50:09Z</time>
      </trkpt>
      <trkpt lat="48.20407" lon="-3.08257">
        <ele>197.69</ele>
        <time>2015-09-11T12:50:19Z</time>
      </trkpt>
      <trkpt lat="48.20398" lon="-3.08259">
        <ele>197.69</ele>
        <time>2015-09-11T12:50:32Z</time>
      </trkpt>
      <trkpt lat="48.20396" lon="-3.08258">
        <ele>197.69</ele>
        <time>2015-09-11T12:50:39Z</time>
      </trkpt>
      <trkpt lat="48.20393" lon="-3.08258">
        <ele>198.17</ele>
        <time>2015-09-11T12:50:41Z</time>
      </trkpt>
      <trkpt lat="48.20389" lon="-3.08258">
        <ele>198.65</ele>
        <time>2015-09-11T12:50:43Z</time>
      </trkpt>
      <trkpt lat="48.20385" lon="-3.08259">
        <ele>199.13</ele>
        <time>2015-09-11T12:50:46Z</time>
      </trkpt>
      <trkpt lat="48.20368" lon="-3.0826">
        <ele>197.69</ele>
        <time>2015-09-11T12:51:01Z</time>
      </trkpt>
      <trkpt lat="48.20359" lon="-3.08262">
        <ele>197.21</ele>
        <time>2015-09-11T12:51:10Z</time>
      </trkpt>
      <trkpt lat="48.20343" lon="-3.08264">
        <ele>198.65</ele>
        <time>2015-09-11T12:51:24Z</time>
      </trkpt>
      <trkpt lat="48.2033" lon="-3.08273">
        <ele>198.17</ele>
        <time>2015-09-11T12:51:41Z</time>
      </trkpt>
      <trkpt lat="48.20318" lon="-3.0828">
        <ele>198.65</ele>
        <time>2015-09-11T12:51:53Z</time>
      </trkpt>
      <trkpt lat="48.20305" lon="-3.08285">
        <ele>197.69</ele>
        <time>2015-09-11T12:52:07Z</time>
      </trkpt>
      <trkpt lat="48.20287" lon="-3.08293">
        <ele>198.65</ele>
        <time>2015-09-11T12:52:23Z</time>
      </trkpt>
      <trkpt lat="48.20277" lon="-3.08296">
        <ele>198.17</ele>
        <time>2015-09-11T12:52:35Z</time>
      </trkpt>
      <trkpt lat="48.20268" lon="-3.08297">
        <ele>198.17</ele>
        <time>2015-09-11T12:52:45Z</time>
      </trkpt>
      <trkpt lat="48.20253" lon="-3.08301">
        <ele>197.69</ele>
        <time>2015-09-11T12:52:56Z</time>
      </trkpt>
      <trkpt lat="48.20242" lon="-3.08305">
        <ele>198.65</ele>
        <time>2015-09-11T12:53:04Z</time>
      </trkpt>
      <trkpt lat="48.20224" lon="-3.0831">
        <ele>201.53</ele>
        <time>2015-09-11T12:53:19Z</time>
      </trkpt>
      <trkpt lat="48.20212" lon="-3.08307">
        <ele>201.53</ele>
        <time>2015-09-11T12:53:31Z</time>
      </trkpt>
      <trkpt lat="48.20193" lon="-3.08305">
        <ele>206.34</ele>
        <time>2015-09-11T12:53:45Z</time>
      </trkpt>
      <trkpt lat="48.20186" lon="-3.08304">
        <ele>207.78</ele>
        <time>2015-09-11T12:53:59Z</time>
      </trkpt>
      <trkpt lat="48.20179" lon="-3.08302">
        <ele>207.3</ele>
        <time>2015-09-11T12:54:20Z</time>
      </trkpt>
      <trkpt lat="48.20178" lon="-3.083">
        <ele>207.78</ele>
        <time>2015-09-11T12:54:31Z</time>
      </trkpt>
      <trkpt lat="48.20178" lon="-3.08299">
        <ele>208.26</ele>
        <time>2015-09-11T12:54:44Z</time>
      </trkpt>
      <trkpt lat="48.20177" lon="-3.08299">
        <ele>207.78</ele>
        <time>2015-09-11T12:54:55Z</time>
      </trkpt>
      <trkpt lat="48.20171" lon="-3.08297">
        <ele>205.38</ele>
        <time>2015-09-11T12:55:05Z</time>
      </trkpt>
      <trkpt lat="48.20164" lon="-3.08296">
        <ele>202.98</ele>
        <time>2015-09-11T12:55:15Z</time>
      </trkpt>
      <trkpt lat="48.20161" lon="-3.08297">
        <ele>202.49</ele>
        <time>2015-09-11T12:55:17Z</time>
      </trkpt>
      <trkpt lat="48.20159" lon="-3.08297">
        <ele>202.49</ele>
        <time>2015-09-11T12:55:19Z</time>
      </trkpt>
      <trkpt lat="48.20145" lon="-3.08298">
        <ele>204.9</ele>
        <time>2015-09-11T12:55:30Z</time>
      </trkpt>
      <trkpt lat="48.20133" lon="-3.083">
        <ele>210.19</ele>
        <time>2015-09-11T12:55:42Z</time>
      </trkpt>
      <trkpt lat="48.20119" lon="-3.08295">
        <ele>214.03</ele>
        <time>2015-09-11T12:55:57Z</time>
      </trkpt>
      <trkpt lat="48.20109" lon="-3.0829">
        <ele>215.95</ele>
        <time>2015-09-11T12:56:11Z</time>
      </trkpt>
      <trkpt lat="48.201" lon="-3.08284">
        <ele>218.84</ele>
        <time>2015-09-11T12:56:20Z</time>
      </trkpt>
      <trkpt lat="48.20089" lon="-3.08283">
        <ele>222.2</ele>
        <time>2015-09-11T12:56:30Z</time>
      </trkpt>
      <trkpt lat="48.20081" lon="-3.08281">
        <ele>225.09</ele>
        <time>2015-09-11T12:56:38Z</time>
      </trkpt>
      <trkpt lat="48.20067" lon="-3.08278">
        <ele>226.53</ele>
        <time>2015-09-11T12:56:50Z</time>
      </trkpt>
      <trkpt lat="48.20058" lon="-3.08276">
        <ele>227.97</ele>
        <time>2015-09-11T12:57:05Z</time>
      </trkpt>
      <trkpt lat="48.20053" lon="-3.08273">
        <ele>229.41</ele>
        <time>2015-09-11T12:57:24Z</time>
      </trkpt>
      <trkpt lat="48.20039" lon="-3.08265">
        <ele>229.41</ele>
        <time>2015-09-11T12:57:37Z</time>
      </trkpt>
      <trkpt lat="48.20032" lon="-3.08258">
        <ele>229.89</ele>
        <time>2015-09-11T12:57:43Z</time>
      </trkpt>
      <trkpt lat="48.20021" lon="-3.08243">
        <ele>229.89</ele>
        <time>2015-09-11T12:57:58Z</time>
      </trkpt>
      <trkpt lat="48.2001" lon="-3.0823">
        <ele>230.37</ele>
        <time>2015-09-11T12:58:09Z</time>
      </trkpt>
      <trkpt lat="48.20004" lon="-3.08224">
        <ele>231.33</ele>
        <time>2015-09-11T12:58:15Z</time>
      </trkpt>
      <trkpt lat="48.1999" lon="-3.08212">
        <ele>231.81</ele>
        <time>2015-09-11T12:58:30Z</time>
      </trkpt>
      <trkpt lat="48.19986" lon="-3.0821">
        <ele>230.85</ele>
        <time>2015-09-11T12:58:34Z</time>
      </trkpt>
      <trkpt lat="48.19969" lon="-3.08207">
        <ele>227.97</ele>
        <time>2015-09-11T12:58:49Z</time>
      </trkpt>
      <trkpt lat="48.19952" lon="-3.08207">
        <ele>227.97</ele>
        <time>2015-09-11T12:59:06Z</time>
      </trkpt>
      <trkpt lat="48.19941" lon="-3.08206">
        <ele>228.45</ele>
        <time>2015-09-11T12:59:19Z</time>
      </trkpt>
      <trkpt lat="48.19941" lon="-3.08206">
        <ele>228.45</ele>
        <time>2015-09-11T12:59:37Z</time>
      </trkpt>
      <trkpt lat="48.19941" lon="-3.08206">
        <ele>228.45</ele>
        <time>2015-09-11T12:59:55Z</time>
      </trkpt>
      <trkpt lat="48.19937" lon="-3.08206">
        <ele>229.41</ele>
        <time>2015-09-11T13:00:10Z</time>
      </trkpt>
      <trkpt lat="48.1993" lon="-3.08206">
        <ele>229.89</ele>
        <time>2015-09-11T13:00:23Z</time>
      </trkpt>
      <trkpt lat="48.19917" lon="-3.08206">
        <ele>231.33</ele>
        <time>2015-09-11T13:00:36Z</time>
      </trkpt>
      <trkpt lat="48.19912" lon="-3.08206">
        <ele>232.3</ele>
        <time>2015-09-11T13:00:41Z</time>
      </trkpt>
      <trkpt lat="48.1991" lon="-3.08205">
        <ele>232.78</ele>
        <time>2015-09-11T13:00:43Z</time>
      </trkpt>
      <trkpt lat="48.19902" lon="-3.08204">
        <ele>231.81</ele>
        <time>2015-09-11T13:00:51Z</time>
      </trkpt>
      <trkpt lat="48.19888" lon="-3.08204">
        <ele>230.37</ele>
        <time>2015-09-11T13:01:04Z</time>
      </trkpt>
      <trkpt lat="48.19883" lon="-3.08204">
        <ele>229.89</ele>
        <time>2015-09-11T13:01:08Z</time>
      </trkpt>
      <trkpt lat="48.1988" lon="-3.08204">
        <ele>229.89</ele>
        <time>2015-09-11T13:01:10Z</time>
      </trkpt>
      <trkpt lat="48.19867" lon="-3.08202">
        <ele>227.97</ele>
        <time>2015-09-11T13:01:22Z</time>
      </trkpt>
      <trkpt lat="48.19859" lon="-3.08201">
        <ele>226.05</ele>
        <time>2015-09-11T13:01:28Z</time>
      </trkpt>
      <trkpt lat="48.19848" lon="-3.08198">
        <ele>224.61</ele>
        <time>2015-09-11T13:01:38Z</time>
      </trkpt>
      <trkpt lat="48.19836" lon="-3.08196">
        <ele>223.16</ele>
        <time>2015-09-11T13:01:50Z</time>
      </trkpt>
      <trkpt lat="48.1982" lon="-3.08202">
        <ele>223.16</ele>
        <time>2015-09-11T13:02:06Z</time>
      </trkpt>
      <trkpt lat="48.19814" lon="-3.08208">
        <ele>223.64</ele>
        <time>2015-09-11T13:02:13Z</time>
      </trkpt>
      <trkpt lat="48.1981" lon="-3.08219">
        <ele>223.64</ele>
        <time>2015-09-11T13:02:21Z</time>
      </trkpt>
      <trkpt lat="48.19806" lon="-3.08238">
        <ele>223.64</ele>
        <time>2015-09-11T13:02:33Z</time>
      </trkpt>
      <trkpt lat="48.19801" lon="-3.08246">
        <ele>223.64</ele>
        <time>2015-09-11T13:02:40Z</time>
      </trkpt>
      <trkpt lat="48.198" lon="-3.08252">
        <ele>223.64</ele>
        <time>2015-09-11T13:02:44Z</time>
      </trkpt>
      <trkpt lat="48.19798" lon="-3.08262">
        <ele>221.72</ele>
        <time>2015-09-11T13:02:54Z</time>
      </trkpt>
      <trkpt lat="48.19796" lon="-3.08267">
        <ele>221.72</ele>
        <time>2015-09-11T13:02:58Z</time>
      </trkpt>
      <trkpt lat="48.19793" lon="-3.08278">
        <ele>220.76</ele>
        <time>2015-09-11T13:03:12Z</time>
      </trkpt>
      <trkpt lat="48.1979" lon="-3.08284">
        <ele>219.8</ele>
        <time>2015-09-11T13:03:17Z</time>
      </trkpt>
      <trkpt lat="48.19785" lon="-3.08304">
        <ele>217.4</ele>
        <time>2015-09-11T13:03:32Z</time>
      </trkpt>
      <trkpt lat="48.19783" lon="-3.08309">
        <ele>216.43</ele>
        <time>2015-09-11T13:03:36Z</time>
      </trkpt>
      <trkpt lat="48.19779" lon="-3.08319">
        <ele>214.51</ele>
        <time>2015-09-11T13:03:43Z</time>
      </trkpt>
      <trkpt lat="48.19772" lon="-3.08338">
        <ele>214.51</ele>
        <time>2015-09-11T13:03:56Z</time>
      </trkpt>
      <trkpt lat="48.19765" lon="-3.08359">
        <ele>214.51</ele>
        <time>2015-09-11T13:04:09Z</time>
      </trkpt>
      <trkpt lat="48.19759" lon="-3.08379">
        <ele>214.03</ele>
        <time>2015-09-11T13:04:23Z</time>
      </trkpt>
      <trkpt lat="48.19757" lon="-3.08387">
        <ele>213.55</ele>
        <time>2015-09-11T13:04:29Z</time>
      </trkpt>
      <trkpt lat="48.19753" lon="-3.08398">
        <ele>212.11</ele>
        <time>2015-09-11T13:04:38Z</time>
      </trkpt>
      <trkpt lat="48.19744" lon="-3.08422">
        <ele>212.11</ele>
        <time>2015-09-11T13:04:52Z</time>
      </trkpt>
      <trkpt lat="48.19739" lon="-3.08435">
        <ele>211.15</ele>
        <time>2015-09-11T13:05:04Z</time>
      </trkpt>
      <trkpt lat="48.19734" lon="-3.08455">
        <ele>209.7</ele>
        <time>2015-09-11T13:05:18Z</time>
      </trkpt>
      <trkpt lat="48.1973" lon="-3.08466">
        <ele>211.15</ele>
        <time>2015-09-11T13:05:29Z</time>
      </trkpt>
      <trkpt lat="48.19729" lon="-3.08467">
        <ele>211.15</ele>
        <time>2015-09-11T13:05:32Z</time>
      </trkpt>
      <trkpt lat="48.19723" lon="-3.08486">
        <ele>210.19</ele>
        <time>2015-09-11T13:05:46Z</time>
      </trkpt>
      <trkpt lat="48.19717" lon="-3.08508">
        <ele>210.19</ele>
        <time>2015-09-11T13:05:58Z</time>
      </trkpt>
      <trkpt lat="48.19716" lon="-3.08519">
        <ele>207.3</ele>
        <time>2015-09-11T13:06:08Z</time>
      </trkpt>
      <trkpt lat="48.1971" lon="-3.08538">
        <ele>204.42</ele>
        <time>2015-09-11T13:06:22Z</time>
      </trkpt>
      <trkpt lat="48.19703" lon="-3.0856">
        <ele>203.94</ele>
        <time>2015-09-11T13:06:37Z</time>
      </trkpt>
      <trkpt lat="48.19696" lon="-3.08587">
        <ele>207.3</ele>
        <time>2015-09-11T13:06:52Z</time>
      </trkpt>
      <trkpt lat="48.19691" lon="-3.08608">
        <ele>209.7</ele>
        <time>2015-09-11T13:07:04Z</time>
      </trkpt>
      <trkpt lat="48.19686" lon="-3.08634">
        <ele>209.7</ele>
        <time>2015-09-11T13:07:20Z</time>
      </trkpt>
      <trkpt lat="48.19678" lon="-3.08658">
        <ele>210.19</ele>
        <time>2015-09-11T13:07:33Z</time>
      </trkpt>
      <trkpt lat="48.19673" lon="-3.08675">
        <ele>206.82</ele>
        <time>2015-09-11T13:07:44Z</time>
      </trkpt>
      <trkpt lat="48.19668" lon="-3.08692">
        <ele>206.82</ele>
        <time>2015-09-11T13:07:57Z</time>
      </trkpt>
      <trkpt lat="48.19664" lon="-3.08705">
        <ele>207.3</ele>
        <time>2015-09-11T13:08:04Z</time>
      </trkpt>
      <trkpt lat="48.19662" lon="-3.08712">
        <ele>207.3</ele>
        <time>2015-09-11T13:08:08Z</time>
      </trkpt>
      <trkpt lat="48.19654" lon="-3.08728">
        <ele>208.26</ele>
        <time>2015-09-11T13:08:19Z</time>
      </trkpt>
      <trkpt lat="48.19651" lon="-3.08745">
        <ele>209.7</ele>
        <time>2015-09-11T13:08:32Z</time>
      </trkpt>
      <trkpt lat="48.19653" lon="-3.08767">
        <ele>208.26</ele>
        <time>2015-09-11T13:08:48Z</time>
      </trkpt>
      <trkpt lat="48.19653" lon="-3.08769">
        <ele>208.26</ele>
        <time>2015-09-11T13:08:55Z</time>
      </trkpt>
      <trkpt lat="48.19647" lon="-3.0879">
        <ele>208.74</ele>
        <time>2015-09-11T13:09:11Z</time>
      </trkpt>
      <trkpt lat="48.19644" lon="-3.08811">
        <ele>211.15</ele>
        <time>2015-09-11T13:09:26Z</time>
      </trkpt>
      <trkpt lat="48.1964" lon="-3.08825">
        <ele>211.15</ele>
        <time>2015-09-11T13:09:38Z</time>
      </trkpt>
      <trkpt lat="48.19638" lon="-3.08855">
        <ele>212.59</ele>
        <time>2015-09-11T13:09:53Z</time>
      </trkpt>
      <trkpt lat="48.19636" lon="-3.08864">
        <ele>213.07</ele>
        <time>2015-09-11T13:10:07Z</time>
      </trkpt>
      <trkpt lat="48.19635" lon="-3.08882">
        <ele>212.59</ele>
        <time>2015-09-11T13:10:22Z</time>
      </trkpt>
      <trkpt lat="48.19637" lon="-3.08907">
        <ele>213.07</ele>
        <time>2015-09-11T13:10:34Z</time>
      </trkpt>
      <trkpt lat="48.19635" lon="-3.08933">
        <ele>213.07</ele>
        <time>2015-09-11T13:10:46Z</time>
      </trkpt>
      <trkpt lat="48.19636" lon="-3.08958">
        <ele>216.91</ele>
        <time>2015-09-11T13:11:01Z</time>
      </trkpt>
      <trkpt lat="48.19645" lon="-3.08978">
        <ele>214.99</ele>
        <time>2015-09-11T13:11:15Z</time>
      </trkpt>
      <trkpt lat="48.19646" lon="-3.08992">
        <ele>215.95</ele>
        <time>2015-09-11T13:11:30Z</time>
      </trkpt>
      <trkpt lat="48.19647" lon="-3.09007">
        <ele>215.47</ele>
        <time>2015-09-11T13:11:43Z</time>
      </trkpt>
      <trkpt lat="48.19648" lon="-3.09014">
        <ele>214.99</ele>
        <time>2015-09-11T13:11:50Z</time>
      </trkpt>
      <trkpt lat="48.19651" lon="-3.09032">
        <ele>214.99</ele>
        <time>2015-09-11T13:12:02Z</time>
      </trkpt>
      <trkpt lat="48.19651" lon="-3.09045">
        <ele>213.07</ele>
        <time>2015-09-11T13:12:14Z</time>
      </trkpt>
      <trkpt lat="48.19649" lon="-3.09065">
        <ele>211.63</ele>
        <time>2015-09-11T13:12:27Z</time>
      </trkpt>
      <trkpt lat="48.19651" lon="-3.09097">
        <ele>216.91</ele>
        <time>2015-09-11T13:12:39Z</time>
      </trkpt>
      <trkpt lat="48.19657" lon="-3.09117">
        <ele>219.8</ele>
        <time>2015-09-11T13:12:51Z</time>
      </trkpt>
      <trkpt lat="48.19656" lon="-3.09136">
        <ele>217.4</ele>
        <time>2015-09-11T13:13:05Z</time>
      </trkpt>
      <trkpt lat="48.19658" lon="-3.09153">
        <ele>219.32</ele>
        <time>2015-09-11T13:13:15Z</time>
      </trkpt>
      <trkpt lat="48.19656" lon="-3.09178">
        <ele>218.84</ele>
        <time>2015-09-11T13:13:27Z</time>
      </trkpt>
      <trkpt lat="48.19655" lon="-3.09193">
        <ele>218.84</ele>
        <time>2015-09-11T13:13:38Z</time>
      </trkpt>
      <trkpt lat="48.19652" lon="-3.0921">
        <ele>221.72</ele>
        <time>2015-09-11T13:13:50Z</time>
      </trkpt>
      <trkpt lat="48.19647" lon="-3.09229">
        <ele>214.51</ele>
        <time>2015-09-11T13:14:03Z</time>
      </trkpt>
      <trkpt lat="48.1964" lon="-3.09247">
        <ele>213.07</ele>
        <time>2015-09-11T13:14:13Z</time>
      </trkpt>
      <trkpt lat="48.19638" lon="-3.09257">
        <ele>209.7</ele>
        <time>2015-09-11T13:14:23Z</time>
      </trkpt>
      <trkpt lat="48.19637" lon="-3.09262">
        <ele>211.15</ele>
        <time>2015-09-11T13:14:36Z</time>
      </trkpt>
      <trkpt lat="48.19631" lon="-3.09271">
        <ele>208.26</ele>
        <time>2015-09-11T13:14:51Z</time>
      </trkpt>
      <trkpt lat="48.19618" lon="-3.0928">
        <ele>209.22</ele>
        <time>2015-09-11T13:15:03Z</time>
      </trkpt>
      <trkpt lat="48.19593" lon="-3.09291">
        <ele>210.67</ele>
        <time>2015-09-11T13:15:17Z</time>
      </trkpt>
      <trkpt lat="48.1958" lon="-3.09296">
        <ele>213.07</ele>
        <time>2015-09-11T13:15:30Z</time>
      </trkpt>
      <trkpt lat="48.1957" lon="-3.09304">
        <ele>209.7</ele>
        <time>2015-09-11T13:15:46Z</time>
      </trkpt>
      <trkpt lat="48.19563" lon="-3.09311">
        <ele>209.7</ele>
        <time>2015-09-11T13:16:01Z</time>
      </trkpt>
      <trkpt lat="48.19555" lon="-3.09317">
        <ele>208.74</ele>
        <time>2015-09-11T13:16:17Z</time>
      </trkpt>
      <trkpt lat="48.1955" lon="-3.09319">
        <ele>207.78</ele>
        <time>2015-09-11T13:16:27Z</time>
      </trkpt>
      <trkpt lat="48.19533" lon="-3.09332">
        <ele>206.34</ele>
        <time>2015-09-11T13:16:42Z</time>
      </trkpt>
      <trkpt lat="48.19509" lon="-3.09356">
        <ele>208.26</ele>
        <time>2015-09-11T13:16:56Z</time>
      </trkpt>
      <trkpt lat="48.195" lon="-3.09371">
        <ele>214.51</ele>
        <time>2015-09-11T13:17:10Z</time>
      </trkpt>
      <trkpt lat="48.19508" lon="-3.09379">
        <ele>216.43</ele>
        <time>2015-09-11T13:17:32Z</time>
      </trkpt>
      <trkpt lat="48.19513" lon="-3.09387">
        <ele>217.4</ele>
        <time>2015-09-11T13:17:44Z</time>
      </trkpt>
      <trkpt lat="48.19527" lon="-3.09398">
        <ele>216.43</ele>
        <time>2015-09-11T13:17:56Z</time>
      </trkpt>
      <trkpt lat="48.19533" lon="-3.09404">
        <ele>215.95</ele>
        <time>2015-09-11T13:18:10Z</time>
      </trkpt>
      <trkpt lat="48.19544" lon="-3.09419">
        <ele>215.95</ele>
        <time>2015-09-11T13:18:23Z</time>
      </trkpt>
      <trkpt lat="48.19546" lon="-3.09422">
        <ele>215.95</ele>
        <time>2015-09-11T13:18:25Z</time>
      </trkpt>
      <trkpt lat="48.19556" lon="-3.09436">
        <ele>216.43</ele>
        <time>2015-09-11T13:18:37Z</time>
      </trkpt>
      <trkpt lat="48.19561" lon="-3.09444">
        <ele>215.95</ele>
        <time>2015-09-11T13:18:45Z</time>
      </trkpt>
      <trkpt lat="48.19565" lon="-3.09464">
        <ele>213.07</ele>
        <time>2015-09-11T13:18:59Z</time>
      </trkpt>
      <trkpt lat="48.19568" lon="-3.09476">
        <ele>209.7</ele>
        <time>2015-09-11T13:19:10Z</time>
      </trkpt>
      <trkpt lat="48.19572" lon="-3.09484">
        <ele>207.78</ele>
        <time>2015-09-11T13:19:21Z</time>
      </trkpt>
      <trkpt lat="48.19577" lon="-3.09497">
        <ele>204.9</ele>
        <time>2015-09-11T13:19:31Z</time>
      </trkpt>
      <trkpt lat="48.1958" lon="-3.09515">
        <ele>202.01</ele>
        <time>2015-09-11T13:19:41Z</time>
      </trkpt>
      <trkpt lat="48.19583" lon="-3.09536">
        <ele>201.53</ele>
        <time>2015-09-11T13:19:53Z</time>
      </trkpt>
      <trkpt lat="48.19586" lon="-3.09565">
        <ele>204.42</ele>
        <time>2015-09-11T13:20:06Z</time>
      </trkpt>
      <trkpt lat="48.19588" lon="-3.09575">
        <ele>204.9</ele>
        <time>2015-09-11T13:20:13Z</time>
      </trkpt>
      <trkpt lat="48.19587" lon="-3.09585">
        <ele>206.82</ele>
        <time>2015-09-11T13:20:19Z</time>
      </trkpt>
      <trkpt lat="48.19587" lon="-3.09602">
        <ele>209.22</ele>
        <time>2015-09-11T13:20:31Z</time>
      </trkpt>
      <trkpt lat="48.1959" lon="-3.09624">
        <ele>214.99</ele>
        <time>2015-09-11T13:20:41Z</time>
      </trkpt>
      <trkpt lat="48.19593" lon="-3.09639">
        <ele>217.88</ele>
        <time>2015-09-11T13:20:53Z</time>
      </trkpt>
      <trkpt lat="48.19593" lon="-3.09644">
        <ele>219.32</ele>
        <time>2015-09-11T13:21:05Z</time>
      </trkpt>
      <trkpt lat="48.19596" lon="-3.09655">
        <ele>218.84</ele>
        <time>2015-09-11T13:21:12Z</time>
      </trkpt>
      <trkpt lat="48.19602" lon="-3.09678">
        <ele>216.91</ele>
        <time>2015-09-11T13:21:25Z</time>
      </trkpt>
      <trkpt lat="48.19605" lon="-3.09698">
        <ele>218.84</ele>
        <time>2015-09-11T13:21:37Z</time>
      </trkpt>
      <trkpt lat="48.19613" lon="-3.09721">
        <ele>221.72</ele>
        <time>2015-09-11T13:21:53Z</time>
      </trkpt>
      <trkpt lat="48.19616" lon="-3.09733">
        <ele>221.24</ele>
        <time>2015-09-11T13:22:03Z</time>
      </trkpt>
      <trkpt lat="48.19623" lon="-3.09747">
        <ele>219.32</ele>
        <time>2015-09-11T13:22:12Z</time>
      </trkpt>
      <trkpt lat="48.19629" lon="-3.09763">
        <ele>218.84</ele>
        <time>2015-09-11T13:22:23Z</time>
      </trkpt>
      <trkpt lat="48.19636" lon="-3.09776">
        <ele>216.91</ele>
        <time>2015-09-11T13:22:36Z</time>
      </trkpt>
      <trkpt lat="48.19637" lon="-3.09786">
        <ele>214.03</ele>
        <time>2015-09-11T13:22:47Z</time>
      </trkpt>
      <trkpt lat="48.1964" lon="-3.09801">
        <ele>212.59</ele>
        <time>2015-09-11T13:22:57Z</time>
      </trkpt>
      <trkpt lat="48.19647" lon="-3.09818">
        <ele>208.74</ele>
        <time>2015-09-11T13:23:07Z</time>
      </trkpt>
      <trkpt lat="48.19652" lon="-3.0984">
        <ele>204.42</ele>
        <time>2015-09-11T13:23:20Z</time>
      </trkpt>
      <trkpt lat="48.19652" lon="-3.09847">
        <ele>204.42</ele>
        <time>2015-09-11T13:23:32Z</time>
      </trkpt>
      <trkpt lat="48.19656" lon="-3.09865">
        <ele>201.53</ele>
        <time>2015-09-11T13:23:44Z</time>
      </trkpt>
      <trkpt lat="48.19661" lon="-3.09881">
        <ele>201.53</ele>
        <time>2015-09-11T13:23:57Z</time>
      </trkpt>
      <trkpt lat="48.19666" lon="-3.09898">
        <ele>200.09</ele>
        <time>2015-09-11T13:24:09Z</time>
      </trkpt>
      <trkpt lat="48.19671" lon="-3.09914">
        <ele>199.13</ele>
        <time>2015-09-11T13:24:20Z</time>
      </trkpt>
      <trkpt lat="48.19678" lon="-3.09932">
        <ele>198.65</ele>
        <time>2015-09-11T13:24:31Z</time>
      </trkpt>
      <trkpt lat="48.19683" lon="-3.09948">
        <ele>198.17</ele>
        <time>2015-09-11T13:24:40Z</time>
      </trkpt>
      <trkpt lat="48.19689" lon="-3.09973">
        <ele>194.8</ele>
        <time>2015-09-11T13:24:52Z</time>
      </trkpt>
      <trkpt lat="48.19694" lon="-3.09985">
        <ele>196.25</ele>
        <time>2015-09-11T13:25:04Z</time>
      </trkpt>
      <trkpt lat="48.19698" lon="-3.09989">
        <ele>196.73</ele>
        <time>2015-09-11T13:25:07Z</time>
      </trkpt>
      <trkpt lat="48.19707" lon="-3.09995">
        <ele>198.17</ele>
        <time>2015-09-11T13:25:19Z</time>
      </trkpt>
      <trkpt lat="48.19718" lon="-3.10002">
        <ele>199.13</ele>
        <time>2015-09-11T13:25:30Z</time>
      </trkpt>
      <trkpt lat="48.19728" lon="-3.10007">
        <ele>200.57</ele>
        <time>2015-09-11T13:25:41Z</time>
      </trkpt>
      <trkpt lat="48.19734" lon="-3.10011">
        <ele>200.57</ele>
        <time>2015-09-11T13:25:51Z</time>
      </trkpt>
      <trkpt lat="48.19744" lon="-3.10019">
        <ele>200.57</ele>
        <time>2015-09-11T13:26:04Z</time>
      </trkpt>
      <trkpt lat="48.1975" lon="-3.10026">
        <ele>201.05</ele>
        <time>2015-09-11T13:26:15Z</time>
      </trkpt>
      <trkpt lat="48.1976" lon="-3.10038">
        <ele>199.61</ele>
        <time>2015-09-11T13:26:28Z</time>
      </trkpt>
      <trkpt lat="48.19763" lon="-3.10041">
        <ele>199.13</ele>
        <time>2015-09-11T13:26:30Z</time>
      </trkpt>
      <trkpt lat="48.19775" lon="-3.10053">
        <ele>194.8</ele>
        <time>2015-09-11T13:26:42Z</time>
      </trkpt>
      <trkpt lat="48.19784" lon="-3.10074">
        <ele>195.28</ele>
        <time>2015-09-11T13:26:54Z</time>
      </trkpt>
      <trkpt lat="48.1979" lon="-3.10091">
        <ele>195.28</ele>
        <time>2015-09-11T13:27:03Z</time>
      </trkpt>
      <trkpt lat="48.19798" lon="-3.1011">
        <ele>195.77</ele>
        <time>2015-09-11T13:27:15Z</time>
      </trkpt>
      <trkpt lat="48.19804" lon="-3.10123">
        <ele>197.21</ele>
        <time>2015-09-11T13:27:24Z</time>
      </trkpt>
      <trkpt lat="48.19808" lon="-3.10141">
        <ele>196.25</ele>
        <time>2015-09-11T13:27:36Z</time>
      </trkpt>
      <trkpt lat="48.19811" lon="-3.10152">
        <ele>196.73</ele>
        <time>2015-09-11T13:27:43Z</time>
      </trkpt>
      <trkpt lat="48.19817" lon="-3.10171">
        <ele>197.21</ele>
        <time>2015-09-11T13:27:55Z</time>
      </trkpt>
      <trkpt lat="48.19818" lon="-3.10172">
        <ele>197.21</ele>
        <time>2015-09-11T13:27:56Z</time>
      </trkpt>
      <trkpt lat="48.1982" lon="-3.10178">
        <ele>198.17</ele>
        <time>2015-09-11T13:27:59Z</time>
      </trkpt>
      <trkpt lat="48.19822" lon="-3.10183">
        <ele>197.69</ele>
        <time>2015-09-11T13:28:02Z</time>
      </trkpt>
      <trkpt lat="48.19825" lon="-3.10196">
        <ele>198.17</ele>
        <time>2015-09-11T13:28:10Z</time>
      </trkpt>
      <trkpt lat="48.19832" lon="-3.10214">
        <ele>199.61</ele>
        <time>2015-09-11T13:28:22Z</time>
      </trkpt>
      <trkpt lat="48.19833" lon="-3.1022">
        <ele>199.13</ele>
        <time>2015-09-11T13:28:26Z</time>
      </trkpt>
      <trkpt lat="48.19838" lon="-3.10234">
        <ele>199.13</ele>
        <time>2015-09-11T13:28:35Z</time>
      </trkpt>
      <trkpt lat="48.19844" lon="-3.10248">
        <ele>199.13</ele>
        <time>2015-09-11T13:28:45Z</time>
      </trkpt>
      <trkpt lat="48.19845" lon="-3.10262">
        <ele>198.65</ele>
        <time>2015-09-11T13:28:54Z</time>
      </trkpt>
      <trkpt lat="48.19845" lon="-3.10268">
        <ele>198.17</ele>
        <time>2015-09-11T13:28:57Z</time>
      </trkpt>
      <trkpt lat="48.19847" lon="-3.1028">
        <ele>197.21</ele>
        <time>2015-09-11T13:29:04Z</time>
      </trkpt>
      <trkpt lat="48.19844" lon="-3.10294">
        <ele>197.69</ele>
        <time>2015-09-11T13:29:15Z</time>
      </trkpt>
      <trkpt lat="48.19844" lon="-3.10307">
        <ele>197.69</ele>
        <time>2015-09-11T13:29:26Z</time>
      </trkpt>
      <trkpt lat="48.19843" lon="-3.10316">
        <ele>196.73</ele>
        <time>2015-09-11T13:29:37Z</time>
      </trkpt>
      <trkpt lat="48.19846" lon="-3.10323">
        <ele>197.21</ele>
        <time>2015-09-11T13:29:48Z</time>
      </trkpt>
      <trkpt lat="48.19845" lon="-3.10334">
        <ele>197.69</ele>
        <time>2015-09-11T13:29:59Z</time>
      </trkpt>
      <trkpt lat="48.19843" lon="-3.10348">
        <ele>199.61</ele>
        <time>2015-09-11T13:30:15Z</time>
      </trkpt>
      <trkpt lat="48.19845" lon="-3.10358">
        <ele>199.13</ele>
        <time>2015-09-11T13:30:30Z</time>
      </trkpt>
      <trkpt lat="48.19846" lon="-3.10366">
        <ele>199.61</ele>
        <time>2015-09-11T13:30:43Z</time>
      </trkpt>
      <trkpt lat="48.19847" lon="-3.10376">
        <ele>200.57</ele>
        <time>2015-09-11T13:30:56Z</time>
      </trkpt>
      <trkpt lat="48.19849" lon="-3.10379">
        <ele>199.61</ele>
        <time>2015-09-11T13:31:06Z</time>
      </trkpt>
      <trkpt lat="48.19852" lon="-3.10382">
        <ele>198.65</ele>
        <time>2015-09-11T13:31:26Z</time>
      </trkpt>
      <trkpt lat="48.19853" lon="-3.10386">
        <ele>198.17</ele>
        <time>2015-09-11T13:31:49Z</time>
      </trkpt>
      <trkpt lat="48.19855" lon="-3.10386">
        <ele>197.69</ele>
        <time>2015-09-11T13:32:11Z</time>
      </trkpt>
      <trkpt lat="48.19855" lon="-3.10387">
        <ele>197.69</ele>
        <time>2015-09-11T13:32:33Z</time>
      </trkpt>
      <trkpt lat="48.19867" lon="-3.10393">
        <ele>199.61</ele>
        <time>2015-09-11T13:32:45Z</time>
      </trkpt>
      <trkpt lat="48.19874" lon="-3.10398">
        <ele>201.05</ele>
        <time>2015-09-11T13:32:59Z</time>
      </trkpt>
      <trkpt lat="48.19879" lon="-3.10399">
        <ele>202.49</ele>
        <time>2015-09-11T13:33:07Z</time>
      </trkpt>
      <trkpt lat="48.1988" lon="-3.104">
        <ele>202.49</ele>
        <time>2015-09-11T13:33:09Z</time>
      </trkpt>
      <trkpt lat="48.19898" lon="-3.10405">
        <ele>202.98</ele>
        <time>2015-09-11T13:33:22Z</time>
      </trkpt>
      <trkpt lat="48.19901" lon="-3.10407">
        <ele>202.98</ele>
        <time>2015-09-11T13:33:25Z</time>
      </trkpt>
      <trkpt lat="48.19913" lon="-3.10419">
        <ele>202.01</ele>
        <time>2015-09-11T13:33:37Z</time>
      </trkpt>
      <trkpt lat="48.1992" lon="-3.10435">
        <ele>200.57</ele>
        <time>2015-09-11T13:33:48Z</time>
      </trkpt>
      <trkpt lat="48.1993" lon="-3.1045">
        <ele>200.57</ele>
        <time>2015-09-11T13:34:00Z</time>
      </trkpt>
      <trkpt lat="48.19933" lon="-3.10454">
        <ele>200.09</ele>
        <time>2015-09-11T13:34:03Z</time>
      </trkpt>
      <trkpt lat="48.19941" lon="-3.10469">
        <ele>199.13</ele>
        <time>2015-09-11T13:34:15Z</time>
      </trkpt>
      <trkpt lat="48.19949" lon="-3.10483">
        <ele>198.17</ele>
        <time>2015-09-11T13:34:27Z</time>
      </trkpt>
      <trkpt lat="48.19955" lon="-3.10493">
        <ele>199.13</ele>
        <time>2015-09-11T13:34:35Z</time>
      </trkpt>
      <trkpt lat="48.19961" lon="-3.10504">
        <ele>201.53</ele>
        <time>2015-09-11T13:34:42Z</time>
      </trkpt>
      <trkpt lat="48.19967" lon="-3.10509">
        <ele>202.01</ele>
        <time>2015-09-11T13:34:47Z</time>
      </trkpt>
      <trkpt lat="48.19975" lon="-3.10518">
        <ele>203.46</ele>
        <time>2015-09-11T13:34:54Z</time>
      </trkpt>
      <trkpt lat="48.19988" lon="-3.10536">
        <ele>203.94</ele>
        <time>2015-09-11T13:35:06Z</time>
      </trkpt>
      <trkpt lat="48.19998" lon="-3.1055">
        <ele>201.53</ele>
        <time>2015-09-11T13:35:19Z</time>
      </trkpt>
      <trkpt lat="48.2" lon="-3.10555">
        <ele>200.57</ele>
        <time>2015-09-11T13:35:23Z</time>
      </trkpt>
      <trkpt lat="48.20012" lon="-3.1057">
        <ele>202.01</ele>
        <time>2015-09-11T13:35:34Z</time>
      </trkpt>
      <trkpt lat="48.20015" lon="-3.10585">
        <ele>205.38</ele>
        <time>2015-09-11T13:35:42Z</time>
      </trkpt>
      <trkpt lat="48.20014" lon="-3.10592">
        <ele>206.34</ele>
        <time>2015-09-11T13:35:45Z</time>
      </trkpt>
      <trkpt lat="48.20013" lon="-3.10604">
        <ele>207.78</ele>
        <time>2015-09-11T13:35:52Z</time>
      </trkpt>
      <trkpt lat="48.20016" lon="-3.10611">
        <ele>208.26</ele>
        <time>2015-09-11T13:35:55Z</time>
      </trkpt>
      <trkpt lat="48.20017" lon="-3.10624">
        <ele>209.22</ele>
        <time>2015-09-11T13:36:04Z</time>
      </trkpt>
      <trkpt lat="48.20019" lon="-3.1063">
        <ele>208.74</ele>
        <time>2015-09-11T13:36:08Z</time>
      </trkpt>
      <trkpt lat="48.20028" lon="-3.10648">
        <ele>206.82</ele>
        <time>2015-09-11T13:36:20Z</time>
      </trkpt>
      <trkpt lat="48.20036" lon="-3.10665">
        <ele>205.86</ele>
        <time>2015-09-11T13:36:31Z</time>
      </trkpt>
      <trkpt lat="48.20038" lon="-3.10668">
        <ele>205.86</ele>
        <time>2015-09-11T13:36:33Z</time>
      </trkpt>
      <trkpt lat="48.20047" lon="-3.10681">
        <ele>207.3</ele>
        <time>2015-09-11T13:36:46Z</time>
      </trkpt>
      <trkpt lat="48.2005" lon="-3.10685">
        <ele>206.82</ele>
        <time>2015-09-11T13:36:52Z</time>
      </trkpt>
      <trkpt lat="48.20051" lon="-3.10688">
        <ele>207.3</ele>
        <time>2015-09-11T13:36:56Z</time>
      </trkpt>
      <trkpt lat="48.20054" lon="-3.10693">
        <ele>207.78</ele>
        <time>2015-09-11T13:37:00Z</time>
      </trkpt>
      <trkpt lat="48.20061" lon="-3.10703">
        <ele>209.22</ele>
        <time>2015-09-11T13:37:10Z</time>
      </trkpt>
      <trkpt lat="48.20063" lon="-3.10715">
        <ele>204.9</ele>
        <time>2015-09-11T13:37:17Z</time>
      </trkpt>
      <trkpt lat="48.20063" lon="-3.10719">
        <ele>202.49</ele>
        <time>2015-09-11T13:37:21Z</time>
      </trkpt>
      <trkpt lat="48.20066" lon="-3.10728">
        <ele>200.09</ele>
        <time>2015-09-11T13:37:26Z</time>
      </trkpt>
      <trkpt lat="48.20068" lon="-3.10742">
        <ele>199.13</ele>
        <time>2015-09-11T13:37:36Z</time>
      </trkpt>
      <trkpt lat="48.20076" lon="-3.1076">
        <ele>198.17</ele>
        <time>2015-09-11T13:37:45Z</time>
      </trkpt>
      <trkpt lat="48.20078" lon="-3.10774">
        <ele>192.88</ele>
        <time>2015-09-11T13:37:55Z</time>
      </trkpt>
      <trkpt lat="48.20078" lon="-3.10777">
        <ele>194.32</ele>
        <time>2015-09-11T13:38:01Z</time>
      </trkpt>
      <trkpt lat="48.20078" lon="-3.10787">
        <ele>194.8</ele>
        <time>2015-09-11T13:38:12Z</time>
      </trkpt>
      <trkpt lat="48.20079" lon="-3.10789">
        <ele>195.28</ele>
        <time>2015-09-11T13:38:14Z</time>
      </trkpt>
      <trkpt lat="48.2008" lon="-3.10798">
        <ele>194.8</ele>
        <time>2015-09-11T13:38:19Z</time>
      </trkpt>
      <trkpt lat="48.20081" lon="-3.10807">
        <ele>194.8</ele>
        <time>2015-09-11T13:38:23Z</time>
      </trkpt>
      <trkpt lat="48.20081" lon="-3.10817">
        <ele>196.73</ele>
        <time>2015-09-11T13:38:31Z</time>
      </trkpt>
      <trkpt lat="48.20085" lon="-3.10829">
        <ele>195.77</ele>
        <time>2015-09-11T13:38:40Z</time>
      </trkpt>
      <trkpt lat="48.20088" lon="-3.1085">
        <ele>194.8</ele>
        <time>2015-09-11T13:38:53Z</time>
      </trkpt>
      <trkpt lat="48.20088" lon="-3.10857">
        <ele>193.84</ele>
        <time>2015-09-11T13:38:58Z</time>
      </trkpt>
      <trkpt lat="48.20091" lon="-3.10875">
        <ele>192.4</ele>
        <time>2015-09-11T13:39:07Z</time>
      </trkpt>
      <trkpt lat="48.20089" lon="-3.10892">
        <ele>192.88</ele>
        <time>2015-09-11T13:39:17Z</time>
      </trkpt>
      <trkpt lat="48.20087" lon="-3.1091">
        <ele>193.84</ele>
        <time>2015-09-11T13:39:28Z</time>
      </trkpt>
      <trkpt lat="48.20083" lon="-3.10932">
        <ele>195.77</ele>
        <time>2015-09-11T13:39:40Z</time>
      </trkpt>
      <trkpt lat="48.2008" lon="-3.10946">
        <ele>199.13</ele>
        <time>2015-09-11T13:39:50Z</time>
      </trkpt>
      <trkpt lat="48.20077" lon="-3.1096">
        <ele>199.61</ele>
        <time>2015-09-11T13:40:03Z</time>
      </trkpt>
      <trkpt lat="48.2008" lon="-3.10972">
        <ele>199.13</ele>
        <time>2015-09-11T13:40:13Z</time>
      </trkpt>
      <trkpt lat="48.20082" lon="-3.10989">
        <ele>198.17</ele>
        <time>2015-09-11T13:40:23Z</time>
      </trkpt>
      <trkpt lat="48.20086" lon="-3.11005">
        <ele>200.09</ele>
        <time>2015-09-11T13:40:34Z</time>
      </trkpt>
      <trkpt lat="48.2009" lon="-3.11016">
        <ele>200.57</ele>
        <time>2015-09-11T13:40:43Z</time>
      </trkpt>
      <trkpt lat="48.20091" lon="-3.1102">
        <ele>200.57</ele>
        <time>2015-09-11T13:40:45Z</time>
      </trkpt>
      <trkpt lat="48.20099" lon="-3.11039">
        <ele>201.53</ele>
        <time>2015-09-11T13:40:57Z</time>
      </trkpt>
      <trkpt lat="48.20108" lon="-3.11054">
        <ele>203.46</ele>
        <time>2015-09-11T13:41:10Z</time>
      </trkpt>
      <trkpt lat="48.2011" lon="-3.11068">
        <ele>202.98</ele>
        <time>2015-09-11T13:41:20Z</time>
      </trkpt>
      <trkpt lat="48.2011" lon="-3.11077">
        <ele>201.53</ele>
        <time>2015-09-11T13:41:27Z</time>
      </trkpt>
      <trkpt lat="48.2011" lon="-3.11095">
        <ele>200.57</ele>
        <time>2015-09-11T13:41:39Z</time>
      </trkpt>
      <trkpt lat="48.20118" lon="-3.11105">
        <ele>199.13</ele>
        <time>2015-09-11T13:41:49Z</time>
      </trkpt>
      <trkpt lat="48.20121" lon="-3.11113">
        <ele>198.65</ele>
        <time>2015-09-11T13:42:01Z</time>
      </trkpt>
      <trkpt lat="48.20126" lon="-3.1112">
        <ele>194.8</ele>
        <time>2015-09-11T13:42:11Z</time>
      </trkpt>
      <trkpt lat="48.20137" lon="-3.11139">
        <ele>192.4</ele>
        <time>2015-09-11T13:42:23Z</time>
      </trkpt>
      <trkpt lat="48.20144" lon="-3.11155">
        <ele>190.96</ele>
        <time>2015-09-11T13:42:33Z</time>
      </trkpt>
      <trkpt lat="48.20148" lon="-3.11163">
        <ele>190.96</ele>
        <time>2015-09-11T13:42:37Z</time>
      </trkpt>
      <trkpt lat="48.20151" lon="-3.11168">
        <ele>191.44</ele>
        <time>2015-09-11T13:42:40Z</time>
      </trkpt>
      <trkpt lat="48.20162" lon="-3.11184">
        <ele>191.92</ele>
        <time>2015-09-11T13:42:51Z</time>
      </trkpt>
      <trkpt lat="48.20176" lon="-3.11198">
        <ele>190.48</ele>
        <time>2015-09-11T13:43:04Z</time>
      </trkpt>
      <trkpt lat="48.20182" lon="-3.11207">
        <ele>190.48</ele>
        <time>2015-09-11T13:43:15Z</time>
      </trkpt>
      <trkpt lat="48.20187" lon="-3.11211">
        <ele>192.4</ele>
        <time>2015-09-11T13:43:20Z</time>
      </trkpt>
      <trkpt lat="48.20197" lon="-3.11218">
        <ele>192.88</ele>
        <time>2015-09-11T13:43:30Z</time>
      </trkpt>
      <trkpt lat="48.20211" lon="-3.11225">
        <ele>192.4</ele>
        <time>2015-09-11T13:43:41Z</time>
      </trkpt>
      <trkpt lat="48.2022" lon="-3.11235">
        <ele>191.92</ele>
        <time>2015-09-11T13:43:50Z</time>
      </trkpt>
      <trkpt lat="48.20226" lon="-3.1124">
        <ele>192.4</ele>
        <time>2015-09-11T13:43:55Z</time>
      </trkpt>
      <trkpt lat="48.20229" lon="-3.11243">
        <ele>191.92</ele>
        <time>2015-09-11T13:43:58Z</time>
      </trkpt>
      <trkpt lat="48.20237" lon="-3.11251">
        <ele>190.48</ele>
        <time>2015-09-11T13:44:11Z</time>
      </trkpt>
      <trkpt lat="48.20237" lon="-3.11252">
        <ele>190.48</ele>
        <time>2015-09-11T13:44:12Z</time>
      </trkpt>
      <trkpt lat="48.20246" lon="-3.11275">
        <ele>191.44</ele>
        <time>2015-09-11T13:44:25Z</time>
      </trkpt>
      <trkpt lat="48.20255" lon="-3.1129">
        <ele>189.04</ele>
        <time>2015-09-11T13:44:37Z</time>
      </trkpt>
      <trkpt lat="48.20256" lon="-3.11299">
        <ele>186.63</ele>
        <time>2015-09-11T13:44:43Z</time>
      </trkpt>
      <trkpt lat="48.20253" lon="-3.11316">
        <ele>181.83</ele>
        <time>2015-09-11T13:44:53Z</time>
      </trkpt>
      <trkpt lat="48.20253" lon="-3.1132">
        <ele>181.35</ele>
        <time>2015-09-11T13:44:55Z</time>
      </trkpt>
      <trkpt lat="48.20253" lon="-3.11325">
        <ele>181.35</ele>
        <time>2015-09-11T13:44:58Z</time>
      </trkpt>
      <trkpt lat="48.20254" lon="-3.11345">
        <ele>177.5</ele>
        <time>2015-09-11T13:45:11Z</time>
      </trkpt>
      <trkpt lat="48.20253" lon="-3.11352">
        <ele>175.58</ele>
        <time>2015-09-11T13:45:16Z</time>
      </trkpt>
      <trkpt lat="48.20261" lon="-3.11374">
        <ele>173.66</ele>
        <time>2015-09-11T13:45:29Z</time>
      </trkpt>
      <trkpt lat="48.20268" lon="-3.11392">
        <ele>173.17</ele>
        <time>2015-09-11T13:45:41Z</time>
      </trkpt>
      <trkpt lat="48.20271" lon="-3.11408">
        <ele>170.29</ele>
        <time>2015-09-11T13:45:52Z</time>
      </trkpt>
      <trkpt lat="48.20266" lon="-3.11417">
        <ele>165.96</ele>
        <time>2015-09-11T13:46:04Z</time>
      </trkpt>
      <trkpt lat="48.20258" lon="-3.11422">
        <ele>165.48</ele>
        <time>2015-09-11T13:46:17Z</time>
      </trkpt>
      <trkpt lat="48.20248" lon="-3.11425">
        <ele>166.93</ele>
        <time>2015-09-11T13:46:30Z</time>
      </trkpt>
      <trkpt lat="48.20238" lon="-3.1143">
        <ele>168.85</ele>
        <time>2015-09-11T13:46:41Z</time>
      </trkpt>
      <trkpt lat="48.20223" lon="-3.11437">
        <ele>169.33</ele>
        <time>2015-09-11T13:46:53Z</time>
      </trkpt>
      <trkpt lat="48.2022" lon="-3.11441">
        <ele>169.33</ele>
        <time>2015-09-11T13:46:56Z</time>
      </trkpt>
      <trkpt lat="48.2021" lon="-3.11446">
        <ele>171.25</ele>
        <time>2015-09-11T13:47:06Z</time>
      </trkpt>
      <trkpt lat="48.20201" lon="-3.11451">
        <ele>172.21</ele>
        <time>2015-09-11T13:47:18Z</time>
      </trkpt>
      <trkpt lat="48.20189" lon="-3.11457">
        <ele>171.73</ele>
        <time>2015-09-11T13:47:29Z</time>
      </trkpt>
      <trkpt lat="48.20179" lon="-3.11463">
        <ele>172.69</ele>
        <time>2015-09-11T13:47:43Z</time>
      </trkpt>
      <trkpt lat="48.20163" lon="-3.11478">
        <ele>171.25</ele>
        <time>2015-09-11T13:47:56Z</time>
      </trkpt>
      <trkpt lat="48.20152" lon="-3.11495">
        <ele>170.29</ele>
        <time>2015-09-11T13:48:08Z</time>
      </trkpt>
      <trkpt lat="48.20145" lon="-3.11511">
        <ele>173.66</ele>
        <time>2015-09-11T13:48:18Z</time>
      </trkpt>
      <trkpt lat="48.20144" lon="-3.11517">
        <ele>174.62</ele>
        <time>2015-09-11T13:48:40Z</time>
      </trkpt>
      <trkpt lat="48.20145" lon="-3.1152">
        <ele>173.17</ele>
        <time>2015-09-11T13:48:51Z</time>
      </trkpt>
      <trkpt lat="48.20138" lon="-3.11536">
        <ele>169.81</ele>
        <time>2015-09-11T13:49:04Z</time>
      </trkpt>
      <trkpt lat="48.2013" lon="-3.11551">
        <ele>167.41</ele>
        <time>2015-09-11T13:49:16Z</time>
      </trkpt>
      <trkpt lat="48.20117" lon="-3.11569">
        <ele>164.52</ele>
        <time>2015-09-11T13:49:30Z</time>
      </trkpt>
      <trkpt lat="48.20103" lon="-3.11598">
        <ele>163.56</ele>
        <time>2015-09-11T13:49:47Z</time>
      </trkpt>
      <trkpt lat="48.201" lon="-3.11618">
        <ele>164.04</ele>
        <time>2015-09-11T13:49:59Z</time>
      </trkpt>
      <trkpt lat="48.20095" lon="-3.1163">
        <ele>163.56</ele>
        <time>2015-09-11T13:50:09Z</time>
      </trkpt>
      <trkpt lat="48.20095" lon="-3.11642">
        <ele>163.56</ele>
        <time>2015-09-11T13:50:20Z</time>
      </trkpt>
      <trkpt lat="48.20094" lon="-3.11653">
        <ele>164.52</ele>
        <time>2015-09-11T13:50:33Z</time>
      </trkpt>
      <trkpt lat="48.20094" lon="-3.11673">
        <ele>164.04</ele>
        <time>2015-09-11T13:50:47Z</time>
      </trkpt>
      <trkpt lat="48.20089" lon="-3.11689">
        <ele>163.08</ele>
        <time>2015-09-11T13:51:00Z</time>
      </trkpt>
      <trkpt lat="48.20084" lon="-3.11716">
        <ele>162.6</ele>
        <time>2015-09-11T13:51:13Z</time>
      </trkpt>
      <trkpt lat="48.20084" lon="-3.11735">
        <ele>161.16</ele>
        <time>2015-09-11T13:51:25Z</time>
      </trkpt>
      <trkpt lat="48.20081" lon="-3.11747">
        <ele>162.12</ele>
        <time>2015-09-11T13:51:39Z</time>
      </trkpt>
      <trkpt lat="48.20077" lon="-3.11765">
        <ele>160.68</ele>
        <time>2015-09-11T13:51:51Z</time>
      </trkpt>
      <trkpt lat="48.20067" lon="-3.11783">
        <ele>160.68</ele>
        <time>2015-09-11T13:52:05Z</time>
      </trkpt>
      <trkpt lat="48.20059" lon="-3.11808">
        <ele>157.31</ele>
        <time>2015-09-11T13:52:19Z</time>
      </trkpt>
      <trkpt lat="48.20057" lon="-3.11811">
        <ele>155.87</ele>
        <time>2015-09-11T13:52:24Z</time>
      </trkpt>
      <trkpt lat="48.2005" lon="-3.11822">
        <ele>153.95</ele>
        <time>2015-09-11T13:52:33Z</time>
      </trkpt>
      <trkpt lat="48.20049" lon="-3.11843">
        <ele>152.03</ele>
        <time>2015-09-11T13:52:44Z</time>
      </trkpt>
      <trkpt lat="48.20052" lon="-3.11862">
        <ele>153.95</ele>
        <time>2015-09-11T13:52:57Z</time>
      </trkpt>
      <trkpt lat="48.20058" lon="-3.11866">
        <ele>156.35</ele>
        <time>2015-09-11T13:53:07Z</time>
      </trkpt>
      <trkpt lat="48.20069" lon="-3.11862">
        <ele>156.83</ele>
        <time>2015-09-11T13:53:19Z</time>
      </trkpt>
      <trkpt lat="48.2008" lon="-3.11854">
        <ele>157.31</ele>
        <time>2015-09-11T13:53:33Z</time>
      </trkpt>
      <trkpt lat="48.20087" lon="-3.11851">
        <ele>155.87</ele>
        <time>2015-09-11T13:53:42Z</time>
      </trkpt>
      <trkpt lat="48.20098" lon="-3.11846">
        <ele>154.91</ele>
        <time>2015-09-11T13:53:50Z</time>
      </trkpt>
      <trkpt lat="48.20101" lon="-3.11845">
        <ele>155.39</ele>
        <time>2015-09-11T13:53:52Z</time>
      </trkpt>
      <trkpt lat="48.20116" lon="-3.11838">
        <ele>156.35</ele>
        <time>2015-09-11T13:54:07Z</time>
      </trkpt>
      <trkpt lat="48.20138" lon="-3.11837">
        <ele>153.95</ele>
        <time>2015-09-11T13:54:21Z</time>
      </trkpt>
      <trkpt lat="48.20147" lon="-3.11835">
        <ele>149.14</ele>
        <time>2015-09-11T13:54:35Z</time>
      </trkpt>
      <trkpt lat="48.20147" lon="-3.11835">
        <ele>147.7</ele>
        <time>2015-09-11T13:55:02Z</time>
      </trkpt>
      <trkpt lat="48.20146" lon="-3.11834">
        <ele>145.78</ele>
        <time>2015-09-11T13:55:25Z</time>
      </trkpt>
      <trkpt lat="48.20146" lon="-3.11835">
        <ele>144.82</ele>
        <time>2015-09-11T13:55:38Z</time>
      </trkpt>
      <trkpt lat="48.20154" lon="-3.11831">
        <ele>143.85</ele>
        <time>2015-09-11T13:55:51Z</time>
      </trkpt>
      <trkpt lat="48.20159" lon="-3.11831">
        <ele>144.34</ele>
        <time>2015-09-11T13:56:08Z</time>
      </trkpt>
      <trkpt lat="48.20162" lon="-3.1183">
        <ele>144.34</ele>
        <time>2015-09-11T13:56:30Z</time>
      </trkpt>
      <trkpt lat="48.20163" lon="-3.11827">
        <ele>144.34</ele>
        <time>2015-09-11T13:56:47Z</time>
      </trkpt>
      <trkpt lat="48.20165" lon="-3.11818">
        <ele>141.93</ele>
        <time>2015-09-11T13:57:03Z</time>
      </trkpt>
      <trkpt lat="48.20165" lon="-3.11811">
        <ele>140.01</ele>
        <time>2015-09-11T13:57:08Z</time>
      </trkpt>
      <trkpt lat="48.20178" lon="-3.11787">
        <ele>140.97</ele>
        <time>2015-09-11T13:57:24Z</time>
      </trkpt>
      <trkpt lat="48.20189" lon="-3.11769">
        <ele>138.09</ele>
        <time>2015-09-11T13:57:40Z</time>
      </trkpt>
      <trkpt lat="48.20197" lon="-3.11755">
        <ele>133.28</ele>
        <time>2015-09-11T13:57:55Z</time>
      </trkpt>
      <trkpt lat="48.20207" lon="-3.11731">
        <ele>136.16</ele>
        <time>2015-09-11T13:58:08Z</time>
      </trkpt>
      <trkpt lat="48.20217" lon="-3.11716">
        <ele>135.2</ele>
        <time>2015-09-11T13:58:20Z</time>
      </trkpt>
      <trkpt lat="48.2023" lon="-3.11692">
        <ele>134.72</ele>
        <time>2015-09-11T13:58:36Z</time>
      </trkpt>
      <trkpt lat="48.20235" lon="-3.11686">
        <ele>134.24</ele>
        <time>2015-09-11T13:58:43Z</time>
      </trkpt>
      <trkpt lat="48.20235" lon="-3.11683">
        <ele>133.76</ele>
        <time>2015-09-11T13:58:45Z</time>
      </trkpt>
      <trkpt lat="48.20241" lon="-3.1167">
        <ele>130.4</ele>
        <time>2015-09-11T13:58:55Z</time>
      </trkpt>
      <trkpt lat="48.20247" lon="-3.1165">
        <ele>125.59</ele>
        <time>2015-09-11T13:59:09Z</time>
      </trkpt>
      <trkpt lat="48.20256" lon="-3.1163">
        <ele>121.74</ele>
        <time>2015-09-11T13:59:23Z</time>
      </trkpt>
      <trkpt lat="48.20269" lon="-3.11616">
        <ele>121.74</ele>
        <time>2015-09-11T13:59:37Z</time>
      </trkpt>
      <trkpt lat="48.2027" lon="-3.11615">
        <ele>122.22</ele>
        <time>2015-09-11T13:59:39Z</time>
      </trkpt>
      <trkpt lat="48.20278" lon="-3.11609">
        <ele>121.74</ele>
        <time>2015-09-11T13:59:45Z</time>
      </trkpt>
      <trkpt lat="48.2029" lon="-3.11594">
        <ele>119.82</ele>
        <time>2015-09-11T13:59:58Z</time>
      </trkpt>
      <trkpt lat="48.20292" lon="-3.11592">
        <ele>119.34</ele>
        <time>2015-09-11T14:00:00Z</time>
      </trkpt>
      <trkpt lat="48.20295" lon="-3.1159">
        <ele>119.34</ele>
        <time>2015-09-11T14:00:03Z</time>
      </trkpt>
      <trkpt lat="48.20308" lon="-3.11582">
        <ele>119.34</ele>
        <time>2015-09-11T14:00:17Z</time>
      </trkpt>
      <trkpt lat="48.20315" lon="-3.11578">
        <ele>120.3</ele>
        <time>2015-09-11T14:00:28Z</time>
      </trkpt>
      <trkpt lat="48.20324" lon="-3.11579">
        <ele>120.78</ele>
        <time>2015-09-11T14:00:33Z</time>
      </trkpt>
      <trkpt lat="48.20336" lon="-3.11573">
        <ele>120.3</ele>
        <time>2015-09-11T14:00:47Z</time>
      </trkpt>
      <trkpt lat="48.20348" lon="-3.11566">
        <ele>120.3</ele>
        <time>2015-09-11T14:00:57Z</time>
      </trkpt>
      <trkpt lat="48.20353" lon="-3.11564">
        <ele>120.3</ele>
        <time>2015-09-11T14:01:02Z</time>
      </trkpt>
      <trkpt lat="48.20372" lon="-3.11567">
        <ele>121.74</ele>
        <time>2015-09-11T14:01:15Z</time>
      </trkpt>
      <trkpt lat="48.20388" lon="-3.11568">
        <ele>121.74</ele>
        <time>2015-09-11T14:01:29Z</time>
      </trkpt>
      <trkpt lat="48.20401" lon="-3.11572">
        <ele>123.67</ele>
        <time>2015-09-11T14:01:42Z</time>
      </trkpt>
      <trkpt lat="48.20411" lon="-3.11575">
        <ele>125.11</ele>
        <time>2015-09-11T14:01:52Z</time>
      </trkpt>
      <trkpt lat="48.2043" lon="-3.11583">
        <ele>127.99</ele>
        <time>2015-09-11T14:02:03Z</time>
      </trkpt>
      <trkpt lat="48.20437" lon="-3.11586">
        <ele>133.76</ele>
        <time>2015-09-11T14:02:18Z</time>
      </trkpt>
      <trkpt lat="48.2044" lon="-3.11588">
        <ele>134.72</ele>
        <time>2015-09-11T14:02:34Z</time>
      </trkpt>
      <trkpt lat="48.20447" lon="-3.11592">
        <ele>134.24</ele>
        <time>2015-09-11T14:02:47Z</time>
      </trkpt>
      <trkpt lat="48.20459" lon="-3.11598">
        <ele>133.28</ele>
        <time>2015-09-11T14:03:01Z</time>
      </trkpt>
      <trkpt lat="48.20468" lon="-3.11601">
        <ele>132.32</ele>
        <time>2015-09-11T14:03:14Z</time>
      </trkpt>
      <trkpt lat="48.20481" lon="-3.11605">
        <ele>132.8</ele>
        <time>2015-09-11T14:03:29Z</time>
      </trkpt>
      <trkpt lat="48.20484" lon="-3.11606">
        <ele>133.28</ele>
        <time>2015-09-11T14:03:35Z</time>
      </trkpt>
      <trkpt lat="48.20494" lon="-3.11604">
        <ele>132.8</ele>
        <time>2015-09-11T14:03:40Z</time>
      </trkpt>
      <trkpt lat="48.20521" lon="-3.11607">
        <ele>133.76</ele>
        <time>2015-09-11T14:03:53Z</time>
      </trkpt>
      <trkpt lat="48.20543" lon="-3.11606">
        <ele>133.76</ele>
        <time>2015-09-11T14:04:07Z</time>
      </trkpt>
      <trkpt lat="48.20564" lon="-3.11603">
        <ele>130.88</ele>
        <time>2015-09-11T14:04:22Z</time>
      </trkpt>
      <trkpt lat="48.20581" lon="-3.11596">
        <ele>130.88</ele>
        <time>2015-09-11T14:04:36Z</time>
      </trkpt>
      <trkpt lat="48.20584" lon="-3.11595">
        <ele>130.88</ele>
        <time>2015-09-11T14:04:41Z</time>
      </trkpt>
      <trkpt lat="48.20591" lon="-3.11594">
        <ele>129.92</ele>
        <time>2015-09-11T14:04:45Z</time>
      </trkpt>
      <trkpt lat="48.20612" lon="-3.11589">
        <ele>125.11</ele>
        <time>2015-09-11T14:05:01Z</time>
      </trkpt>
      <trkpt lat="48.20628" lon="-3.11588">
        <ele>123.19</ele>
        <time>2015-09-11T14:05:15Z</time>
      </trkpt>
      <trkpt lat="48.20647" lon="-3.11588">
        <ele>119.82</ele>
        <time>2015-09-11T14:05:32Z</time>
      </trkpt>
      <trkpt lat="48.20656" lon="-3.11589">
        <ele>119.82</ele>
        <time>2015-09-11T14:05:42Z</time>
      </trkpt>
      <trkpt lat="48.20659" lon="-3.1159">
        <ele>118.86</ele>
        <time>2015-09-11T14:05:45Z</time>
      </trkpt>
      <trkpt lat="48.20663" lon="-3.11594">
        <ele>118.86</ele>
        <time>2015-09-11T14:05:49Z</time>
      </trkpt>
      <trkpt lat="48.20668" lon="-3.11601">
        <ele>118.38</ele>
        <time>2015-09-11T14:06:00Z</time>
      </trkpt>
      <trkpt lat="48.20672" lon="-3.11604">
        <ele>120.3</ele>
        <time>2015-09-11T14:06:15Z</time>
      </trkpt>
      <trkpt lat="48.20673" lon="-3.11604">
        <ele>120.3</ele>
        <time>2015-09-11T14:06:27Z</time>
      </trkpt>
      <trkpt lat="48.20674" lon="-3.11604">
        <ele>120.78</ele>
        <time>2015-09-11T14:06:45Z</time>
      </trkpt>
      <trkpt lat="48.20674" lon="-3.11604">
        <ele>121.74</ele>
        <time>2015-09-11T14:06:58Z</time>
      </trkpt>
      <trkpt lat="48.20674" lon="-3.11604">
        <ele>121.74</ele>
        <time>2015-09-11T14:07:17Z</time>
      </trkpt>
      <trkpt lat="48.20675" lon="-3.11604">
        <ele>123.19</ele>
        <time>2015-09-11T14:07:39Z</time>
      </trkpt>
      <trkpt lat="48.20676" lon="-3.11605">
        <ele>124.15</ele>
        <time>2015-09-11T14:08:02Z</time>
      </trkpt>
      <trkpt lat="48.20676" lon="-3.11605">
        <ele>124.15</ele>
        <time>2015-09-11T14:08:21Z</time>
      </trkpt>
      <trkpt lat="48.20676" lon="-3.11606">
        <ele>124.63</ele>
        <time>2015-09-11T14:08:37Z</time>
      </trkpt>
      <trkpt lat="48.20676" lon="-3.11607">
        <ele>124.15</ele>
        <time>2015-09-11T14:08:56Z</time>
      </trkpt>
      <trkpt lat="48.20677" lon="-3.11609">
        <ele>123.67</ele>
        <time>2015-09-11T14:09:10Z</time>
      </trkpt>
      <trkpt lat="48.20678" lon="-3.1161">
        <ele>123.67</ele>
        <time>2015-09-11T14:09:14Z</time>
      </trkpt>
      <trkpt lat="48.20676" lon="-3.11624">
        <ele>123.19</ele>
        <time>2015-09-11T14:09:27Z</time>
      </trkpt>
      <trkpt lat="48.2067" lon="-3.11634">
        <ele>124.15</ele>
        <time>2015-09-11T14:09:39Z</time>
      </trkpt>
      <trkpt lat="48.20665" lon="-3.11643">
        <ele>123.67</ele>
        <time>2015-09-11T14:09:51Z</time>
      </trkpt>
      <trkpt lat="48.20661" lon="-3.11646">
        <ele>122.22</ele>
        <time>2015-09-11T14:10:05Z</time>
      </trkpt>
      <trkpt lat="48.20653" lon="-3.11648">
        <ele>120.78</ele>
        <time>2015-09-11T14:10:17Z</time>
      </trkpt>
      <trkpt lat="48.20649" lon="-3.11648">
        <ele>119.82</ele>
        <time>2015-09-11T14:10:31Z</time>
      </trkpt>
      <trkpt lat="48.20641" lon="-3.11652">
        <ele>119.34</ele>
        <time>2015-09-11T14:10:47Z</time>
      </trkpt>
      <trkpt lat="48.2063" lon="-3.11655">
        <ele>119.34</ele>
        <time>2015-09-11T14:11:03Z</time>
      </trkpt>
      <trkpt lat="48.20623" lon="-3.11657">
        <ele>119.34</ele>
        <time>2015-09-11T14:11:19Z</time>
      </trkpt>
      <trkpt lat="48.20616" lon="-3.11657">
        <ele>118.38</ele>
        <time>2015-09-11T14:11:34Z</time>
      </trkpt>
      <trkpt lat="48.20608" lon="-3.11654">
        <ele>115.5</ele>
        <time>2015-09-11T14:11:49Z</time>
      </trkpt>
      <trkpt lat="48.20602" lon="-3.11638">
        <ele>103.48</ele>
        <time>2015-09-11T14:12:02Z</time>
      </trkpt>
      <trkpt lat="48.20557" lon="-3.11658">
        <ele>115.01</ele>
        <time>2015-09-11T14:12:16Z</time>
      </trkpt>
      <trkpt lat="48.20547" lon="-3.1166">
        <ele>123.19</ele>
        <time>2015-09-11T14:12:43Z</time>
      </trkpt>
      <trkpt lat="48.20539" lon="-3.11659">
        <ele>125.11</ele>
        <time>2015-09-11T14:13:00Z</time>
      </trkpt>
      <trkpt lat="48.20533" lon="-3.1166">
        <ele>127.99</ele>
        <time>2015-09-11T14:13:15Z</time>
      </trkpt>
      <trkpt lat="48.20523" lon="-3.11661">
        <ele>131.84</ele>
        <time>2015-09-11T14:13:32Z</time>
      </trkpt>
      <trkpt lat="48.20507" lon="-3.11644">
        <ele>131.36</ele>
        <time>2015-09-11T14:13:46Z</time>
      </trkpt>
      <trkpt lat="48.20503" lon="-3.11641">
        <ele>130.4</ele>
        <time>2015-09-11T14:13:49Z</time>
      </trkpt>
      <trkpt lat="48.20483" lon="-3.11637">
        <ele>128.47</ele>
        <time>2015-09-11T14:14:02Z</time>
      </trkpt>
      <trkpt lat="48.20476" lon="-3.11636">
        <ele>128.95</ele>
        <time>2015-09-11T14:14:13Z</time>
      </trkpt>
      <trkpt lat="48.20474" lon="-3.11639">
        <ele>130.4</ele>
        <time>2015-09-11T14:14:25Z</time>
      </trkpt>
      <trkpt lat="48.20473" lon="-3.11642">
        <ele>130.4</ele>
        <time>2015-09-11T14:14:39Z</time>
      </trkpt>
      <trkpt lat="48.20475" lon="-3.11645">
        <ele>129.43</ele>
        <time>2015-09-11T14:14:53Z</time>
      </trkpt>
      <trkpt lat="48.20475" lon="-3.11651">
        <ele>128.47</ele>
        <time>2015-09-11T14:15:07Z</time>
      </trkpt>
      <trkpt lat="48.20471" lon="-3.11664">
        <ele>129.92</ele>
        <time>2015-09-11T14:15:22Z</time>
      </trkpt>
      <trkpt lat="48.20465" lon="-3.11674">
        <ele>131.84</ele>
        <time>2015-09-11T14:15:35Z</time>
      </trkpt>
      <trkpt lat="48.20462" lon="-3.1168">
        <ele>132.8</ele>
        <time>2015-09-11T14:15:50Z</time>
      </trkpt>
      <trkpt lat="48.2045" lon="-3.11694">
        <ele>134.24</ele>
        <time>2015-09-11T14:16:15Z</time>
      </trkpt>
      <trkpt lat="48.20445" lon="-3.117">
        <ele>136.64</ele>
        <time>2015-09-11T14:16:37Z</time>
      </trkpt>
      <trkpt lat="48.20445" lon="-3.11711">
        <ele>135.68</ele>
        <time>2015-09-11T14:16:49Z</time>
      </trkpt>
      <trkpt lat="48.20445" lon="-3.11721">
        <ele>134.24</ele>
        <time>2015-09-11T14:17:01Z</time>
      </trkpt>
      <trkpt lat="48.20441" lon="-3.11737">
        <ele>138.57</ele>
        <time>2015-09-11T14:17:17Z</time>
      </trkpt>
      <trkpt lat="48.20441" lon="-3.11745">
        <ele>140.49</ele>
        <time>2015-09-11T14:17:34Z</time>
      </trkpt>
      <trkpt lat="48.20443" lon="-3.11754">
        <ele>140.49</ele>
        <time>2015-09-11T14:17:44Z</time>
      </trkpt>
      <trkpt lat="48.20445" lon="-3.11759">
        <ele>140.49</ele>
        <time>2015-09-11T14:18:00Z</time>
      </trkpt>
      <trkpt lat="48.20448" lon="-3.11767">
        <ele>140.49</ele>
        <time>2015-09-11T14:18:18Z</time>
      </trkpt>
      <trkpt lat="48.20448" lon="-3.11774">
        <ele>140.97</ele>
        <time>2015-09-11T14:18:30Z</time>
      </trkpt>
      <trkpt lat="48.2044" lon="-3.11786">
        <ele>146.26</ele>
        <time>2015-09-11T14:18:49Z</time>
      </trkpt>
      <trkpt lat="48.20439" lon="-3.1179">
        <ele>148.66</ele>
        <time>2015-09-11T14:19:12Z</time>
      </trkpt>
      <trkpt lat="48.20437" lon="-3.11795">
        <ele>151.06</ele>
        <time>2015-09-11T14:19:30Z</time>
      </trkpt>
      <trkpt lat="48.20437" lon="-3.11799">
        <ele>152.03</ele>
        <time>2015-09-11T14:19:46Z</time>
      </trkpt>
      <trkpt lat="48.20438" lon="-3.11802">
        <ele>151.06</ele>
        <time>2015-09-11T14:19:59Z</time>
      </trkpt>
      <trkpt lat="48.20436" lon="-3.11811">
        <ele>152.51</ele>
        <time>2015-09-11T14:20:15Z</time>
      </trkpt>
      <trkpt lat="48.20435" lon="-3.11816">
        <ele>153.47</ele>
        <time>2015-09-11T14:20:29Z</time>
      </trkpt>
      <trkpt lat="48.20427" lon="-3.11829">
        <ele>157.79</ele>
        <time>2015-09-11T14:20:43Z</time>
      </trkpt>
      <trkpt lat="48.20424" lon="-3.11837">
        <ele>158.75</ele>
        <time>2015-09-11T14:20:59Z</time>
      </trkpt>
      <trkpt lat="48.20422" lon="-3.11843">
        <ele>160.2</ele>
        <time>2015-09-11T14:21:21Z</time>
      </trkpt>
      <trkpt lat="48.20416" lon="-3.11853">
        <ele>166.45</ele>
        <time>2015-09-11T14:21:38Z</time>
      </trkpt>
      <trkpt lat="48.20416" lon="-3.11861">
        <ele>168.37</ele>
        <time>2015-09-11T14:21:49Z</time>
      </trkpt>
      <trkpt lat="48.20417" lon="-3.11869">
        <ele>169.81</ele>
        <time>2015-09-11T14:22:00Z</time>
      </trkpt>
      <trkpt lat="48.20421" lon="-3.11882">
        <ele>172.21</ele>
        <time>2015-09-11T14:22:12Z</time>
      </trkpt>
      <trkpt lat="48.20424" lon="-3.11896">
        <ele>174.62</ele>
        <time>2015-09-11T14:22:26Z</time>
      </trkpt>
      <trkpt lat="48.2043" lon="-3.11903">
        <ele>176.06</ele>
        <time>2015-09-11T14:22:35Z</time>
      </trkpt>
      <trkpt lat="48.20438" lon="-3.11912">
        <ele>177.5</ele>
        <time>2015-09-11T14:22:48Z</time>
      </trkpt>
      <trkpt lat="48.20434" lon="-3.11928">
        <ele>183.27</ele>
        <time>2015-09-11T14:23:00Z</time>
      </trkpt>
      <trkpt lat="48.20436" lon="-3.11931">
        <ele>184.23</ele>
        <time>2015-09-11T14:23:05Z</time>
      </trkpt>
      <trkpt lat="48.20442" lon="-3.11935">
        <ele>185.67</ele>
        <time>2015-09-11T14:23:16Z</time>
      </trkpt>
      <trkpt lat="48.20448" lon="-3.11942">
        <ele>187.59</ele>
        <time>2015-09-11T14:23:27Z</time>
      </trkpt>
      <trkpt lat="48.2046" lon="-3.11951">
        <ele>190.96</ele>
        <time>2015-09-11T14:23:40Z</time>
      </trkpt>
      <trkpt lat="48.20461" lon="-3.11952">
        <ele>190.96</ele>
        <time>2015-09-11T14:23:41Z</time>
      </trkpt>
      <trkpt lat="48.20472" lon="-3.11959">
        <ele>195.28</ele>
        <time>2015-09-11T14:23:51Z</time>
      </trkpt>
      <trkpt lat="48.20484" lon="-3.11968">
        <ele>199.61</ele>
        <time>2015-09-11T14:24:02Z</time>
      </trkpt>
      <trkpt lat="48.20499" lon="-3.11971">
        <ele>203.46</ele>
        <time>2015-09-11T14:24:11Z</time>
      </trkpt>
      <trkpt lat="48.20509" lon="-3.11975">
        <ele>205.38</ele>
        <time>2015-09-11T14:24:26Z</time>
      </trkpt>
      <trkpt lat="48.2052" lon="-3.11976">
        <ele>207.3</ele>
        <time>2015-09-11T14:24:41Z</time>
      </trkpt>
      <trkpt lat="48.20538" lon="-3.11974">
        <ele>212.11</ele>
        <time>2015-09-11T14:24:54Z</time>
      </trkpt>
      <trkpt lat="48.20551" lon="-3.11979">
        <ele>215.47</ele>
        <time>2015-09-11T14:25:09Z</time>
      </trkpt>
      <trkpt lat="48.20566" lon="-3.11994">
        <ele>218.36</ele>
        <time>2015-09-11T14:25:24Z</time>
      </trkpt>
      <trkpt lat="48.20568" lon="-3.11994">
        <ele>219.8</ele>
        <time>2015-09-11T14:25:26Z</time>
      </trkpt>
      <trkpt lat="48.20576" lon="-3.11994">
        <ele>221.72</ele>
        <time>2015-09-11T14:25:41Z</time>
      </trkpt>
      <trkpt lat="48.20585" lon="-3.11994">
        <ele>222.68</ele>
        <time>2015-09-11T14:25:53Z</time>
      </trkpt>
      <trkpt lat="48.20594" lon="-3.11997">
        <ele>223.16</ele>
        <time>2015-09-11T14:26:05Z</time>
      </trkpt>
      <trkpt lat="48.20602" lon="-3.11995">
        <ele>222.68</ele>
        <time>2015-09-11T14:26:16Z</time>
      </trkpt>
      <trkpt lat="48.20606" lon="-3.11995">
        <ele>221.72</ele>
        <time>2015-09-11T14:26:19Z</time>
      </trkpt>
      <trkpt lat="48.20617" lon="-3.11994">
        <ele>221.24</ele>
        <time>2015-09-11T14:26:31Z</time>
      </trkpt>
      <trkpt lat="48.20629" lon="-3.11997">
        <ele>223.16</ele>
        <time>2015-09-11T14:26:42Z</time>
      </trkpt>
      <trkpt lat="48.20633" lon="-3.11998">
        <ele>223.64</ele>
        <time>2015-09-11T14:26:45Z</time>
      </trkpt>
      <trkpt lat="48.20651" lon="-3.12016">
        <ele>222.68</ele>
        <time>2015-09-11T14:27:01Z</time>
      </trkpt>
      <trkpt lat="48.2065" lon="-3.12017">
        <ele>222.68</ele>
        <time>2015-09-11T14:27:03Z</time>
      </trkpt>
      <trkpt lat="48.20651" lon="-3.1203">
        <ele>223.64</ele>
        <time>2015-09-11T14:27:14Z</time>
      </trkpt>
      <trkpt lat="48.20653" lon="-3.12035">
        <ele>224.61</ele>
        <time>2015-09-11T14:27:33Z</time>
      </trkpt>
      <trkpt lat="48.20653" lon="-3.1204">
        <ele>224.12</ele>
        <time>2015-09-11T14:27:40Z</time>
      </trkpt>
      <trkpt lat="48.20653" lon="-3.12056">
        <ele>221.24</ele>
        <time>2015-09-11T14:27:52Z</time>
      </trkpt>
      <trkpt lat="48.20658" lon="-3.1207">
        <ele>221.72</ele>
        <time>2015-09-11T14:28:05Z</time>
      </trkpt>
      <trkpt lat="48.20668" lon="-3.12086">
        <ele>221.24</ele>
        <time>2015-09-11T14:28:17Z</time>
      </trkpt>
      <trkpt lat="48.20683" lon="-3.12084">
        <ele>221.24</ele>
        <time>2015-09-11T14:28:31Z</time>
      </trkpt>
      <trkpt lat="48.20708" lon="-3.12089">
        <ele>223.64</ele>
        <time>2015-09-11T14:28:45Z</time>
      </trkpt>
      <trkpt lat="48.20717" lon="-3.12088">
        <ele>223.16</ele>
        <time>2015-09-11T14:28:53Z</time>
      </trkpt>
      <trkpt lat="48.20732" lon="-3.12104">
        <ele>222.68</ele>
        <time>2015-09-11T14:29:08Z</time>
      </trkpt>
      <trkpt lat="48.20737" lon="-3.12121">
        <ele>219.32</ele>
        <time>2015-09-11T14:29:23Z</time>
      </trkpt>
      <trkpt lat="48.20738" lon="-3.12137">
        <ele>211.63</ele>
        <time>2015-09-11T14:29:36Z</time>
      </trkpt>
      <trkpt lat="48.20739" lon="-3.12146">
        <ele>208.26</ele>
        <time>2015-09-11T14:29:49Z</time>
      </trkpt>
      <trkpt lat="48.20742" lon="-3.12149">
        <ele>204.9</ele>
        <time>2015-09-11T14:30:00Z</time>
      </trkpt>
      <trkpt lat="48.20758" lon="-3.12146">
        <ele>202.49</ele>
        <time>2015-09-11T14:30:11Z</time>
      </trkpt>
      <trkpt lat="48.20768" lon="-3.1213">
        <ele>197.21</ele>
        <time>2015-09-11T14:30:27Z</time>
      </trkpt>
      <trkpt lat="48.20774" lon="-3.12123">
        <ele>195.28</ele>
        <time>2015-09-11T14:30:40Z</time>
      </trkpt>
      <trkpt lat="48.20779" lon="-3.12132">
        <ele>192.4</ele>
        <time>2015-09-11T14:30:52Z</time>
      </trkpt>
      <trkpt lat="48.2078" lon="-3.12141">
        <ele>190.48</ele>
        <time>2015-09-11T14:31:04Z</time>
      </trkpt>
      <trkpt lat="48.20785" lon="-3.12149">
        <ele>186.63</ele>
        <time>2015-09-11T14:31:17Z</time>
      </trkpt>
      <trkpt lat="48.2079" lon="-3.12155">
        <ele>185.19</ele>
        <time>2015-09-11T14:31:24Z</time>
      </trkpt>
      <trkpt lat="48.208" lon="-3.12176">
        <ele>182.31</ele>
        <time>2015-09-11T14:31:37Z</time>
      </trkpt>
      <trkpt lat="48.20807" lon="-3.12195">
        <ele>180.87</ele>
        <time>2015-09-11T14:31:49Z</time>
      </trkpt>
      <trkpt lat="48.20806" lon="-3.12216">
        <ele>179.42</ele>
        <time>2015-09-11T14:32:03Z</time>
      </trkpt>
      <trkpt lat="48.20805" lon="-3.12243">
        <ele>183.27</ele>
        <time>2015-09-11T14:32:17Z</time>
      </trkpt>
      <trkpt lat="48.20808" lon="-3.12264">
        <ele>188.56</ele>
        <time>2015-09-11T14:32:31Z</time>
      </trkpt>
      <trkpt lat="48.20816" lon="-3.12284">
        <ele>190.96</ele>
        <time>2015-09-11T14:32:45Z</time>
      </trkpt>
      <trkpt lat="48.2082" lon="-3.12296">
        <ele>193.36</ele>
        <time>2015-09-11T14:32:55Z</time>
      </trkpt>
      <trkpt lat="48.20823" lon="-3.12312">
        <ele>190.48</ele>
        <time>2015-09-11T14:33:08Z</time>
      </trkpt>
      <trkpt lat="48.20826" lon="-3.12336">
        <ele>190</ele>
        <time>2015-09-11T14:33:22Z</time>
      </trkpt>
      <trkpt lat="48.20825" lon="-3.12356">
        <ele>189.04</ele>
        <time>2015-09-11T14:33:35Z</time>
      </trkpt>
      <trkpt lat="48.20827" lon="-3.12373">
        <ele>190.48</ele>
        <time>2015-09-11T14:33:49Z</time>
      </trkpt>
      <trkpt lat="48.20838" lon="-3.12389">
        <ele>187.59</ele>
        <time>2015-09-11T14:34:04Z</time>
      </trkpt>
      <trkpt lat="48.20845" lon="-3.12402">
        <ele>188.56</ele>
        <time>2015-09-11T14:34:14Z</time>
      </trkpt>
      <trkpt lat="48.20846" lon="-3.12405">
        <ele>189.04</ele>
        <time>2015-09-11T14:34:15Z</time>
      </trkpt>
      <trkpt lat="48.20851" lon="-3.12416">
        <ele>187.59</ele>
        <time>2015-09-11T14:34:28Z</time>
      </trkpt>
      <trkpt lat="48.20855" lon="-3.12419">
        <ele>182.79</ele>
        <time>2015-09-11T14:34:39Z</time>
      </trkpt>
      <trkpt lat="48.20859" lon="-3.12428">
        <ele>178.94</ele>
        <time>2015-09-11T14:34:49Z</time>
      </trkpt>
      <trkpt lat="48.20863" lon="-3.12446">
        <ele>171.25</ele>
        <time>2015-09-11T14:35:01Z</time>
      </trkpt>
      <trkpt lat="48.20868" lon="-3.12469">
        <ele>168.85</ele>
        <time>2015-09-11T14:35:14Z</time>
      </trkpt>
      <trkpt lat="48.20868" lon="-3.12481">
        <ele>169.33</ele>
        <time>2015-09-11T14:35:23Z</time>
      </trkpt>
      <trkpt lat="48.20871" lon="-3.12502">
        <ele>167.89</ele>
        <time>2015-09-11T14:35:35Z</time>
      </trkpt>
      <trkpt lat="48.20874" lon="-3.12521">
        <ele>166.45</ele>
        <time>2015-09-11T14:35:48Z</time>
      </trkpt>
      <trkpt lat="48.2088" lon="-3.12529">
        <ele>166.45</ele>
        <time>2015-09-11T14:35:57Z</time>
      </trkpt>
      <trkpt lat="48.20901" lon="-3.12556">
        <ele>169.81</ele>
        <time>2015-09-11T14:36:12Z</time>
      </trkpt>
      <trkpt lat="48.209" lon="-3.12571">
        <ele>167.89</ele>
        <time>2015-09-11T14:36:24Z</time>
      </trkpt>
      <trkpt lat="48.209" lon="-3.12572">
        <ele>167.89</ele>
        <time>2015-09-11T14:36:26Z</time>
      </trkpt>
      <trkpt lat="48.20904" lon="-3.12586">
        <ele>165.48</ele>
        <time>2015-09-11T14:36:37Z</time>
      </trkpt>
      <trkpt lat="48.20904" lon="-3.12587">
        <ele>165.48</ele>
        <time>2015-09-11T14:36:38Z</time>
      </trkpt>
      <trkpt lat="48.20906" lon="-3.12593">
        <ele>163.56</ele>
        <time>2015-09-11T14:36:43Z</time>
      </trkpt>
      <trkpt lat="48.20909" lon="-3.12611">
        <ele>158.75</ele>
        <time>2015-09-11T14:36:55Z</time>
      </trkpt>
      <trkpt lat="48.20911" lon="-3.12625">
        <ele>156.35</ele>
        <time>2015-09-11T14:37:10Z</time>
      </trkpt>
      <trkpt lat="48.20915" lon="-3.12645">
        <ele>152.51</ele>
        <time>2015-09-11T14:37:20Z</time>
      </trkpt>
      <trkpt lat="48.20913" lon="-3.12659">
        <ele>152.03</ele>
        <time>2015-09-11T14:37:32Z</time>
      </trkpt>
      <trkpt lat="48.20915" lon="-3.12664">
        <ele>152.03</ele>
        <time>2015-09-11T14:37:40Z</time>
      </trkpt>
      <trkpt lat="48.20918" lon="-3.12672">
        <ele>152.03</ele>
        <time>2015-09-11T14:37:49Z</time>
      </trkpt>
      <trkpt lat="48.2092" lon="-3.12681">
        <ele>152.51</ele>
        <time>2015-09-11T14:37:59Z</time>
      </trkpt>
      <trkpt lat="48.20921" lon="-3.12691">
        <ele>153.95</ele>
        <time>2015-09-11T14:38:09Z</time>
      </trkpt>
      <trkpt lat="48.20924" lon="-3.127">
        <ele>155.39</ele>
        <time>2015-09-11T14:38:19Z</time>
      </trkpt>
      <trkpt lat="48.20934" lon="-3.12715">
        <ele>160.68</ele>
        <time>2015-09-11T14:38:31Z</time>
      </trkpt>
      <trkpt lat="48.20937" lon="-3.12736">
        <ele>163.56</ele>
        <time>2015-09-11T14:38:44Z</time>
      </trkpt>
      <trkpt lat="48.20939" lon="-3.12737">
        <ele>164.04</ele>
        <time>2015-09-11T14:38:46Z</time>
      </trkpt>
      <trkpt lat="48.20949" lon="-3.12754">
        <ele>167.41</ele>
        <time>2015-09-11T14:38:58Z</time>
      </trkpt>
      <trkpt lat="48.20956" lon="-3.12772">
        <ele>168.37</ele>
        <time>2015-09-11T14:39:10Z</time>
      </trkpt>
      <trkpt lat="48.20959" lon="-3.12784">
        <ele>166.93</ele>
        <time>2015-09-11T14:39:20Z</time>
      </trkpt>
      <trkpt lat="48.20966" lon="-3.12794">
        <ele>166.93</ele>
        <time>2015-09-11T14:39:30Z</time>
      </trkpt>
      <trkpt lat="48.20973" lon="-3.12811">
        <ele>162.6</ele>
        <time>2015-09-11T14:39:43Z</time>
      </trkpt>
      <trkpt lat="48.20973" lon="-3.12831">
        <ele>161.16</ele>
        <time>2015-09-11T14:39:51Z</time>
      </trkpt>
      <trkpt lat="48.20974" lon="-3.12842">
        <ele>160.2</ele>
        <time>2015-09-11T14:39:58Z</time>
      </trkpt>
      <trkpt lat="48.20973" lon="-3.12851">
        <ele>159.72</ele>
        <time>2015-09-11T14:40:03Z</time>
      </trkpt>
      <trkpt lat="48.20969" lon="-3.12867">
        <ele>157.79</ele>
        <time>2015-09-11T14:40:13Z</time>
      </trkpt>
      <trkpt lat="48.2097" lon="-3.12873">
        <ele>152.99</ele>
        <time>2015-09-11T14:40:25Z</time>
      </trkpt>
      <trkpt lat="48.20976" lon="-3.12868">
        <ele>150.1</ele>
        <time>2015-09-11T14:40:37Z</time>
      </trkpt>
      <trkpt lat="48.20979" lon="-3.12863">
        <ele>148.66</ele>
        <time>2015-09-11T14:40:49Z</time>
      </trkpt>
      <trkpt lat="48.20988" lon="-3.12868">
        <ele>147.22</ele>
        <time>2015-09-11T14:41:01Z</time>
      </trkpt>
      <trkpt lat="48.21" lon="-3.12882">
        <ele>145.78</ele>
        <time>2015-09-11T14:41:15Z</time>
      </trkpt>
      <trkpt lat="48.21008" lon="-3.12893">
        <ele>145.3</ele>
        <time>2015-09-11T14:41:28Z</time>
      </trkpt>
      <trkpt lat="48.21017" lon="-3.12906">
        <ele>139.05</ele>
        <time>2015-09-11T14:41:41Z</time>
      </trkpt>
      <trkpt lat="48.21023" lon="-3.12925">
        <ele>138.09</ele>
        <time>2015-09-11T14:41:56Z</time>
      </trkpt>
      <trkpt lat="48.21037" lon="-3.12937">
        <ele>137.13</ele>
        <time>2015-09-11T14:42:11Z</time>
      </trkpt>
      <trkpt lat="48.21046" lon="-3.12944">
        <ele>135.2</ele>
        <time>2015-09-11T14:42:24Z</time>
      </trkpt>
      <trkpt lat="48.21062" lon="-3.1296">
        <ele>135.2</ele>
        <time>2015-09-11T14:42:37Z</time>
      </trkpt>
      <trkpt lat="48.21066" lon="-3.1297">
        <ele>130.88</ele>
        <time>2015-09-11T14:42:51Z</time>
      </trkpt>
      <trkpt lat="48.21073" lon="-3.12982">
        <ele>128.47</ele>
        <time>2015-09-11T14:43:05Z</time>
      </trkpt>
      <trkpt lat="48.21078" lon="-3.12985">
        <ele>127.99</ele>
        <time>2015-09-11T14:43:14Z</time>
      </trkpt>
      <trkpt lat="48.211" lon="-3.12993">
        <ele>131.84</ele>
        <time>2015-09-11T14:43:27Z</time>
      </trkpt>
      <trkpt lat="48.21108" lon="-3.13003">
        <ele>133.28</ele>
        <time>2015-09-11T14:43:45Z</time>
      </trkpt>
      <trkpt lat="48.21125" lon="-3.13019">
        <ele>136.64</ele>
        <time>2015-09-11T14:44:00Z</time>
      </trkpt>
      <trkpt lat="48.21139" lon="-3.13033">
        <ele>142.41</ele>
        <time>2015-09-11T14:44:14Z</time>
      </trkpt>
      <trkpt lat="48.21148" lon="-3.13045">
        <ele>142.41</ele>
        <time>2015-09-11T14:44:30Z</time>
      </trkpt>
      <trkpt lat="48.21157" lon="-3.13052">
        <ele>141.93</ele>
        <time>2015-09-11T14:44:44Z</time>
      </trkpt>
      <trkpt lat="48.21167" lon="-3.1306">
        <ele>141.93</ele>
        <time>2015-09-11T14:44:50Z</time>
      </trkpt>
      <trkpt lat="48.21183" lon="-3.13074">
        <ele>141.45</ele>
        <time>2015-09-11T14:45:01Z</time>
      </trkpt>
      <trkpt lat="48.21196" lon="-3.13086">
        <ele>143.85</ele>
        <time>2015-09-11T14:45:16Z</time>
      </trkpt>
      <trkpt lat="48.21198" lon="-3.13084">
        <ele>143.85</ele>
        <time>2015-09-11T14:45:29Z</time>
      </trkpt>
      <trkpt lat="48.21194" lon="-3.13081">
        <ele>141.93</ele>
        <time>2015-09-11T14:45:40Z</time>
      </trkpt>
      <trkpt lat="48.2119" lon="-3.13075">
        <ele>142.89</ele>
        <time>2015-09-11T14:45:51Z</time>
      </trkpt>
      <trkpt lat="48.21181" lon="-3.13061">
        <ele>143.37</ele>
        <time>2015-09-11T14:46:04Z</time>
      </trkpt>
      <trkpt lat="48.21173" lon="-3.13044">
        <ele>143.37</ele>
        <time>2015-09-11T14:46:17Z</time>
      </trkpt>
      <trkpt lat="48.21163" lon="-3.13025">
        <ele>136.64</ele>
        <time>2015-09-11T14:46:34Z</time>
      </trkpt>
      <trkpt lat="48.21155" lon="-3.13002">
        <ele>133.28</ele>
        <time>2015-09-11T14:46:47Z</time>
      </trkpt>
      <trkpt lat="48.21141" lon="-3.12989">
        <ele>128.47</ele>
        <time>2015-09-11T14:47:00Z</time>
      </trkpt>
      <trkpt lat="48.21131" lon="-3.1298">
        <ele>127.51</ele>
        <time>2015-09-11T14:47:12Z</time>
      </trkpt>
      <trkpt lat="48.21128" lon="-3.12977">
        <ele>130.88</ele>
        <time>2015-09-11T14:47:26Z</time>
      </trkpt>
      <trkpt lat="48.21127" lon="-3.12975">
        <ele>132.8</ele>
        <time>2015-09-11T14:47:34Z</time>
      </trkpt>
    </trkseg>
  </trk>
</gpx>